<?xml version='1.0' encoding='UTF-8'?><gpx version="1.1" creator="JPX - https://github.com/jenetics/jpx" xmlns="http://www.topografix.com/GPX/1/1"><trk><trkseg><trkpt lat="38.18259231895255" lon="15.355704541578502"><ele>56.0</ele><time>2026-04-05T13:43:19.999Z</time></trkpt><trkpt lat="38.18247230098478" lon="15.355779134217144"><ele>55.99999999999999</ele><time>2026-04-05T13:43:21.999Z</time></trkpt><trkpt lat="38.1824025236066" lon="15.355825710440135"><ele>55.99999999999999</ele><time>2026-04-05T13:43:22.999Z</time></trkpt><trkpt lat="38.18233791236813" lon="15.355813506544118"><ele>56.0</ele><time>2026-04-05T13:43:23.999Z</time></trkpt><trkpt lat="38.18222874673059" lon="15.355884578308151"><ele>56.0</ele><time>2026-04-05T13:43:25.999Z</time></trkpt><trkpt lat="38.18217139497824" lon="15.355921916909441"><ele>56.0</ele><time>2026-04-05T13:43:26.999Z</time></trkpt><trkpt lat="38.18210911526969" lon="15.35596246383644"><ele>56.0</ele><time>2026-04-05T13:43:27.999Z</time></trkpt><trkpt lat="38.18205160380281" lon="15.35599990646931"><ele>56.0</ele><time>2026-04-05T13:43:28.999Z</time></trkpt><trkpt lat="38.18199103017593" lon="15.356041142605566"><ele>56.0</ele><time>2026-04-05T13:43:29.999Z</time></trkpt><trkpt lat="38.181933183343354" lon="15.356085378453262"><ele>56.0</ele><time>2026-04-05T13:43:30.999Z</time></trkpt><trkpt lat="38.18186800419296" lon="15.356142120666963"><ele>56.0</ele><time>2026-04-05T13:43:31.999Z</time></trkpt><trkpt lat="38.1818008287586" lon="15.356211176362756"><ele>56.0</ele><time>2026-04-05T13:43:32.999Z</time></trkpt><trkpt lat="38.18173729318159" lon="15.356277152726449"><ele>56.00000000000001</ele><time>2026-04-05T13:43:33.999Z</time></trkpt><trkpt lat="38.18167489797955" lon="15.35634072725045"><ele>56.0</ele><time>2026-04-05T13:43:34.999Z</time></trkpt><trkpt lat="38.18161207458969" lon="15.35640053456681"><ele>56.0</ele><time>2026-04-05T13:43:35.999Z</time></trkpt><trkpt lat="38.181548819640206" lon="15.356454205791625"><ele>56.0</ele><time>2026-04-05T13:43:36.999Z</time></trkpt><trkpt lat="38.181488654552226" lon="15.35650278148571"><ele>56.00000000000001</ele><time>2026-04-05T13:43:37.999Z</time></trkpt><trkpt lat="38.18142967564916" lon="15.35654924936372"><ele>56.0</ele><time>2026-04-05T13:43:38.999Z</time></trkpt><trkpt lat="38.181362933481225" lon="15.356600490337817"><ele>56.66666666666667</ele><time>2026-04-05T13:43:39.999Z</time></trkpt><trkpt lat="38.181296228973025" lon="15.356651702515999"><ele>57.333333333333336</ele><time>2026-04-05T13:43:40.999Z</time></trkpt><trkpt lat="38.181229792528214" lon="15.356702708804988"><ele>58.0</ele><time>2026-04-05T13:43:41.999Z</time></trkpt><trkpt lat="38.18116355875505" lon="15.356753559469489"><ele>58.66666666666667</ele><time>2026-04-05T13:43:42.999Z</time></trkpt><trkpt lat="38.18109739534706" lon="15.356805608056096"><ele>59.333333333333336</ele><time>2026-04-05T13:43:43.999Z</time></trkpt><trkpt lat="38.18102647852106" lon="15.3568641171079"><ele>60.0</ele><time>2026-04-05T13:43:44.999Z</time></trkpt><trkpt lat="38.180960786048416" lon="15.356918887786312"><ele>60.0</ele><time>2026-04-05T13:43:45.999Z</time></trkpt><trkpt lat="38.180898512709085" lon="15.356971411101062"><ele>60.0</ele><time>2026-04-05T13:43:46.999Z</time></trkpt><trkpt lat="38.18083210975175" lon="15.357028593244"><ele>60.0</ele><time>2026-04-05T13:43:47.999Z</time></trkpt><trkpt lat="38.180769840554994" lon="15.357082215525432"><ele>60.0</ele><time>2026-04-05T13:43:48.999Z</time></trkpt><trkpt lat="38.18070787992663" lon="15.357135572237931"><ele>60.0</ele><time>2026-04-05T13:43:49.999Z</time></trkpt><trkpt lat="38.180644102109795" lon="15.357190494917136"><ele>60.0</ele><time>2026-04-05T13:43:50.999Z</time></trkpt><trkpt lat="38.18057999352628" lon="15.3572457011662"><ele>60.166666666666664</ele><time>2026-04-05T13:43:51.999Z</time></trkpt><trkpt lat="38.18051808201575" lon="15.357299015593053"><ele>60.33333333333333</ele><time>2026-04-05T13:43:52.999Z</time></trkpt><trkpt lat="38.18045373401742" lon="15.357356298407174"><ele>60.5</ele><time>2026-04-05T13:43:53.999Z</time></trkpt><trkpt lat="38.18038771802061" lon="15.357417886555302"><ele>60.666666666666664</ele><time>2026-04-05T13:43:54.999Z</time></trkpt><trkpt lat="38.18031960282377" lon="15.357485128013325"><ele>60.83333333333333</ele><time>2026-04-05T13:43:55.999Z</time></trkpt><trkpt lat="38.18025573683261" lon="15.357554696729661"><ele>61.0</ele><time>2026-04-05T13:43:56.999Z</time></trkpt><trkpt lat="38.1801916741213" lon="15.357626007930264"><ele>60.99999999999999</ele><time>2026-04-05T13:43:57.999Z</time></trkpt><trkpt lat="38.18012809970087" lon="15.357702405849842"><ele>61.0</ele><time>2026-04-05T13:43:58.999Z</time></trkpt><trkpt lat="38.18006201459356" lon="15.357781973866382"><ele>61.0</ele><time>2026-04-05T13:43:59.999Z</time></trkpt><trkpt lat="38.1799978688645" lon="15.357862070548626"><ele>61.0</ele><time>2026-04-05T13:44:00.999Z</time></trkpt><trkpt lat="38.179934314867126" lon="15.35794382378856"><ele>60.99999999999999</ele><time>2026-04-05T13:44:01.999Z</time></trkpt><trkpt lat="38.17987385157674" lon="15.358026082736522"><ele>61.0</ele><time>2026-04-05T13:44:02.999Z</time></trkpt><trkpt lat="38.17981199925184" lon="15.35811113256553"><ele>61.33333333333333</ele><time>2026-04-05T13:44:03.999Z</time></trkpt><trkpt lat="38.17975277463813" lon="15.35819256907965"><ele>61.666666666666664</ele><time>2026-04-05T13:44:04.999Z</time></trkpt><trkpt lat="38.179689222771" lon="15.35827995574928"><ele>62.0</ele><time>2026-04-05T13:44:05.999Z</time></trkpt><trkpt lat="38.17963079234085" lon="15.358360531820336"><ele>62.33333333333333</ele><time>2026-04-05T13:44:06.999Z</time></trkpt><trkpt lat="38.17957022864395" lon="15.358445385181605"><ele>62.666666666666664</ele><time>2026-04-05T13:44:07.999Z</time></trkpt><trkpt lat="38.17950859746515" lon="15.35853173410198"><ele>63.0</ele><time>2026-04-05T13:44:08.999Z</time></trkpt><trkpt lat="38.17944785116497" lon="15.358616843163572"><ele>63.0</ele><time>2026-04-05T13:44:09.999Z</time></trkpt><trkpt lat="38.179384495013394" lon="15.358702168563058"><ele>63.0</ele><time>2026-04-05T13:44:10.999Z</time></trkpt><trkpt lat="38.179332747185406" lon="15.358792584111342"><ele>63.0</ele><time>2026-04-05T13:44:11.999Z</time></trkpt><trkpt lat="38.179270688846465" lon="15.358869251301181"><ele>63.0</ele><time>2026-04-05T13:44:12.999Z</time></trkpt><trkpt lat="38.17920949104534" lon="15.358941984935663"><ele>63.0</ele><time>2026-04-05T13:44:13.999Z</time></trkpt><trkpt lat="38.17914638200082" lon="15.359016881948241"><ele>63.0</ele><time>2026-04-05T13:44:14.999Z</time></trkpt><trkpt lat="38.17907408050884" lon="15.35909867275579"><ele>63.333333333333336</ele><time>2026-04-05T13:44:15.999Z</time></trkpt><trkpt lat="38.179003690924944" lon="15.359182201043742"><ele>63.66666666666667</ele><time>2026-04-05T13:44:16.999Z</time></trkpt><trkpt lat="38.17891865571473" lon="15.359247581537716"><ele>64.0</ele><time>2026-04-05T13:44:17.999Z</time></trkpt><trkpt lat="38.17885867891612" lon="15.359331428667899"><ele>64.33333333333334</ele><time>2026-04-05T13:44:18.999Z</time></trkpt><trkpt lat="38.17880196884998" lon="15.359395052236971"><ele>64.66666666666667</ele><time>2026-04-05T13:44:19.999Z</time></trkpt><trkpt lat="38.1787428821249" lon="15.359459149684792"><ele>65.0</ele><time>2026-04-05T13:44:20.999Z</time></trkpt><trkpt lat="38.17868619446993" lon="15.35952889210869"><ele>65.0</ele><time>2026-04-05T13:44:21.999Z</time></trkpt><trkpt lat="38.17862507048909" lon="15.359594741166235"><ele>65.0</ele><time>2026-04-05T13:44:22.999Z</time></trkpt><trkpt lat="38.17856359601546" lon="15.359662390875643"><ele>65.0</ele><time>2026-04-05T13:44:23.999Z</time></trkpt><trkpt lat="38.17849957331216" lon="15.359731521424887"><ele>65.0</ele><time>2026-04-05T13:44:24.999Z</time></trkpt><trkpt lat="38.17842830940821" lon="15.359806791794748"><ele>65.0</ele><time>2026-04-05T13:44:25.999Z</time></trkpt><trkpt lat="38.17835386001618" lon="15.359882168517023"><ele>65.0</ele><time>2026-04-05T13:44:26.999Z</time></trkpt><trkpt lat="38.17827870274201" lon="15.359960421399727"><ele>65.33333333333334</ele><time>2026-04-05T13:44:27.999Z</time></trkpt><trkpt lat="38.17820573542363" lon="15.360033793630008"><ele>65.66666666666667</ele><time>2026-04-05T13:44:28.999Z</time></trkpt><trkpt lat="38.178139608017595" lon="15.360099037575035"><ele>66.0</ele><time>2026-04-05T13:44:29.999Z</time></trkpt><trkpt lat="38.17808507242293" lon="15.360147841153308"><ele>66.33333333333333</ele><time>2026-04-05T13:44:30.999Z</time></trkpt><trkpt lat="38.17802124235916" lon="15.360204096766555"><ele>66.66666666666666</ele><time>2026-04-05T13:44:31.999Z</time></trkpt><trkpt lat="38.177957250826225" lon="15.3602620817358"><ele>67.0</ele><time>2026-04-05T13:44:32.999Z</time></trkpt><trkpt lat="38.17790223915846" lon="15.360319711754737"><ele>67.2</ele><time>2026-04-05T13:44:33.999Z</time></trkpt><trkpt lat="38.17784838273962" lon="15.36037615030223"><ele>67.4</ele><time>2026-04-05T13:44:34.999Z</time></trkpt><trkpt lat="38.17779833351029" lon="15.360427398457402"><ele>67.6</ele><time>2026-04-05T13:44:35.999Z</time></trkpt><trkpt lat="38.17774810766504" lon="15.360478790295632"><ele>67.8</ele><time>2026-04-05T13:44:36.999Z</time></trkpt><trkpt lat="38.17764785938682" lon="15.360575863056608"><ele>68.0</ele><time>2026-04-05T13:44:38.999Z</time></trkpt><trkpt lat="38.17754504971337" lon="15.360681010010081"><ele>68.16666666666667</ele><time>2026-04-05T13:44:40.999Z</time></trkpt><trkpt lat="38.17748919800482" lon="15.360741092828123"><ele>68.33333333333334</ele><time>2026-04-05T13:44:41.999Z</time></trkpt><trkpt lat="38.177432169284955" lon="15.360801067909502"><ele>68.5</ele><time>2026-04-05T13:44:42.999Z</time></trkpt><trkpt lat="38.177377943074426" lon="15.360858234749335"><ele>68.66666666666667</ele><time>2026-04-05T13:44:44Z</time></trkpt><trkpt lat="38.17729395500194" lon="15.360942181383743"><ele>68.83333333333333</ele><time>2026-04-05T13:44:46Z</time></trkpt><trkpt lat="38.177239518240626" lon="15.360999160479293"><ele>69.0</ele><time>2026-04-05T13:44:48Z</time></trkpt><trkpt lat="38.17715314869706" lon="15.361070678044374"><ele>69.2</ele><time>2026-04-05T13:44:51Z</time></trkpt><trkpt lat="38.17705993480749" lon="15.361151104955205"><ele>69.4</ele><time>2026-04-05T13:44:53Z</time></trkpt><trkpt lat="38.176965601538654" lon="15.361251277477155"><ele>69.6</ele><time>2026-04-05T13:44:55Z</time></trkpt><trkpt lat="38.176877562639945" lon="15.361333647506678"><ele>69.8</ele><time>2026-04-05T13:44:57Z</time></trkpt><trkpt lat="38.176796108452" lon="15.361403600201287"><ele>70.0</ele><time>2026-04-05T13:44:59Z</time></trkpt><trkpt lat="38.17674272527539" lon="15.361455659018763"><ele>70.0</ele><time>2026-04-05T13:45:00Z</time></trkpt><trkpt lat="38.176646166322996" lon="15.361549688759464"><ele>70.0</ele><time>2026-04-05T13:45:01.999Z</time></trkpt><trkpt lat="38.1765895167608" lon="15.36159795946948"><ele>70.0</ele><time>2026-04-05T13:45:02.999Z</time></trkpt><trkpt lat="38.17652019158845" lon="15.361623365147915"><ele>70.0</ele><time>2026-04-05T13:45:03.999Z</time></trkpt><trkpt lat="38.176463048535446" lon="15.361683435802004"><ele>70.0</ele><time>2026-04-05T13:45:04.999Z</time></trkpt><trkpt lat="38.17635194091358" lon="15.361753655304451"><ele>71.5</ele><time>2026-04-05T13:45:06.999Z</time></trkpt><trkpt lat="38.176242638196925" lon="15.361821357627445"><ele>73.0</ele><time>2026-04-05T13:45:08.999Z</time></trkpt><trkpt lat="38.17618402106201" lon="15.361858930316785"><ele>74.5</ele><time>2026-04-05T13:45:09.999Z</time></trkpt><trkpt lat="38.17612437291383" lon="15.361901919794118"><ele>76.0</ele><time>2026-04-05T13:45:10.999Z</time></trkpt><trkpt lat="38.176064816690925" lon="15.361947441322222"><ele>77.5</ele><time>2026-04-05T13:45:11.999Z</time></trkpt><trkpt lat="38.17600579208325" lon="15.361999960188326"><ele>79.0</ele><time>2026-04-05T13:45:12.999Z</time></trkpt><trkpt lat="38.17595312558005" lon="15.362051291754543"><ele>79.0</ele><time>2026-04-05T13:45:13.999Z</time></trkpt><trkpt lat="38.17591067180003" lon="15.36211680520793"><ele>79.0</ele><time>2026-04-05T13:45:14.999Z</time></trkpt><trkpt lat="38.17585603496403" lon="15.362186267969888"><ele>79.0</ele><time>2026-04-05T13:45:15.999Z</time></trkpt><trkpt lat="38.17581282304265" lon="15.362255865249294"><ele>79.0</ele><time>2026-04-05T13:45:16.999Z</time></trkpt><trkpt lat="38.17575621952671" lon="15.362319657720617"><ele>79.0</ele><time>2026-04-05T13:45:17.999Z</time></trkpt><trkpt lat="38.17567991169263" lon="15.362430867917798"><ele>79.0</ele><time>2026-04-05T13:45:19.999Z</time></trkpt><trkpt lat="38.17562984215903" lon="15.362501892440868"><ele>79.66666666666666</ele><time>2026-04-05T13:45:21.999Z</time></trkpt><trkpt lat="38.1755744566279" lon="15.362580457793403"><ele>80.33333333333333</ele><time>2026-04-05T13:45:23.999Z</time></trkpt><trkpt lat="38.175505101123484" lon="15.362678839771347"><ele>81.0</ele><time>2026-04-05T13:45:25.999Z</time></trkpt><trkpt lat="38.17542994121485" lon="15.362798258621728"><ele>81.66666666666667</ele><time>2026-04-05T13:45:27.999Z</time></trkpt><trkpt lat="38.17538648630753" lon="15.362862635632615"><ele>82.33333333333334</ele><time>2026-04-05T13:45:28.999Z</time></trkpt><trkpt lat="38.17534165114973" lon="15.362928771862194"><ele>83.0</ele><time>2026-04-05T13:45:29.999Z</time></trkpt><trkpt lat="38.17529158904525" lon="15.362997488966363"><ele>82.0</ele><time>2026-04-05T13:45:30.999Z</time></trkpt><trkpt lat="38.17523620605577" lon="15.363065686757157"><ele>81.0</ele><time>2026-04-05T13:45:31.999Z</time></trkpt><trkpt lat="38.17517849060256" lon="15.363129764084853"><ele>80.0</ele><time>2026-04-05T13:45:32.999Z</time></trkpt><trkpt lat="38.17512494433873" lon="15.363193081457602"><ele>79.0</ele><time>2026-04-05T13:45:33.999Z</time></trkpt><trkpt lat="38.17507729863528" lon="15.363264298107714"><ele>78.0</ele><time>2026-04-05T13:45:34.999Z</time></trkpt><trkpt lat="38.17503410925509" lon="15.363325953843923"><ele>77.0</ele><time>2026-04-05T13:45:35.999Z</time></trkpt><trkpt lat="38.17497316890377" lon="15.363424678621131"><ele>77.0</ele><time>2026-04-05T13:45:37.999Z</time></trkpt><trkpt lat="38.17490669079028" lon="15.363495559204713"><ele>77.0</ele><time>2026-04-05T13:45:42.999Z</time></trkpt><trkpt lat="38.17485783581194" lon="15.363551754000966"><ele>77.0</ele><time>2026-04-05T13:45:44.999Z</time></trkpt><trkpt lat="38.17481799142754" lon="15.363622857214803"><ele>77.0</ele><time>2026-04-05T13:45:53.999Z</time></trkpt><trkpt lat="38.17476918622645" lon="15.363693135656865"><ele>77.0</ele><time>2026-04-05T13:46:02.999Z</time></trkpt><trkpt lat="38.174720923785884" lon="15.363800896153359"><ele>77.0</ele><time>2026-04-05T13:46:05.999Z</time></trkpt><trkpt lat="38.17467435132833" lon="15.363899744855516"><ele>77.0</ele><time>2026-04-05T13:46:07.999Z</time></trkpt><trkpt lat="38.17461923673384" lon="15.364000638510428"><ele>77.0</ele><time>2026-04-05T13:46:09.999Z</time></trkpt><trkpt lat="38.17452739408201" lon="15.364103590203888"><ele>77.0</ele><time>2026-04-05T13:46:11.999Z</time></trkpt><trkpt lat="38.17444343456623" lon="15.364226832567464"><ele>77.0</ele><time>2026-04-05T13:46:13.999Z</time></trkpt><trkpt lat="38.17441253793819" lon="15.364304189605981"><ele>77.0</ele><time>2026-04-05T13:46:14.999Z</time></trkpt><trkpt lat="38.17433464940341" lon="15.364408101757409"><ele>77.0</ele><time>2026-04-05T13:46:16.999Z</time></trkpt><trkpt lat="38.17425407017513" lon="15.36452075823701"><ele>77.0</ele><time>2026-04-05T13:46:18.999Z</time></trkpt><trkpt lat="38.17422008748588" lon="15.36458920448435"><ele>77.0</ele><time>2026-04-05T13:46:19.999Z</time></trkpt><trkpt lat="38.17416738604841" lon="15.36464043070464"><ele>77.0</ele><time>2026-04-05T13:46:20.999Z</time></trkpt><trkpt lat="38.174119620924934" lon="15.36470338224056"><ele>77.0</ele><time>2026-04-05T13:46:21.999Z</time></trkpt><trkpt lat="38.17406796968794" lon="15.36477077406531"><ele>77.0</ele><time>2026-04-05T13:46:22.999Z</time></trkpt><trkpt lat="38.174016363656" lon="15.364848657701364"><ele>77.0</ele><time>2026-04-05T13:46:23.999Z</time></trkpt><trkpt lat="38.17397606300973" lon="15.364936831352509"><ele>77.0</ele><time>2026-04-05T13:46:24.999Z</time></trkpt><trkpt lat="38.17396007763918" lon="15.365031882502407"><ele>77.0</ele><time>2026-04-05T13:46:25.999Z</time></trkpt><trkpt lat="38.173929208885866" lon="15.365122231839635"><ele>77.0</ele><time>2026-04-05T13:46:26.999Z</time></trkpt><trkpt lat="38.17390269112408" lon="15.365204043116663"><ele>77.0</ele><time>2026-04-05T13:46:27.999Z</time></trkpt><trkpt lat="38.17387526264386" lon="15.36528604422644"><ele>77.0</ele><time>2026-04-05T13:46:28.999Z</time></trkpt><trkpt lat="38.17384676095948" lon="15.365359483597794"><ele>77.0</ele><time>2026-04-05T13:46:29.999Z</time></trkpt><trkpt lat="38.17377410010433" lon="15.365498172842"><ele>77.14285714285714</ele><time>2026-04-05T13:46:31.999Z</time></trkpt><trkpt lat="38.17373186496543" lon="15.365568253193903"><ele>77.28571428571428</ele><time>2026-04-05T13:46:32.999Z</time></trkpt><trkpt lat="38.17368698654436" lon="15.365639425424442"><ele>77.42857142857143</ele><time>2026-04-05T13:46:33.999Z</time></trkpt><trkpt lat="38.17364339444848" lon="15.365709820677646"><ele>77.57142857142857</ele><time>2026-04-05T13:46:34.999Z</time></trkpt><trkpt lat="38.173600000125674" lon="15.365790728503386"><ele>77.71428571428571</ele><time>2026-04-05T13:46:35.999Z</time></trkpt><trkpt lat="38.17356084238599" lon="15.365878064714737"><ele>77.85714285714286</ele><time>2026-04-05T13:46:36.999Z</time></trkpt><trkpt lat="38.173518327333355" lon="15.365966234113625"><ele>78.0</ele><time>2026-04-05T13:46:37.999Z</time></trkpt><trkpt lat="38.173473550782994" lon="15.366050651822304"><ele>78.0</ele><time>2026-04-05T13:46:38.999Z</time></trkpt><trkpt lat="38.17343374467126" lon="15.366129028907794"><ele>78.0</ele><time>2026-04-05T13:46:39.999Z</time></trkpt><trkpt lat="38.17336377505752" lon="15.36626346294375"><ele>78.0</ele><time>2026-04-05T13:46:41.999Z</time></trkpt><trkpt lat="38.173326076553344" lon="15.36633537561022"><ele>78.0</ele><time>2026-04-05T13:46:42.999Z</time></trkpt><trkpt lat="38.17327436199253" lon="15.366401238619826"><ele>78.0</ele><time>2026-04-05T13:46:43.999Z</time></trkpt><trkpt lat="38.173233680078" lon="15.366471529655355"><ele>78.0</ele><time>2026-04-05T13:46:44.999Z</time></trkpt><trkpt lat="38.17316892922387" lon="15.366611249775579"><ele>78.75</ele><time>2026-04-05T13:46:46.999Z</time></trkpt><trkpt lat="38.17308390676426" lon="15.36671418865863"><ele>79.5</ele><time>2026-04-05T13:46:48.999Z</time></trkpt><trkpt lat="38.173038090646735" lon="15.36686328110221"><ele>80.25</ele><time>2026-04-05T13:46:51Z</time></trkpt><trkpt lat="38.173015208424864" lon="15.367016622489338"><ele>81.0</ele><time>2026-04-05T13:46:53Z</time></trkpt><trkpt lat="38.17300245300925" lon="15.367174545299592"><ele>81.16666666666667</ele><time>2026-04-05T13:46:55Z</time></trkpt><trkpt lat="38.173008556411595" lon="15.367319465717701"><ele>81.33333333333333</ele><time>2026-04-05T13:46:57Z</time></trkpt><trkpt lat="38.17300038466454" lon="15.367399016739993"><ele>81.5</ele><time>2026-04-05T13:46:58Z</time></trkpt><trkpt lat="38.1729771011015" lon="15.367490587759907"><ele>81.66666666666666</ele><time>2026-04-05T13:46:59Z</time></trkpt><trkpt lat="38.17296870158935" lon="15.367573134214418"><ele>81.83333333333333</ele><time>2026-04-05T13:47:00Z</time></trkpt><trkpt lat="38.17295752831184" lon="15.367723245789906"><ele>82.0</ele><time>2026-04-05T13:47:02Z</time></trkpt><trkpt lat="38.17295758173289" lon="15.36781090376914"><ele>82.0</ele><time>2026-04-05T13:47:03Z</time></trkpt><trkpt lat="38.172959120592004" lon="15.367900107936084"><ele>82.0</ele><time>2026-04-05T13:47:04Z</time></trkpt><trkpt lat="38.17295825015393" lon="15.367990577501779"><ele>82.0</ele><time>2026-04-05T13:47:05Z</time></trkpt><trkpt lat="38.172950889229575" lon="15.368071330496187"><ele>82.0</ele><time>2026-04-05T13:47:06Z</time></trkpt><trkpt lat="38.172927459009806" lon="15.368217690720325"><ele>82.0</ele><time>2026-04-05T13:47:08Z</time></trkpt><trkpt lat="38.17286638657301" lon="15.368338013245493"><ele>82.0</ele><time>2026-04-05T13:47:09.999Z</time></trkpt><trkpt lat="38.17282696828499" lon="15.368402066977346"><ele>82.14285714285714</ele><time>2026-04-05T13:47:10.999Z</time></trkpt><trkpt lat="38.172793918358444" lon="15.368472053802988"><ele>82.28571428571428</ele><time>2026-04-05T13:47:11.999Z</time></trkpt><trkpt lat="38.17276166090616" lon="15.368541401841979"><ele>82.42857142857142</ele><time>2026-04-05T13:47:12.999Z</time></trkpt><trkpt lat="38.17273923124232" lon="15.368617954653056"><ele>82.57142857142857</ele><time>2026-04-05T13:47:13.999Z</time></trkpt><trkpt lat="38.17272105587082" lon="15.368700083519386"><ele>82.71428571428572</ele><time>2026-04-05T13:47:14.999Z</time></trkpt><trkpt lat="38.172707798693615" lon="15.368781749151468"><ele>82.85714285714285</ele><time>2026-04-05T13:47:15.999Z</time></trkpt><trkpt lat="38.172695902010275" lon="15.368861828421972"><ele>83.0</ele><time>2026-04-05T13:47:16.999Z</time></trkpt><trkpt lat="38.17266506141791" lon="15.369004681650683"><ele>83.33333333333334</ele><time>2026-04-05T13:47:18.999Z</time></trkpt><trkpt lat="38.172622545118216" lon="15.36912528482936"><ele>83.66666666666667</ele><time>2026-04-05T13:47:20.999Z</time></trkpt><trkpt lat="38.17257025592748" lon="15.36926868423712"><ele>84.0</ele><time>2026-04-05T13:47:22.999Z</time></trkpt><trkpt lat="38.17254694553745" lon="15.36934563733307"><ele>84.33333333333333</ele><time>2026-04-05T13:47:23.999Z</time></trkpt><trkpt lat="38.17252762501954" lon="15.369426441353255"><ele>84.66666666666666</ele><time>2026-04-05T13:47:24.999Z</time></trkpt><trkpt lat="38.172511125766285" lon="15.369509207653481"><ele>85.0</ele><time>2026-04-05T13:47:25.999Z</time></trkpt><trkpt lat="38.17249114361659" lon="15.369593806490602"><ele>85.0</ele><time>2026-04-05T13:47:26.999Z</time></trkpt><trkpt lat="38.172481349905325" lon="15.369681148581751"><ele>85.0</ele><time>2026-04-05T13:47:27.999Z</time></trkpt><trkpt lat="38.1724515164291" lon="15.369767651236282"><ele>85.0</ele><time>2026-04-05T13:47:28.999Z</time></trkpt><trkpt lat="38.17240528898071" lon="15.369829820190677"><ele>85.0</ele><time>2026-04-05T13:47:29.999Z</time></trkpt><trkpt lat="38.1723496172616" lon="15.369935701033947"><ele>85.0</ele><time>2026-04-05T13:47:31.999Z</time></trkpt><trkpt lat="38.17228765268308" lon="15.370072491826289"><ele>85.0</ele><time>2026-04-05T13:47:33.999Z</time></trkpt><trkpt lat="38.17225307344981" lon="15.370159607042865"><ele>85.0</ele><time>2026-04-05T13:47:34.999Z</time></trkpt><trkpt lat="38.172224031163424" lon="15.370247809536242"><ele>85.0</ele><time>2026-04-05T13:47:35.999Z</time></trkpt><trkpt lat="38.1721990766105" lon="15.370337954763018"><ele>85.0</ele><time>2026-04-05T13:47:36.999Z</time></trkpt><trkpt lat="38.172174835624695" lon="15.370429102445787"><ele>85.0</ele><time>2026-04-05T13:47:37.999Z</time></trkpt><trkpt lat="38.17214854692707" lon="15.370520016107424"><ele>85.0</ele><time>2026-04-05T13:47:38.999Z</time></trkpt><trkpt lat="38.172118033090484" lon="15.370610098301519"><ele>85.0</ele><time>2026-04-05T13:47:39.999Z</time></trkpt><trkpt lat="38.172087272365744" lon="15.370697469418655"><ele>84.71428571428572</ele><time>2026-04-05T13:47:40.999Z</time></trkpt><trkpt lat="38.172055710892344" lon="15.370787114900754"><ele>84.42857142857142</ele><time>2026-04-05T13:47:41.999Z</time></trkpt><trkpt lat="38.172023739186066" lon="15.370877925778185"><ele>84.14285714285714</ele><time>2026-04-05T13:47:42.999Z</time></trkpt><trkpt lat="38.17199361768958" lon="15.370963744722237"><ele>83.85714285714286</ele><time>2026-04-05T13:47:43.999Z</time></trkpt><trkpt lat="38.17196081192682" lon="15.371045185597959"><ele>83.57142857142858</ele><time>2026-04-05T13:47:44.999Z</time></trkpt><trkpt lat="38.171922556846" lon="15.371123384705333"><ele>83.28571428571428</ele><time>2026-04-05T13:47:45.999Z</time></trkpt><trkpt lat="38.17188161914966" lon="15.371203914684562"><ele>83.0</ele><time>2026-04-05T13:47:46.999Z</time></trkpt><trkpt lat="38.17183694179805" lon="15.371291803352007"><ele>83.33333333333334</ele><time>2026-04-05T13:47:47.999Z</time></trkpt><trkpt lat="38.17182150309964" lon="15.371408836401685"><ele>83.66666666666667</ele><time>2026-04-05T13:47:48.999Z</time></trkpt><trkpt lat="38.17178219796754" lon="15.371499562749785"><ele>84.0</ele><time>2026-04-05T13:47:49.999Z</time></trkpt><trkpt lat="38.17174648747338" lon="15.371592528483637"><ele>84.33333333333333</ele><time>2026-04-05T13:47:50.999Z</time></trkpt><trkpt lat="38.171719169538406" lon="15.37168401881166"><ele>84.66666666666666</ele><time>2026-04-05T13:47:51.999Z</time></trkpt><trkpt lat="38.17169636716743" lon="15.371773694849965"><ele>85.0</ele><time>2026-04-05T13:47:52.999Z</time></trkpt><trkpt lat="38.17166247547556" lon="15.371854119576735"><ele>85.0</ele><time>2026-04-05T13:47:53.999Z</time></trkpt><trkpt lat="38.17164967150671" lon="15.371934698767284"><ele>85.0</ele><time>2026-04-05T13:47:54.999Z</time></trkpt><trkpt lat="38.17162913531738" lon="15.372087312589512"><ele>85.0</ele><time>2026-04-05T13:47:56.999Z</time></trkpt><trkpt lat="38.171573342787774" lon="15.372220839563461"><ele>85.0</ele><time>2026-04-05T13:47:58.999Z</time></trkpt><trkpt lat="38.17153748792266" lon="15.37237250055989"><ele>85.0</ele><time>2026-04-05T13:48:00.999Z</time></trkpt><trkpt lat="38.17149357452685" lon="15.372432123104273"><ele>85.71428571428572</ele><time>2026-04-05T13:48:01.999Z</time></trkpt><trkpt lat="38.171458064834205" lon="15.372505004357416"><ele>86.42857142857142</ele><time>2026-04-05T13:48:02.999Z</time></trkpt><trkpt lat="38.17142720929147" lon="15.372579367478156"><ele>87.14285714285714</ele><time>2026-04-05T13:48:03.999Z</time></trkpt><trkpt lat="38.17140592153955" lon="15.372661259477649"><ele>87.85714285714286</ele><time>2026-04-05T13:48:04.999Z</time></trkpt><trkpt lat="38.171384332445335" lon="15.372743685553518"><ele>88.57142857142858</ele><time>2026-04-05T13:48:05.999Z</time></trkpt><trkpt lat="38.17135810595619" lon="15.37282942670005"><ele>89.28571428571428</ele><time>2026-04-05T13:48:06.999Z</time></trkpt><trkpt lat="38.17132814865306" lon="15.372918343095261"><ele>90.0</ele><time>2026-04-05T13:48:07.999Z</time></trkpt><trkpt lat="38.17129564077724" lon="15.373005844045428"><ele>90.33333333333333</ele><time>2026-04-05T13:48:08.999Z</time></trkpt><trkpt lat="38.17126156226896" lon="15.37308409194618"><ele>90.66666666666667</ele><time>2026-04-05T13:48:09.999Z</time></trkpt><trkpt lat="38.1712227956" lon="15.373167028221136"><ele>91.0</ele><time>2026-04-05T13:48:10.999Z</time></trkpt><trkpt lat="38.17118442069693" lon="15.37325212308656"><ele>91.33333333333334</ele><time>2026-04-05T13:48:11.999Z</time></trkpt><trkpt lat="38.1711481086391" lon="15.373344224705654"><ele>91.66666666666667</ele><time>2026-04-05T13:48:12.999Z</time></trkpt><trkpt lat="38.17111542354191" lon="15.37343842943163"><ele>92.0</ele><time>2026-04-05T13:48:13.999Z</time></trkpt><trkpt lat="38.17108800681042" lon="15.373532538817225"><ele>92.0</ele><time>2026-04-05T13:48:14.999Z</time></trkpt><trkpt lat="38.171065477643054" lon="15.37362834993215"><ele>92.0</ele><time>2026-04-05T13:48:15.999Z</time></trkpt><trkpt lat="38.17104434185345" lon="15.373722555112781"><ele>92.0</ele><time>2026-04-05T13:48:16.999Z</time></trkpt><trkpt lat="38.1710235031877" lon="15.373815436059818"><ele>92.0</ele><time>2026-04-05T13:48:17.999Z</time></trkpt><trkpt lat="38.171001050927934" lon="15.373907738051235"><ele>92.0</ele><time>2026-04-05T13:48:18.999Z</time></trkpt><trkpt lat="38.17097724643165" lon="15.373990779316753"><ele>92.0</ele><time>2026-04-05T13:48:19.999Z</time></trkpt><trkpt lat="38.170949795806344" lon="15.374075395363255"><ele>92.0</ele><time>2026-04-05T13:48:20.999Z</time></trkpt><trkpt lat="38.17091931549349" lon="15.374161967342094"><ele>92.16666666666667</ele><time>2026-04-05T13:48:21.999Z</time></trkpt><trkpt lat="38.17088938361163" lon="15.374246981681909"><ele>92.33333333333334</ele><time>2026-04-05T13:48:22.999Z</time></trkpt><trkpt lat="38.17085819960625" lon="15.374333587310295"><ele>92.5</ele><time>2026-04-05T13:48:23.999Z</time></trkpt><trkpt lat="38.170826321480575" lon="15.374421900804135"><ele>92.66666666666667</ele><time>2026-04-05T13:48:24.999Z</time></trkpt><trkpt lat="38.17079419208159" lon="15.374511521059855"><ele>92.83333333333333</ele><time>2026-04-05T13:48:25.999Z</time></trkpt><trkpt lat="38.17076282604767" lon="15.374600365611883"><ele>93.0</ele><time>2026-04-05T13:48:26.999Z</time></trkpt><trkpt lat="38.17073002526305" lon="15.374693274161132"><ele>93.5</ele><time>2026-04-05T13:48:27.999Z</time></trkpt><trkpt lat="38.1706955212722" lon="15.374791007009124"><ele>94.0</ele><time>2026-04-05T13:48:28.999Z</time></trkpt><trkpt lat="38.17066153396937" lon="15.374885336038364"><ele>94.5</ele><time>2026-04-05T13:48:29.999Z</time></trkpt><trkpt lat="38.1706264406725" lon="15.374981539451923"><ele>95.0</ele><time>2026-04-05T13:48:30.999Z</time></trkpt><trkpt lat="38.17059241030516" lon="15.375074829034931"><ele>95.5</ele><time>2026-04-05T13:48:31.999Z</time></trkpt><trkpt lat="38.17056084579721" lon="15.37516668886748"><ele>96.0</ele><time>2026-04-05T13:48:32.999Z</time></trkpt><trkpt lat="38.17053108745524" lon="15.375259100625057"><ele>96.0</ele><time>2026-04-05T13:48:33.999Z</time></trkpt><trkpt lat="38.17050467993706" lon="15.375351102424533"><ele>96.0</ele><time>2026-04-05T13:48:34.999Z</time></trkpt><trkpt lat="38.17048143268526" lon="15.375443483139563"><ele>96.0</ele><time>2026-04-05T13:48:35.999Z</time></trkpt><trkpt lat="38.170461489305474" lon="15.375544171149151"><ele>96.0</ele><time>2026-04-05T13:48:36.999Z</time></trkpt><trkpt lat="38.17044727450302" lon="15.375638952472768"><ele>96.0</ele><time>2026-04-05T13:48:37.999Z</time></trkpt><trkpt lat="38.17044007785496" lon="15.375726610969192"><ele>96.0</ele><time>2026-04-05T13:48:38.999Z</time></trkpt><trkpt lat="38.17043537390118" lon="15.375816611310356"><ele>96.0</ele><time>2026-04-05T13:48:39.999Z</time></trkpt><trkpt lat="38.170431534561196" lon="15.37590333996077"><ele>96.0</ele><time>2026-04-05T13:48:40.999Z</time></trkpt><trkpt lat="38.17042779759084" lon="15.375987756218697"><ele>96.0</ele><time>2026-04-05T13:48:41.999Z</time></trkpt><trkpt lat="38.17042093147308" lon="15.37614285812691"><ele>96.0</ele><time>2026-04-05T13:48:43.999Z</time></trkpt><trkpt lat="38.17041553507825" lon="15.376222910444193"><ele>96.0</ele><time>2026-04-05T13:48:44.999Z</time></trkpt><trkpt lat="38.1704072755303" lon="15.376303418802635"><ele>96.0</ele><time>2026-04-05T13:48:45.999Z</time></trkpt><trkpt lat="38.170377900854994" lon="15.37644077991942"><ele>96.0</ele><time>2026-04-05T13:48:47.999Z</time></trkpt><trkpt lat="38.1703315759344" lon="15.376587163426569"><ele>96.0</ele><time>2026-04-05T13:48:49.999Z</time></trkpt><trkpt lat="38.170306782850254" lon="15.376663786859657"><ele>96.0</ele><time>2026-04-05T13:48:50.999Z</time></trkpt><trkpt lat="38.170250643264254" lon="15.376802671020265"><ele>96.0</ele><time>2026-04-05T13:48:52.999Z</time></trkpt><trkpt lat="38.170216794979694" lon="15.3768748082474"><ele>96.0</ele><time>2026-04-05T13:48:53.999Z</time></trkpt><trkpt lat="38.17017969180649" lon="15.376956249716535"><ele>96.0</ele><time>2026-04-05T13:48:54.999Z</time></trkpt><trkpt lat="38.170143101140255" lon="15.377041890874256"><ele>96.0</ele><time>2026-04-05T13:48:56Z</time></trkpt><trkpt lat="38.17010964503931" lon="15.377128526674847"><ele>96.0</ele><time>2026-04-05T13:48:57Z</time></trkpt><trkpt lat="38.1700729105672" lon="15.377223339435607"><ele>96.0</ele><time>2026-04-05T13:48:58Z</time></trkpt><trkpt lat="38.17004125842003" lon="15.377310021950684"><ele>96.0</ele><time>2026-04-05T13:48:59Z</time></trkpt><trkpt lat="38.17001419630143" lon="15.377384891158663"><ele>96.0</ele><time>2026-04-05T13:49:00Z</time></trkpt><trkpt lat="38.169968321880305" lon="15.377517823207972"><ele>96.6</ele><time>2026-04-05T13:49:02Z</time></trkpt><trkpt lat="38.16994383875101" lon="15.377592716282562"><ele>97.19999999999999</ele><time>2026-04-05T13:49:03Z</time></trkpt><trkpt lat="38.169902634807634" lon="15.377728352292511"><ele>97.80000000000001</ele><time>2026-04-05T13:49:05Z</time></trkpt><trkpt lat="38.16986188114655" lon="15.377844724066577"><ele>98.4</ele><time>2026-04-05T13:49:07Z</time></trkpt><trkpt lat="38.1698077738149" lon="15.377962814931605"><ele>99.0</ele><time>2026-04-05T13:49:09Z</time></trkpt><trkpt lat="38.1697369990724" lon="15.37809472466828"><ele>99.0</ele><time>2026-04-05T13:49:10.999Z</time></trkpt><trkpt lat="38.16965966213243" lon="15.378212848771792"><ele>99.0</ele><time>2026-04-05T13:49:12.999Z</time></trkpt><trkpt lat="38.16961478209017" lon="15.378278394091646"><ele>99.0</ele><time>2026-04-05T13:49:13.999Z</time></trkpt><trkpt lat="38.16957003967926" lon="15.378343738322407"><ele>99.0</ele><time>2026-04-05T13:49:14.999Z</time></trkpt><trkpt lat="38.16950225573625" lon="15.378442733838975"><ele>99.0</ele><time>2026-04-05T13:49:16.999Z</time></trkpt><trkpt lat="38.169438561943146" lon="15.378536401213388"><ele>99.0</ele><time>2026-04-05T13:49:18.999Z</time></trkpt><trkpt lat="38.16937449207381" lon="15.378633787354058"><ele>99.0</ele><time>2026-04-05T13:49:20.999Z</time></trkpt><trkpt lat="38.16930364281097" lon="15.37874147782583"><ele>99.0</ele><time>2026-04-05T13:49:22.999Z</time></trkpt><trkpt lat="38.16928053280682" lon="15.378816717941818"><ele>99.0</ele><time>2026-04-05T13:49:23.999Z</time></trkpt><trkpt lat="38.169241864340584" lon="15.37888014202562"><ele>99.0</ele><time>2026-04-05T13:49:24.999Z</time></trkpt><trkpt lat="38.169207528187556" lon="15.37895454298376"><ele>99.0</ele><time>2026-04-05T13:49:25.999Z</time></trkpt><trkpt lat="38.16917947252202" lon="15.379026343758012"><ele>99.33333333333333</ele><time>2026-04-05T13:49:26.999Z</time></trkpt><trkpt lat="38.16913605849977" lon="15.379176004658179"><ele>99.66666666666666</ele><time>2026-04-05T13:49:28.999Z</time></trkpt><trkpt lat="38.16910744348859" lon="15.379256017206249"><ele>100.0</ele><time>2026-04-05T13:49:29.999Z</time></trkpt><trkpt lat="38.1690766026198" lon="15.37933645563064"><ele>100.33333333333333</ele><time>2026-04-05T13:49:30.999Z</time></trkpt><trkpt lat="38.16903660556094" lon="15.379416750733977"><ele>100.66666666666666</ele><time>2026-04-05T13:49:31.999Z</time></trkpt><trkpt lat="38.16897816525757" lon="15.379465532113157"><ele>101.0</ele><time>2026-04-05T13:49:32.999Z</time></trkpt><trkpt lat="38.16894658844552" lon="15.379536530091972"><ele>101.57142857142857</ele><time>2026-04-05T13:49:33.999Z</time></trkpt><trkpt lat="38.16890842203331" lon="15.3796151191729"><ele>102.14285714285714</ele><time>2026-04-05T13:49:34.999Z</time></trkpt><trkpt lat="38.16886375748747" lon="15.379698743398322"><ele>102.71428571428572</ele><time>2026-04-05T13:49:35.999Z</time></trkpt><trkpt lat="38.16881494211452" lon="15.379781673665166"><ele>103.28571428571428</ele><time>2026-04-05T13:49:36.999Z</time></trkpt><trkpt lat="38.16876491583216" lon="15.379860491919981"><ele>103.85714285714286</ele><time>2026-04-05T13:49:37.999Z</time></trkpt><trkpt lat="38.16872891721531" lon="15.37992931599953"><ele>104.42857142857143</ele><time>2026-04-05T13:49:38.999Z</time></trkpt><trkpt lat="38.16869695073946" lon="15.380001663045102"><ele>105.0</ele><time>2026-04-05T13:49:39.999Z</time></trkpt><trkpt lat="38.16866677953024" lon="15.380077317318142"><ele>105.0</ele><time>2026-04-05T13:49:40.999Z</time></trkpt><trkpt lat="38.16863560545877" lon="15.380155031078326"><ele>105.0</ele><time>2026-04-05T13:49:41.999Z</time></trkpt><trkpt lat="38.168599538623155" lon="15.380235607559554"><ele>105.0</ele><time>2026-04-05T13:49:42.999Z</time></trkpt><trkpt lat="38.16855941943867" lon="15.38031679679568"><ele>105.0</ele><time>2026-04-05T13:49:43.999Z</time></trkpt><trkpt lat="38.16851652075503" lon="15.380395882935325"><ele>105.0</ele><time>2026-04-05T13:49:44.999Z</time></trkpt><trkpt lat="38.168474134835236" lon="15.380474285780593"><ele>105.0</ele><time>2026-04-05T13:49:46Z</time></trkpt><trkpt lat="38.16842807752346" lon="15.380556416712661"><ele>105.0</ele><time>2026-04-05T13:49:47Z</time></trkpt><trkpt lat="38.16838206516827" lon="15.380638467563811"><ele>105.28571428571429</ele><time>2026-04-05T13:49:48Z</time></trkpt><trkpt lat="38.16833616872724" lon="15.380723635786948"><ele>105.57142857142857</ele><time>2026-04-05T13:49:49Z</time></trkpt><trkpt lat="38.16829484092394" lon="15.380802832052554"><ele>105.85714285714286</ele><time>2026-04-05T13:49:50Z</time></trkpt><trkpt lat="38.168257114702875" lon="15.380874091253778"><ele>106.14285714285714</ele><time>2026-04-05T13:49:51Z</time></trkpt><trkpt lat="38.168216601558775" lon="15.380948806124517"><ele>106.42857142857143</ele><time>2026-04-05T13:49:52Z</time></trkpt><trkpt lat="38.16817628475828" lon="15.381023158863586"><ele>106.71428571428572</ele><time>2026-04-05T13:49:53Z</time></trkpt><trkpt lat="38.16814118467816" lon="15.381091657610884"><ele>107.0</ele><time>2026-04-05T13:49:54Z</time></trkpt><trkpt lat="38.168104296742754" lon="15.381175925056613"><ele>108.33333333333333</ele><time>2026-04-05T13:49:55Z</time></trkpt><trkpt lat="38.16806836130699" lon="15.381272812436144"><ele>109.66666666666666</ele><time>2026-04-05T13:49:56Z</time></trkpt><trkpt lat="38.16803691879498" lon="15.38137036827761"><ele>111.0</ele><time>2026-04-05T13:49:57Z</time></trkpt><trkpt lat="38.16800615250608" lon="15.381471621130897"><ele>112.33333333333334</ele><time>2026-04-05T13:49:58Z</time></trkpt><trkpt lat="38.16797767033646" lon="15.3815574029648"><ele>113.66666666666667</ele><time>2026-04-05T13:49:59Z</time></trkpt><trkpt lat="38.16793805013829" lon="15.38169298753689"><ele>115.0</ele><time>2026-04-05T13:50:01Z</time></trkpt><trkpt lat="38.167908133380735" lon="15.381796299176601"><ele>115.0</ele><time>2026-04-05T13:50:03Z</time></trkpt><trkpt lat="38.16788975117098" lon="15.381889300406874"><ele>115.0</ele><time>2026-04-05T13:50:05Z</time></trkpt><trkpt lat="38.167884299761276" lon="15.381988909873721"><ele>115.0</ele><time>2026-04-05T13:50:07Z</time></trkpt><trkpt lat="38.16792601621899" lon="15.382075049083163"><ele>115.0</ele><time>2026-04-05T13:50:09Z</time></trkpt><trkpt lat="38.16787661909706" lon="15.382190723295794"><ele>115.0</ele><time>2026-04-05T13:50:11Z</time></trkpt><trkpt lat="38.16769585729645" lon="15.382281010971237"><ele>114.50000000000001</ele><time>2026-04-05T13:50:13Z</time></trkpt><trkpt lat="38.167681891091235" lon="15.382366357986658"><ele>114.0</ele><time>2026-04-05T13:50:14Z</time></trkpt><trkpt lat="38.16766887321784" lon="15.382452136555868"><ele>113.5</ele><time>2026-04-05T13:50:15Z</time></trkpt><trkpt lat="38.16766054752295" lon="15.382535680498302"><ele>113.0</ele><time>2026-04-05T13:50:16Z</time></trkpt><trkpt lat="38.16765841925959" lon="15.382620932380282"><ele>112.50000000000001</ele><time>2026-04-05T13:50:17Z</time></trkpt><trkpt lat="38.167659475008776" lon="15.382702460523518"><ele>112.0</ele><time>2026-04-05T13:50:18Z</time></trkpt><trkpt lat="38.16766160047379" lon="15.382850655222146"><ele>112.00000000000001</ele><time>2026-04-05T13:50:20Z</time></trkpt><trkpt lat="38.16765686935935" lon="15.383005947261909"><ele>112.0</ele><time>2026-04-05T13:50:22Z</time></trkpt><trkpt lat="38.16765441365848" lon="15.383086552060448"><ele>112.0</ele><time>2026-04-05T13:50:23Z</time></trkpt><trkpt lat="38.167652485622554" lon="15.383173774167844"><ele>112.0</ele><time>2026-04-05T13:50:24Z</time></trkpt><trkpt lat="38.16765173356481" lon="15.383261515872881"><ele>112.00000000000001</ele><time>2026-04-05T13:50:25Z</time></trkpt><trkpt lat="38.16765173356587" lon="15.38334954612348"><ele>112.0</ele><time>2026-04-05T13:50:26Z</time></trkpt><trkpt lat="38.16764763109043" lon="15.383497907459471"><ele>112.6</ele><time>2026-04-05T13:50:28Z</time></trkpt><trkpt lat="38.167625015839555" lon="15.383631467449423"><ele>113.19999999999999</ele><time>2026-04-05T13:50:30Z</time></trkpt><trkpt lat="38.16758033606869" lon="15.383771075783738"><ele>113.8</ele><time>2026-04-05T13:50:32Z</time></trkpt><trkpt lat="38.16755646726304" lon="15.383906704841268"><ele>114.4</ele><time>2026-04-05T13:50:34Z</time></trkpt><trkpt lat="38.16753134291068" lon="15.384044721112163"><ele>115.0</ele><time>2026-04-05T13:50:36Z</time></trkpt><trkpt lat="38.1675162507277" lon="15.384124181508115"><ele>115.57142857142856</ele><time>2026-04-05T13:50:37Z</time></trkpt><trkpt lat="38.167498568429785" lon="15.384204380988901"><ele>116.14285714285714</ele><time>2026-04-05T13:50:38Z</time></trkpt><trkpt lat="38.167476209346304" lon="15.384286598857521"><ele>116.71428571428571</ele><time>2026-04-05T13:50:39Z</time></trkpt><trkpt lat="38.16745078707527" lon="15.384365144313849"><ele>117.28571428571428</ele><time>2026-04-05T13:50:40Z</time></trkpt><trkpt lat="38.167424902509495" lon="15.384439346709561"><ele>117.85714285714286</ele><time>2026-04-05T13:50:41Z</time></trkpt><trkpt lat="38.16740167155071" lon="15.384517862803742"><ele>118.42857142857143</ele><time>2026-04-05T13:50:42Z</time></trkpt><trkpt lat="38.16736360714911" lon="15.384653686584302"><ele>119.0</ele><time>2026-04-05T13:50:44Z</time></trkpt><trkpt lat="38.1673429411199" lon="15.38480041362209"><ele>118.99999999999999</ele><time>2026-04-05T13:50:46Z</time></trkpt><trkpt lat="38.16731000606848" lon="15.384914825379168"><ele>119.0</ele><time>2026-04-05T13:50:48Z</time></trkpt><trkpt lat="38.16727179596036" lon="15.385063536785074"><ele>119.0</ele><time>2026-04-05T13:50:50Z</time></trkpt><trkpt lat="38.16723483749618" lon="15.385138184752247"><ele>119.0</ele><time>2026-04-05T13:50:51Z</time></trkpt><trkpt lat="38.16719074223791" lon="15.385213681461842"><ele>118.99999999999999</ele><time>2026-04-05T13:50:52Z</time></trkpt><trkpt lat="38.16714272741763" lon="15.385282820982072"><ele>119.0</ele><time>2026-04-05T13:50:53Z</time></trkpt><trkpt lat="38.16708916571975" lon="15.385341587140344"><ele>119.0</ele><time>2026-04-05T13:50:54Z</time></trkpt><trkpt lat="38.16703122158463" lon="15.385404857777234"><ele>119.0</ele><time>2026-04-05T13:50:55Z</time></trkpt><trkpt lat="38.16697330148576" lon="15.385463208876834"><ele>119.0</ele><time>2026-04-05T13:50:56Z</time></trkpt><trkpt lat="38.16691329437722" lon="15.385522167989567"><ele>119.0</ele><time>2026-04-05T13:50:57Z</time></trkpt><trkpt lat="38.166854931417326" lon="15.385567441353267"><ele>119.0</ele><time>2026-04-05T13:50:58Z</time></trkpt><trkpt lat="38.1667840545621" lon="15.38558527875335"><ele>119.0</ele><time>2026-04-05T13:50:59Z</time></trkpt><trkpt lat="38.16671276464092" lon="15.385620668942813"><ele>119.0</ele><time>2026-04-05T13:51:00Z</time></trkpt><trkpt lat="38.16664698233605" lon="15.38567142262044"><ele>119.16666666666666</ele><time>2026-04-05T13:51:01Z</time></trkpt><trkpt lat="38.166580655142994" lon="15.385702204695791"><ele>119.33333333333333</ele><time>2026-04-05T13:51:02.001Z</time></trkpt><trkpt lat="38.16651275523112" lon="15.385736628539448"><ele>119.5</ele><time>2026-04-05T13:51:03.001Z</time></trkpt><trkpt lat="38.166438635204855" lon="15.385778451653415"><ele>119.66666666666666</ele><time>2026-04-05T13:51:04.001Z</time></trkpt><trkpt lat="38.166367521651296" lon="15.385826487881843"><ele>119.83333333333333</ele><time>2026-04-05T13:51:05.001Z</time></trkpt><trkpt lat="38.16629444532606" lon="15.38587521323664"><ele>120.0</ele><time>2026-04-05T13:51:06.001Z</time></trkpt><trkpt lat="38.16622549479435" lon="15.385923653857844"><ele>120.16666666666667</ele><time>2026-04-05T13:51:07.001Z</time></trkpt><trkpt lat="38.166153295044055" lon="15.385975589596768"><ele>120.33333333333334</ele><time>2026-04-05T13:51:08.001Z</time></trkpt><trkpt lat="38.16608590395305" lon="15.386020947510316"><ele>120.5</ele><time>2026-04-05T13:51:09.001Z</time></trkpt><trkpt lat="38.166019699702346" lon="15.3860633146601"><ele>120.66666666666667</ele><time>2026-04-05T13:51:10.001Z</time></trkpt><trkpt lat="38.16594786029728" lon="15.386107057057902"><ele>120.83333333333334</ele><time>2026-04-05T13:51:11.001Z</time></trkpt><trkpt lat="38.16587368078226" lon="15.386152717886496"><ele>121.0</ele><time>2026-04-05T13:51:12.001Z</time></trkpt><trkpt lat="38.16579732183271" lon="15.386199034220551"><ele>121.00000000000001</ele><time>2026-04-05T13:51:13.001Z</time></trkpt><trkpt lat="38.1657180719345" lon="15.386243970794276"><ele>121.0</ele><time>2026-04-05T13:51:14.001Z</time></trkpt><trkpt lat="38.165643784253376" lon="15.386285196105542"><ele>121.0</ele><time>2026-04-05T13:51:15.001Z</time></trkpt><trkpt lat="38.16557149424176" lon="15.38632976562702"><ele>121.0</ele><time>2026-04-05T13:51:16.001Z</time></trkpt><trkpt lat="38.165511680983634" lon="15.386370111452132"><ele>121.00000000000001</ele><time>2026-04-05T13:51:17.001Z</time></trkpt><trkpt lat="38.165449481887045" lon="15.386392748773503"><ele>121.0</ele><time>2026-04-05T13:51:18.001Z</time></trkpt><trkpt lat="38.165392213768506" lon="15.38644589027965"><ele>121.16666666666667</ele><time>2026-04-05T13:51:19Z</time></trkpt><trkpt lat="38.16534433784158" lon="15.386515502471902"><ele>121.33333333333334</ele><time>2026-04-05T13:51:20Z</time></trkpt><trkpt lat="38.16528559924839" lon="15.386569861657522"><ele>121.5</ele><time>2026-04-05T13:51:21Z</time></trkpt><trkpt lat="38.16521929573623" lon="15.386620869272681"><ele>121.66666666666666</ele><time>2026-04-05T13:51:22Z</time></trkpt><trkpt lat="38.16515481700579" lon="15.386674365517564"><ele>121.83333333333333</ele><time>2026-04-05T13:51:23Z</time></trkpt><trkpt lat="38.16509352385588" lon="15.386733583120177"><ele>122.0</ele><time>2026-04-05T13:51:24Z</time></trkpt><trkpt lat="38.16503717089494" lon="15.386799791980916"><ele>121.99999999999999</ele><time>2026-04-05T13:51:25Z</time></trkpt><trkpt lat="38.16497913791306" lon="15.386866293081747"><ele>122.0</ele><time>2026-04-05T13:51:26Z</time></trkpt><trkpt lat="38.16492413048898" lon="15.386930985216596"><ele>122.0</ele><time>2026-04-05T13:51:27Z</time></trkpt><trkpt lat="38.164868579447905" lon="15.386996858083958"><ele>122.0</ele><time>2026-04-05T13:51:28Z</time></trkpt><trkpt lat="38.164811032645794" lon="15.38706548618998"><ele>121.99999999999999</ele><time>2026-04-05T13:51:29Z</time></trkpt><trkpt lat="38.164750339515955" lon="15.387137280950341"><ele>122.0</ele><time>2026-04-05T13:51:30Z</time></trkpt><trkpt lat="38.16469444647982" lon="15.387202256839297"><ele>122.16666666666666</ele><time>2026-04-05T13:51:31Z</time></trkpt><trkpt lat="38.16464229529442" lon="15.387261269734822"><ele>122.33333333333333</ele><time>2026-04-05T13:51:32Z</time></trkpt><trkpt lat="38.16459017658217" lon="15.387319849205808"><ele>122.5</ele><time>2026-04-05T13:51:33Z</time></trkpt><trkpt lat="38.164539927934136" lon="15.387376362003465"><ele>122.66666666666666</ele><time>2026-04-05T13:51:34Z</time></trkpt><trkpt lat="38.16449343126769" lon="15.387431265303396"><ele>122.83333333333333</ele><time>2026-04-05T13:51:35Z</time></trkpt><trkpt lat="38.164411124850616" lon="15.387535318492576"><ele>123.0</ele><time>2026-04-05T13:51:37Z</time></trkpt><trkpt lat="38.16435814660272" lon="15.387589010456082"><ele>123.00000000000001</ele><time>2026-04-05T13:51:38Z</time></trkpt><trkpt lat="38.16432321347645" lon="15.387665519815616"><ele>123.0</ele><time>2026-04-05T13:51:39Z</time></trkpt><trkpt lat="38.164291630763024" lon="15.387754788117508"><ele>123.00000000000001</ele><time>2026-04-05T13:51:40Z</time></trkpt><trkpt lat="38.16427634506313" lon="15.387848535175475"><ele>123.00000000000001</ele><time>2026-04-05T13:51:41Z</time></trkpt><trkpt lat="38.16423867634988" lon="15.387930507910047"><ele>123.0</ele><time>2026-04-05T13:51:42Z</time></trkpt><trkpt lat="38.164197089340306" lon="15.38800096986316"><ele>123.00000000000001</ele><time>2026-04-05T13:51:43Z</time></trkpt><trkpt lat="38.164152740661116" lon="15.388078709448132"><ele>123.00000000000001</ele><time>2026-04-05T13:51:44Z</time></trkpt><trkpt lat="38.164093861068416" lon="15.388146570035868"><ele>123.71428571428572</ele><time>2026-04-05T13:51:45Z</time></trkpt><trkpt lat="38.164041759922874" lon="15.388223727394239"><ele>124.42857142857143</ele><time>2026-04-05T13:51:46Z</time></trkpt><trkpt lat="38.16399073060534" lon="15.38830145808508"><ele>125.14285714285714</ele><time>2026-04-05T13:51:47Z</time></trkpt><trkpt lat="38.163943655705864" lon="15.38837230258402"><ele>125.85714285714286</ele><time>2026-04-05T13:51:48Z</time></trkpt><trkpt lat="38.16389405496024" lon="15.388444187772912"><ele>126.57142857142856</ele><time>2026-04-05T13:51:49Z</time></trkpt><trkpt lat="38.16384419158928" lon="15.388510136858613"><ele>127.28571428571428</ele><time>2026-04-05T13:51:50Z</time></trkpt><trkpt lat="38.163807054079065" lon="15.388582194863817"><ele>128.0</ele><time>2026-04-05T13:51:51Z</time></trkpt><trkpt lat="38.163720553897974" lon="15.38865550737932"><ele>128.0</ele><time>2026-04-05T13:51:53Z</time></trkpt><trkpt lat="38.163673475529556" lon="15.388711764954136"><ele>128.0</ele><time>2026-04-05T13:51:54Z</time></trkpt><trkpt lat="38.1636013608919" lon="15.38879793887007"><ele>128.0</ele><time>2026-04-05T13:51:56Z</time></trkpt><trkpt lat="38.16353408121112" lon="15.388905993578671"><ele>128.0</ele><time>2026-04-05T13:51:58Z</time></trkpt><trkpt lat="38.16345960849139" lon="15.388985142250782"><ele>128.0</ele><time>2026-04-05T13:52:00Z</time></trkpt><trkpt lat="38.16337352978" lon="15.389045641858736"><ele>127.99999999999999</ele><time>2026-04-05T13:52:02Z</time></trkpt><trkpt lat="38.16329759769252" lon="15.389088263026482"><ele>128.0</ele><time>2026-04-05T13:52:04Z</time></trkpt><trkpt lat="38.16321445690557" lon="15.389110795681624"><ele>128.0</ele><time>2026-04-05T13:52:06Z</time></trkpt><trkpt lat="38.1631599962567" lon="15.389179129427344"><ele>128.0</ele><time>2026-04-05T13:52:08Z</time></trkpt><trkpt lat="38.1630939998956" lon="15.389235122784942"><ele>127.99999999999999</ele><time>2026-04-05T13:52:10Z</time></trkpt><trkpt lat="38.16301372374162" lon="15.38930139211774"><ele>128.0</ele><time>2026-04-05T13:52:12Z</time></trkpt><trkpt lat="38.16293878589285" lon="15.38938693254637"><ele>128.20000000000002</ele><time>2026-04-05T13:52:14Z</time></trkpt><trkpt lat="38.162840870706724" lon="15.389445984493785"><ele>128.4</ele><time>2026-04-05T13:52:16Z</time></trkpt><trkpt lat="38.162765253788336" lon="15.389514723155786"><ele>128.60000000000002</ele><time>2026-04-05T13:52:18Z</time></trkpt><trkpt lat="38.16267686419708" lon="15.389599865066408"><ele>128.8</ele><time>2026-04-05T13:52:20Z</time></trkpt><trkpt lat="38.162585224315784" lon="15.389689317871579"><ele>129.0</ele><time>2026-04-05T13:52:22Z</time></trkpt><trkpt lat="38.16253401167322" lon="15.389736543620568"><ele>129.0</ele><time>2026-04-05T13:52:23Z</time></trkpt><trkpt lat="38.162480854516026" lon="15.389781902251812"><ele>129.0</ele><time>2026-04-05T13:52:24Z</time></trkpt><trkpt lat="38.16238827196875" lon="15.389851526552091"><ele>129.0</ele><time>2026-04-05T13:52:26Z</time></trkpt><trkpt lat="38.16228599348615" lon="15.389917052082504"><ele>129.0</ele><time>2026-04-05T13:52:28Z</time></trkpt><trkpt lat="38.16222710533185" lon="15.389947722896625"><ele>129.0</ele><time>2026-04-05T13:52:29Z</time></trkpt><trkpt lat="38.16216452963547" lon="15.389978991064446"><ele>129.0</ele><time>2026-04-05T13:52:30Z</time></trkpt><trkpt lat="38.16209369502165" lon="15.390007792745903"><ele>129.33333333333334</ele><time>2026-04-05T13:52:31Z</time></trkpt><trkpt lat="38.16202436189538" lon="15.39003302676555"><ele>129.66666666666666</ele><time>2026-04-05T13:52:32Z</time></trkpt><trkpt lat="38.16191386951217" lon="15.390070735886406"><ele>130.0</ele><time>2026-04-05T13:52:34Z</time></trkpt><trkpt lat="38.161809346012824" lon="15.390109336514229"><ele>130.33333333333331</ele><time>2026-04-05T13:52:36Z</time></trkpt><trkpt lat="38.16174710592188" lon="15.390133803286606"><ele>130.66666666666666</ele><time>2026-04-05T13:52:37Z</time></trkpt><trkpt lat="38.16168000889488" lon="15.390160179643548"><ele>131.0</ele><time>2026-04-05T13:52:38Z</time></trkpt><trkpt lat="38.161612420590366" lon="15.390210259150358"><ele>131.0</ele><time>2026-04-05T13:52:39Z</time></trkpt><trkpt lat="38.16154242052778" lon="15.390236711011852"><ele>131.0</ele><time>2026-04-05T13:52:40Z</time></trkpt><trkpt lat="38.16147446082522" lon="15.39026503706873"><ele>131.0</ele><time>2026-04-05T13:52:41Z</time></trkpt><trkpt lat="38.16140476594306" lon="15.390274831156264"><ele>131.0</ele><time>2026-04-05T13:52:42Z</time></trkpt><trkpt lat="38.16129828150741" lon="15.39032177794225"><ele>131.0</ele><time>2026-04-05T13:52:44Z</time></trkpt><trkpt lat="38.161232167405636" lon="15.39035345211396"><ele>131.0</ele><time>2026-04-05T13:52:46Z</time></trkpt><trkpt lat="38.16115643761543" lon="15.390392800151435"><ele>131.2</ele><time>2026-04-05T13:53:08.001Z</time></trkpt><trkpt lat="38.16107833420272" lon="15.390464820919894"><ele>131.39999999999998</ele><time>2026-04-05T13:53:10.001Z</time></trkpt><trkpt lat="38.1610210141687" lon="15.390509184224218"><ele>131.6</ele><time>2026-04-05T13:53:11.001Z</time></trkpt><trkpt lat="38.16096434758316" lon="15.39054716531008"><ele>131.79999999999998</ele><time>2026-04-05T13:53:12.001Z</time></trkpt><trkpt lat="38.160856679439846" lon="15.390609462481601"><ele>132.0</ele><time>2026-04-05T13:53:14.001Z</time></trkpt><trkpt lat="38.16073849609264" lon="15.390665377095786"><ele>131.83333333333334</ele><time>2026-04-05T13:53:16.001Z</time></trkpt><trkpt lat="38.160659998129624" lon="15.390702869910664"><ele>131.66666666666666</ele><time>2026-04-05T13:53:18.001Z</time></trkpt><trkpt lat="38.16059400766777" lon="15.390738530508981"><ele>131.5</ele><time>2026-04-05T13:53:20.001Z</time></trkpt><trkpt lat="38.16051271709266" lon="15.390809627187625"><ele>131.33333333333331</ele><time>2026-04-05T13:53:23.001Z</time></trkpt><trkpt lat="38.160426123208524" lon="15.39086636501773"><ele>131.16666666666666</ele><time>2026-04-05T13:53:25.001Z</time></trkpt><trkpt lat="38.160335842434385" lon="15.390909537495602"><ele>131.0</ele><time>2026-04-05T13:53:27Z</time></trkpt><trkpt lat="38.160228560925134" lon="15.390937779628189"><ele>131.0</ele><time>2026-04-05T13:53:29Z</time></trkpt><trkpt lat="38.1601121857591" lon="15.390972223062281"><ele>131.0</ele><time>2026-04-05T13:53:31Z</time></trkpt><trkpt lat="38.159994073190354" lon="15.391003035271913"><ele>131.0</ele><time>2026-04-05T13:53:33Z</time></trkpt><trkpt lat="38.15990178809281" lon="15.391054823530691"><ele>131.0</ele><time>2026-04-05T13:53:35Z</time></trkpt><trkpt lat="38.159787679075045" lon="15.391102634446995"><ele>131.5</ele><time>2026-04-05T13:53:37Z</time></trkpt><trkpt lat="38.15966841218977" lon="15.391178914395523"><ele>132.0</ele><time>2026-04-05T13:53:39Z</time></trkpt><trkpt lat="38.15961616740251" lon="15.391234155223781"><ele>132.5</ele><time>2026-04-05T13:53:40Z</time></trkpt><trkpt lat="38.159555045003344" lon="15.39127287165145"><ele>133.0</ele><time>2026-04-05T13:53:41Z</time></trkpt><trkpt lat="38.15949626406938" lon="15.391310703355364"><ele>133.5</ele><time>2026-04-05T13:53:42Z</time></trkpt><trkpt lat="38.15943348728527" lon="15.391350138966397"><ele>134.0</ele><time>2026-04-05T13:53:43Z</time></trkpt><trkpt lat="38.159371910095125" lon="15.391396003525037"><ele>134.0</ele><time>2026-04-05T13:53:44Z</time></trkpt><trkpt lat="38.15931014326203" lon="15.391433214818527"><ele>134.0</ele><time>2026-04-05T13:53:45Z</time></trkpt><trkpt lat="38.159250536658135" lon="15.391467834556225"><ele>134.0</ele><time>2026-04-05T13:53:46Z</time></trkpt><trkpt lat="38.159188257209635" lon="15.391505036868608"><ele>134.0</ele><time>2026-04-05T13:53:47Z</time></trkpt><trkpt lat="38.15912801020015" lon="15.391534412661338"><ele>134.0</ele><time>2026-04-05T13:53:48Z</time></trkpt><trkpt lat="38.15906308021771" lon="15.391565156738222"><ele>134.0</ele><time>2026-04-05T13:53:49Z</time></trkpt><trkpt lat="38.158998750338895" lon="15.391595649316862"><ele>134.0</ele><time>2026-04-05T13:53:50Z</time></trkpt><trkpt lat="38.15893202894154" lon="15.391629088918453"><ele>134.16666666666666</ele><time>2026-04-05T13:53:51Z</time></trkpt><trkpt lat="38.15886010671684" lon="15.391667291041063"><ele>134.33333333333331</ele><time>2026-04-05T13:53:52Z</time></trkpt><trkpt lat="38.15879072724209" lon="15.391711797107176"><ele>134.5</ele><time>2026-04-05T13:53:53Z</time></trkpt><trkpt lat="38.15871960749536" lon="15.391756634086208"><ele>134.66666666666666</ele><time>2026-04-05T13:53:54Z</time></trkpt><trkpt lat="38.15865861899009" lon="15.391793796278229"><ele>134.83333333333334</ele><time>2026-04-05T13:53:55Z</time></trkpt><trkpt lat="38.158541128488764" lon="15.391852168428711"><ele>135.0</ele><time>2026-04-05T13:53:57Z</time></trkpt><trkpt lat="38.1584769806919" lon="15.391876072615766"><ele>135.0</ele><time>2026-04-05T13:53:58Z</time></trkpt><trkpt lat="38.158404712182666" lon="15.391900603485096"><ele>135.0</ele><time>2026-04-05T13:53:59Z</time></trkpt><trkpt lat="38.15833019435178" lon="15.391928102508261"><ele>135.0</ele><time>2026-04-05T13:54:00Z</time></trkpt><trkpt lat="38.15820614523947" lon="15.39200295692789"><ele>135.0</ele><time>2026-04-05T13:54:02Z</time></trkpt><trkpt lat="38.158151163357154" lon="15.392043029546116"><ele>135.0</ele><time>2026-04-05T13:54:03Z</time></trkpt><trkpt lat="38.15804680912747" lon="15.392115323228298"><ele>135.66666666666666</ele><time>2026-04-05T13:54:05Z</time></trkpt><trkpt lat="38.15797684726564" lon="15.39212639729032"><ele>136.33333333333334</ele><time>2026-04-05T13:54:08Z</time></trkpt><trkpt lat="38.15790328888287" lon="15.392103154967355"><ele>137.0</ele><time>2026-04-05T13:54:17Z</time></trkpt><trkpt lat="38.15780853279932" lon="15.392181994525963"><ele>137.66666666666669</ele><time>2026-04-05T13:54:18Z</time></trkpt><trkpt lat="38.157754426845955" lon="15.392224156194834"><ele>138.33333333333334</ele><time>2026-04-05T13:55:02Z</time></trkpt><trkpt lat="38.15783984880507" lon="15.39228990131803"><ele>139.0</ele><time>2026-04-05T13:55:18.001Z</time></trkpt><trkpt lat="38.1578940920276" lon="15.392236850307475"><ele>139.0</ele><time>2026-04-05T13:55:23.001Z</time></trkpt><trkpt lat="38.15794518509373" lon="15.39218286581701"><ele>139.0</ele><time>2026-04-05T13:55:29.001Z</time></trkpt><trkpt lat="38.15794080082803" lon="15.392101607819829"><ele>139.0</ele><time>2026-04-05T13:55:40Z</time></trkpt><trkpt lat="38.157890368297906" lon="15.392042019421426"><ele>139.0</ele><time>2026-04-05T13:55:59Z</time></trkpt><trkpt lat="38.157820649651036" lon="15.392002792194923"><ele>139.0</ele><time>2026-04-05T13:56:16Z</time></trkpt><trkpt lat="38.15775716072031" lon="15.39203708082959"><ele>139.0</ele><time>2026-04-05T13:56:23Z</time></trkpt><trkpt lat="38.157702025454256" lon="15.392077309705597"><ele>139.0</ele><time>2026-04-05T13:56:31Z</time></trkpt><trkpt lat="38.157663052212875" lon="15.39214850645408"><ele>139.0</ele><time>2026-04-05T13:56:37Z</time></trkpt><trkpt lat="38.15762767707114" lon="15.392216749084639"><ele>139.0</ele><time>2026-04-05T13:56:45Z</time></trkpt><trkpt lat="38.15756972859455" lon="15.392254402590087"><ele>139.0</ele><time>2026-04-05T13:56:51Z</time></trkpt><trkpt lat="38.157501905275446" lon="15.392286727475012"><ele>139.0</ele><time>2026-04-05T14:00:02Z</time></trkpt><trkpt lat="38.157487886380046" lon="15.39237812033354"><ele>139.0</ele><time>2026-04-05T14:00:09Z</time></trkpt><trkpt lat="38.15742934508529" lon="15.392411680757197"><ele>139.0</ele><time>2026-04-05T14:00:19Z</time></trkpt><trkpt lat="38.157386920647035" lon="15.392485469845813"><ele>139.0</ele><time>2026-04-05T14:00:26Z</time></trkpt><trkpt lat="38.15734061109512" lon="15.39254695986593"><ele>139.42857142857142</ele><time>2026-04-05T14:00:33Z</time></trkpt><trkpt lat="38.157279719152875" lon="15.392596336818443"><ele>139.85714285714286</ele><time>2026-04-05T14:00:39Z</time></trkpt><trkpt lat="38.15721876618072" lon="15.392637292582247"><ele>140.28571428571428</ele><time>2026-04-05T14:00:45Z</time></trkpt><trkpt lat="38.15717067220963" lon="15.39258419677007"><ele>140.71428571428572</ele><time>2026-04-05T14:00:52Z</time></trkpt><trkpt lat="38.15711777194515" lon="15.392509828803366"><ele>141.14285714285714</ele><time>2026-04-05T14:00:59Z</time></trkpt><trkpt lat="38.15704276817177" lon="15.392505370981553"><ele>141.57142857142856</ele><time>2026-04-05T14:01:51Z</time></trkpt><trkpt lat="38.15710564022288" lon="15.39248504058626"><ele>142.0</ele><time>2026-04-05T14:02:31Z</time></trkpt><trkpt lat="38.157142025657556" lon="15.392553088673937"><ele>142.0</ele><time>2026-04-05T14:03:21.999Z</time></trkpt><trkpt lat="38.15717583458199" lon="15.392629377381866"><ele>142.0</ele><time>2026-04-05T14:03:28.999Z</time></trkpt><trkpt lat="38.15725166572355" lon="15.392621922553849"><ele>142.0</ele><time>2026-04-05T14:03:37Z</time></trkpt><trkpt lat="38.15730970180933" lon="15.392573103021544"><ele>142.0</ele><time>2026-04-05T14:03:44Z</time></trkpt><trkpt lat="38.15736812600978" lon="15.392536283524716"><ele>142.0</ele><time>2026-04-05T14:03:49Z</time></trkpt><trkpt lat="38.15741631782279" lon="15.392476424316127"><ele>142.0</ele><time>2026-04-05T14:03:54Z</time></trkpt><trkpt lat="38.15748161280168" lon="15.392435140791703"><ele>142.0</ele><time>2026-04-05T14:04:00Z</time></trkpt><trkpt lat="38.157552689309675" lon="15.392410913933304"><ele>141.57142857142856</ele><time>2026-04-05T14:04:06Z</time></trkpt><trkpt lat="38.15761417232785" lon="15.392380307772104"><ele>141.14285714285714</ele><time>2026-04-05T14:04:11Z</time></trkpt><trkpt lat="38.15766784626475" lon="15.392319796188717"><ele>140.71428571428572</ele><time>2026-04-05T14:04:17Z</time></trkpt><trkpt lat="38.157738381622956" lon="15.392267583399235"><ele>140.28571428571428</ele><time>2026-04-05T14:04:23Z</time></trkpt><trkpt lat="38.15780582390554" lon="15.392251785012087"><ele>139.85714285714286</ele><time>2026-04-05T14:04:33Z</time></trkpt><trkpt lat="38.15786509351375" lon="15.392216587194351"><ele>139.42857142857142</ele><time>2026-04-05T14:04:38Z</time></trkpt><trkpt lat="38.15791957183665" lon="15.392172138211812"><ele>139.0</ele><time>2026-04-05T14:04:43Z</time></trkpt><trkpt lat="38.15790202763651" lon="15.392085027391062"><ele>139.0</ele><time>2026-04-05T14:04:50Z</time></trkpt><trkpt lat="38.15786495597699" lon="15.39201185434557"><ele>139.0</ele><time>2026-04-05T14:04:58Z</time></trkpt><trkpt lat="38.15779345524722" lon="15.391992264820464"><ele>139.0</ele><time>2026-04-05T14:05:10Z</time></trkpt><trkpt lat="38.15786098543091" lon="15.39196215587479"><ele>139.0</ele><time>2026-04-05T14:05:42Z</time></trkpt><trkpt lat="38.15788507755543" lon="15.39203645573996"><ele>139.0</ele><time>2026-04-05T14:05:58Z</time></trkpt><trkpt lat="38.157925186047464" lon="15.392114465332739"><ele>139.0</ele><time>2026-04-05T14:06:06Z</time></trkpt><trkpt lat="38.15789669668625" lon="15.392197182007509"><ele>139.0</ele><time>2026-04-05T14:06:14Z</time></trkpt><trkpt lat="38.15783956440263" lon="15.39224050957188"><ele>139.0</ele><time>2026-04-05T14:06:20Z</time></trkpt><trkpt lat="38.157781099583985" lon="15.392273405069378"><ele>139.0</ele><time>2026-04-05T14:06:25Z</time></trkpt><trkpt lat="38.15785587112458" lon="15.392245880454682"><ele>139.0</ele><time>2026-04-05T14:09:10Z</time></trkpt><trkpt lat="38.15792320221522" lon="15.392191103940691"><ele>139.0</ele><time>2026-04-05T14:09:18Z</time></trkpt><trkpt lat="38.15798976958786" lon="15.392134674983303"><ele>139.0</ele><time>2026-04-05T14:09:21Z</time></trkpt><trkpt lat="38.158085416637626" lon="15.392077808055822"><ele>139.0</ele><time>2026-04-05T14:09:24Z</time></trkpt><trkpt lat="38.158157601733215" lon="15.39202256454309"><ele>138.2</ele><time>2026-04-05T14:09:26Z</time></trkpt><trkpt lat="38.15822215064688" lon="15.391981263708223"><ele>137.4</ele><time>2026-04-05T14:09:28Z</time></trkpt><trkpt lat="38.15828280264481" lon="15.39193958220381"><ele>136.6</ele><time>2026-04-05T14:09:30Z</time></trkpt><trkpt lat="38.158367812053264" lon="15.391905353132623"><ele>135.8</ele><time>2026-04-05T14:09:32Z</time></trkpt><trkpt lat="38.15847986985334" lon="15.391868550958687"><ele>135.0</ele><time>2026-04-05T14:09:34Z</time></trkpt><trkpt lat="38.15858440689377" lon="15.391868004487199"><ele>135.0</ele><time>2026-04-05T14:09:36Z</time></trkpt><trkpt lat="38.158689052363655" lon="15.391810276852501"><ele>135.0</ele><time>2026-04-05T14:09:38Z</time></trkpt><trkpt lat="38.158793513511895" lon="15.391744005953404"><ele>135.0</ele><time>2026-04-05T14:09:40Z</time></trkpt><trkpt lat="38.1588714206693" lon="15.391696406255756"><ele>135.0</ele><time>2026-04-05T14:09:42Z</time></trkpt><trkpt lat="38.15895975223256" lon="15.39164849890271"><ele>135.0</ele><time>2026-04-05T14:09:44Z</time></trkpt><trkpt lat="38.159024693413855" lon="15.391617403001142"><ele>134.8</ele><time>2026-04-05T14:09:46Z</time></trkpt><trkpt lat="38.15910224708839" lon="15.391580727898084"><ele>134.6</ele><time>2026-04-05T14:09:48Z</time></trkpt><trkpt lat="38.15920578868994" lon="15.391523657493037"><ele>134.4</ele><time>2026-04-05T14:09:50Z</time></trkpt><trkpt lat="38.15926426723899" lon="15.391487240427754"><ele>134.2</ele><time>2026-04-05T14:09:51Z</time></trkpt><trkpt lat="38.15937460772161" lon="15.391418362307387"><ele>134.0</ele><time>2026-04-05T14:09:53Z</time></trkpt><trkpt lat="38.15947610554003" lon="15.391353535078384"><ele>133.4</ele><time>2026-04-05T14:09:55.001Z</time></trkpt><trkpt lat="38.1595610513381" lon="15.391297432733653"><ele>132.8</ele><time>2026-04-05T14:09:57.001Z</time></trkpt><trkpt lat="38.159650146308685" lon="15.39123859034645"><ele>132.2</ele><time>2026-04-05T14:09:59.001Z</time></trkpt><trkpt lat="38.15974679681319" lon="15.3911747580023"><ele>131.6</ele><time>2026-04-05T14:10:01.001Z</time></trkpt><trkpt lat="38.15983766923842" lon="15.391120475187623"><ele>131.0</ele><time>2026-04-05T14:10:03.001Z</time></trkpt><trkpt lat="38.159923117634584" lon="15.391074978785841"><ele>131.0</ele><time>2026-04-05T14:10:05.001Z</time></trkpt><trkpt lat="38.15999311215994" lon="15.391043395613952"><ele>131.0</ele><time>2026-04-05T14:10:07.001Z</time></trkpt><trkpt lat="38.1600577451968" lon="15.391017130542267"><ele>131.0</ele><time>2026-04-05T14:10:09Z</time></trkpt><trkpt lat="38.16013213245133" lon="15.390974956360946"><ele>131.0</ele><time>2026-04-05T14:10:12Z</time></trkpt><trkpt lat="38.160219447058765" lon="15.390952320598139"><ele>131.0</ele><time>2026-04-05T14:10:15Z</time></trkpt><trkpt lat="38.16029339071892" lon="15.390920807992739"><ele>131.0</ele><time>2026-04-05T14:10:17Z</time></trkpt><trkpt lat="38.160392400448536" lon="15.390881009945055"><ele>131.0</ele><time>2026-04-05T14:10:19Z</time></trkpt><trkpt lat="38.160457400387315" lon="15.390872824124518"><ele>131.0</ele><time>2026-04-05T14:10:21Z</time></trkpt><trkpt lat="38.160525619062476" lon="15.39084186636518"><ele>131.0</ele><time>2026-04-05T14:10:23Z</time></trkpt><trkpt lat="38.16060588778504" lon="15.390802590794697"><ele>131.0</ele><time>2026-04-05T14:10:25Z</time></trkpt><trkpt lat="38.1606783320982" lon="15.390764700558668"><ele>131.0</ele><time>2026-04-05T14:10:27Z</time></trkpt><trkpt lat="38.16075725169121" lon="15.39071983854264"><ele>131.0</ele><time>2026-04-05T14:10:29Z</time></trkpt><trkpt lat="38.160855038601966" lon="15.390659401499775"><ele>131.16666666666666</ele><time>2026-04-05T14:10:31Z</time></trkpt><trkpt lat="38.16094493743538" lon="15.390597615645973"><ele>131.33333333333331</ele><time>2026-04-05T14:10:33Z</time></trkpt><trkpt lat="38.16101940749044" lon="15.39054510059857"><ele>131.5</ele><time>2026-04-05T14:10:35Z</time></trkpt><trkpt lat="38.1610886403549" lon="15.390492300822611"><ele>131.66666666666666</ele><time>2026-04-05T14:10:37Z</time></trkpt><trkpt lat="38.161170865563484" lon="15.39043309100266"><ele>131.83333333333334</ele><time>2026-04-05T14:10:39Z</time></trkpt><trkpt lat="38.16124175253967" lon="15.390393996518013"><ele>132.0</ele><time>2026-04-05T14:10:41Z</time></trkpt><trkpt lat="38.16131522783489" lon="15.390355606229772"><ele>132.0</ele><time>2026-04-05T14:10:43Z</time></trkpt><trkpt lat="38.161410348683" lon="15.390308889847322"><ele>132.0</ele><time>2026-04-05T14:10:45Z</time></trkpt><trkpt lat="38.161519368573884" lon="15.390271634244609"><ele>132.0</ele><time>2026-04-05T14:10:47Z</time></trkpt><trkpt lat="38.161618558574254" lon="15.390230409568288"><ele>132.0</ele><time>2026-04-05T14:10:49Z</time></trkpt><trkpt lat="38.16172374003931" lon="15.390165262157112"><ele>132.0</ele><time>2026-04-05T14:10:51Z</time></trkpt><trkpt lat="38.161813109907" lon="15.390136509491564"><ele>131.79999999999998</ele><time>2026-04-05T14:10:53Z</time></trkpt><trkpt lat="38.161912855359994" lon="15.390104257896509"><ele>131.6</ele><time>2026-04-05T14:10:55Z</time></trkpt><trkpt lat="38.16201216349528" lon="15.390063804438597"><ele>131.39999999999998</ele><time>2026-04-05T14:10:57Z</time></trkpt><trkpt lat="38.162106370157915" lon="15.390028332351772"><ele>131.2</ele><time>2026-04-05T14:10:59Z</time></trkpt><trkpt lat="38.16222301838789" lon="15.3899796707565"><ele>131.0</ele><time>2026-04-05T14:11:01Z</time></trkpt><trkpt lat="38.16228584880604" lon="15.38995108540649"><ele>130.66666666666666</ele><time>2026-04-05T14:11:02Z</time></trkpt><trkpt lat="38.162383905838446" lon="15.389904852838965"><ele>130.33333333333331</ele><time>2026-04-05T14:11:04Z</time></trkpt><trkpt lat="38.162483037624646" lon="15.3898176332293"><ele>130.0</ele><time>2026-04-05T14:11:06Z</time></trkpt><trkpt lat="38.162539851655445" lon="15.389763166173621"><ele>129.66666666666666</ele><time>2026-04-05T14:11:07Z</time></trkpt><trkpt lat="38.16260163720879" lon="15.38970865729649"><ele>129.33333333333334</ele><time>2026-04-05T14:11:08Z</time></trkpt><trkpt lat="38.16265187016315" lon="15.38966024837215"><ele>129.0</ele><time>2026-04-05T14:11:09Z</time></trkpt><trkpt lat="38.16275646400505" lon="15.389574376511552"><ele>129.0</ele><time>2026-04-05T14:11:11Z</time></trkpt><trkpt lat="38.16283703544746" lon="15.389492077597009"><ele>129.0</ele><time>2026-04-05T14:11:13Z</time></trkpt><trkpt lat="38.162901520208756" lon="15.389445177269108"><ele>129.0</ele><time>2026-04-05T14:11:15Z</time></trkpt><trkpt lat="38.162975193311446" lon="15.389383594003325"><ele>129.0</ele><time>2026-04-05T14:11:18Z</time></trkpt><trkpt lat="38.16302530137083" lon="15.389323156832182"><ele>129.0</ele><time>2026-04-05T14:11:20Z</time></trkpt><trkpt lat="38.163107901000785" lon="15.38926702352754"><ele>129.0</ele><time>2026-04-05T14:11:22Z</time></trkpt><trkpt lat="38.163200478437915" lon="15.389196825214217"><ele>128.83333333333334</ele><time>2026-04-05T14:11:24Z</time></trkpt><trkpt lat="38.16327222552406" lon="15.389120781743431"><ele>128.66666666666666</ele><time>2026-04-05T14:11:26Z</time></trkpt><trkpt lat="38.16332547306637" lon="15.389072080973104"><ele>128.5</ele><time>2026-04-05T14:11:28Z</time></trkpt><trkpt lat="38.163407075027685" lon="15.38903176762752"><ele>128.33333333333331</ele><time>2026-04-05T14:11:30Z</time></trkpt><trkpt lat="38.16346584148496" lon="15.389000756074473"><ele>128.16666666666666</ele><time>2026-04-05T14:11:32Z</time></trkpt><trkpt lat="38.16354009918405" lon="15.388944816618404"><ele>128.0</ele><time>2026-04-05T14:11:35Z</time></trkpt><trkpt lat="38.16362775329855" lon="15.388915602153624"><ele>127.99999999999999</ele><time>2026-04-05T14:11:38Z</time></trkpt><trkpt lat="38.163712636643425" lon="15.388955242222115"><ele>128.0</ele><time>2026-04-05T14:11:40Z</time></trkpt><trkpt lat="38.16378808564248" lon="15.38893506165683"><ele>128.0</ele><time>2026-04-05T14:11:43Z</time></trkpt><trkpt lat="38.16384497883435" lon="15.388974008407327"><ele>128.0</ele><time>2026-04-05T14:11:46Z</time></trkpt><trkpt lat="38.16382943034633" lon="15.389063803379633"><ele>127.99999999999999</ele><time>2026-04-05T14:11:49Z</time></trkpt><trkpt lat="38.163858500723634" lon="15.389149391100553"><ele>128.0</ele><time>2026-04-05T14:11:51Z</time></trkpt><trkpt lat="38.16389252672358" lon="15.389258426812273"><ele>128.0</ele><time>2026-04-05T14:11:53Z</time></trkpt><trkpt lat="38.16393300777152" lon="15.389389524595403"><ele>128.0</ele><time>2026-04-05T14:11:55Z</time></trkpt><trkpt lat="38.16397458817912" lon="15.389522879769556"><ele>128.0</ele><time>2026-04-05T14:11:56.999Z</time></trkpt><trkpt lat="38.16401516418212" lon="15.389649855745336"><ele>128.0</ele><time>2026-04-05T14:11:58.999Z</time></trkpt><trkpt lat="38.16406111416229" lon="15.38976765293153"><ele>128.0</ele><time>2026-04-05T14:12:01Z</time></trkpt><trkpt lat="38.16408955959904" lon="15.38989412336276"><ele>129.83333333333331</ele><time>2026-04-05T14:12:03Z</time></trkpt><trkpt lat="38.16411572262165" lon="15.38999219001606"><ele>131.66666666666666</ele><time>2026-04-05T14:12:05Z</time></trkpt><trkpt lat="38.164160430156564" lon="15.390071117162723"><ele>133.5</ele><time>2026-04-05T14:12:09Z</time></trkpt><trkpt lat="38.16424512370957" lon="15.39006996746722"><ele>135.33333333333334</ele><time>2026-04-05T14:12:12Z</time></trkpt><trkpt lat="38.164289504718546" lon="15.389999405628103"><ele>137.16666666666669</ele><time>2026-04-05T14:12:15Z</time></trkpt><trkpt lat="38.164311810003156" lon="15.389902331012841"><ele>139.0</ele><time>2026-04-05T14:12:17Z</time></trkpt><trkpt lat="38.16433475824406" lon="15.38976056874563"><ele>139.4</ele><time>2026-04-05T14:12:19Z</time></trkpt><trkpt lat="38.16437435185632" lon="15.389667503284562"><ele>139.8</ele><time>2026-04-05T14:12:22Z</time></trkpt><trkpt lat="38.164434353301495" lon="15.389634413530095"><ele>140.2</ele><time>2026-04-05T14:12:30Z</time></trkpt><trkpt lat="38.16436721457517" lon="15.389470220383913"><ele>140.6</ele><time>2026-04-05T14:12:32Z</time></trkpt><trkpt lat="38.164351604067306" lon="15.389341142112281"><ele>141.0</ele><time>2026-04-05T14:12:34Z</time></trkpt><trkpt lat="38.16435228474313" lon="15.389234277115142"><ele>141.0</ele><time>2026-04-05T14:12:36Z</time></trkpt><trkpt lat="38.16438757302856" lon="15.38911560830971"><ele>141.0</ele><time>2026-04-05T14:12:38Z</time></trkpt><trkpt lat="38.164436485724856" lon="15.388996993755974"><ele>141.0</ele><time>2026-04-05T14:12:40Z</time></trkpt><trkpt lat="38.16448905200333" lon="15.388881289411637"><ele>141.0</ele><time>2026-04-05T14:12:42Z</time></trkpt><trkpt lat="38.16451220766178" lon="15.38880563432284"><ele>141.0</ele><time>2026-04-05T14:12:43Z</time></trkpt><trkpt lat="38.16453299676586" lon="15.388728091986277"><ele>141.0</ele><time>2026-04-05T14:12:44Z</time></trkpt><trkpt lat="38.164546808908554" lon="15.388640089375762"><ele>139.0</ele><time>2026-04-05T14:12:45Z</time></trkpt><trkpt lat="38.16455599358099" lon="15.388551673068733"><ele>137.0</ele><time>2026-04-05T14:12:46Z</time></trkpt><trkpt lat="38.16455928653363" lon="15.388462673195534"><ele>135.0</ele><time>2026-04-05T14:12:47Z</time></trkpt><trkpt lat="38.16455792635188" lon="15.388374769892858"><ele>133.0</ele><time>2026-04-05T14:12:48Z</time></trkpt><trkpt lat="38.16456346583671" lon="15.388247004250651"><ele>131.0</ele><time>2026-04-05T14:12:50Z</time></trkpt><trkpt lat="38.16457983812257" lon="15.388162225814051"><ele>129.0</ele><time>2026-04-05T14:12:52Z</time></trkpt><trkpt lat="38.16464250068902" lon="15.38807648153798"><ele>129.0</ele><time>2026-04-05T14:12:55Z</time></trkpt><trkpt lat="38.16469355221357" lon="15.388026304002853"><ele>129.0</ele><time>2026-04-05T14:12:57Z</time></trkpt><trkpt lat="38.164763552108724" lon="15.38797785389629"><ele>129.0</ele><time>2026-04-05T14:12:59Z</time></trkpt><trkpt lat="38.164844544410094" lon="15.387939942170004"><ele>129.0</ele><time>2026-04-05T14:13:01Z</time></trkpt><trkpt lat="38.16491187670782" lon="15.387917368598591"><ele>129.0</ele><time>2026-04-05T14:13:03Z</time></trkpt><trkpt lat="38.164994600983576" lon="15.387901883057369"><ele>129.0</ele><time>2026-04-05T14:13:05Z</time></trkpt><trkpt lat="38.165083637939794" lon="15.387882262794177"><ele>129.0</ele><time>2026-04-05T14:13:07Z</time></trkpt><trkpt lat="38.16516941714818" lon="15.387846598985254"><ele>129.0</ele><time>2026-04-05T14:13:09Z</time></trkpt><trkpt lat="38.16525197644096" lon="15.387801730339527"><ele>129.0</ele><time>2026-04-05T14:13:11Z</time></trkpt><trkpt lat="38.16534455602915" lon="15.387738732565653"><ele>129.0</ele><time>2026-04-05T14:13:13Z</time></trkpt><trkpt lat="38.16542630408919" lon="15.38767479674892"><ele>129.0</ele><time>2026-04-05T14:13:15Z</time></trkpt><trkpt lat="38.165485732900386" lon="15.387643775210321"><ele>129.0</ele><time>2026-04-05T14:13:17Z</time></trkpt><trkpt lat="38.165560536668224" lon="15.387612120330335"><ele>129.0</ele><time>2026-04-05T14:13:19Z</time></trkpt><trkpt lat="38.16567434045687" lon="15.387591777972954"><ele>129.0</ele><time>2026-04-05T14:13:21Z</time></trkpt><trkpt lat="38.16578359970762" lon="15.387567688558791"><ele>129.0</ele><time>2026-04-05T14:13:23Z</time></trkpt><trkpt lat="38.165911367852786" lon="15.387541437335459"><ele>129.0</ele><time>2026-04-05T14:13:25Z</time></trkpt><trkpt lat="38.16598529096955" lon="15.387525218106834"><ele>129.0</ele><time>2026-04-05T14:13:26Z</time></trkpt><trkpt lat="38.16606269239571" lon="15.387504405880486"><ele>130.16666666666666</ele><time>2026-04-05T14:13:27Z</time></trkpt><trkpt lat="38.16614037480815" lon="15.38747346149646"><ele>131.33333333333334</ele><time>2026-04-05T14:13:28Z</time></trkpt><trkpt lat="38.16621777183032" lon="15.3874414738654"><ele>132.5</ele><time>2026-04-05T14:13:29Z</time></trkpt><trkpt lat="38.16629049317647" lon="15.387412452012784"><ele>133.66666666666669</ele><time>2026-04-05T14:13:30Z</time></trkpt><trkpt lat="38.16636668574463" lon="15.387385206773201"><ele>134.83333333333334</ele><time>2026-04-05T14:13:31Z</time></trkpt><trkpt lat="38.16645659619612" lon="15.387355363131558"><ele>136.0</ele><time>2026-04-05T14:13:32Z</time></trkpt><trkpt lat="38.166525065250994" lon="15.387334323167966"><ele>136.8</ele><time>2026-04-05T14:13:33Z</time></trkpt><trkpt lat="38.166632574583986" lon="15.387309897116305"><ele>137.6</ele><time>2026-04-05T14:13:35Z</time></trkpt><trkpt lat="38.166767133374115" lon="15.387297019038966"><ele>138.4</ele><time>2026-04-05T14:13:37Z</time></trkpt><trkpt lat="38.166851688294685" lon="15.387297416928472"><ele>139.2</ele><time>2026-04-05T14:13:38Z</time></trkpt><trkpt lat="38.16694622822673" lon="15.387314220894835"><ele>140.0</ele><time>2026-04-05T14:13:39Z</time></trkpt><trkpt lat="38.167051603589435" lon="15.387330294309866"><ele>140.0</ele><time>2026-04-05T14:13:40Z</time></trkpt><trkpt lat="38.1671646750084" lon="15.38734693719809"><ele>140.0</ele><time>2026-04-05T14:13:41Z</time></trkpt><trkpt lat="38.167257578232444" lon="15.387349992488122"><ele>140.0</ele><time>2026-04-05T14:13:42Z</time></trkpt><trkpt lat="38.167323197964805" lon="15.387345696462502"><ele>140.0</ele><time>2026-04-05T14:13:43Z</time></trkpt><trkpt lat="38.16740328967702" lon="15.387321579316525"><ele>140.0</ele><time>2026-04-05T14:13:45Z</time></trkpt><trkpt lat="38.16745306506466" lon="15.387268707527191"><ele>140.0</ele><time>2026-04-05T14:13:47Z</time></trkpt><trkpt lat="38.16747635370522" lon="15.387153514318797"><ele>139.0</ele><time>2026-04-05T14:13:50Z</time></trkpt><trkpt lat="38.16747771206854" lon="15.387068237222813"><ele>138.0</ele><time>2026-04-05T14:13:52Z</time></trkpt><trkpt lat="38.167513924450525" lon="15.386966503965853"><ele>137.0</ele><time>2026-04-05T14:13:55Z</time></trkpt><trkpt lat="38.16759814457648" lon="15.386854750757422"><ele>136.0</ele><time>2026-04-05T14:13:57Z</time></trkpt><trkpt lat="38.167660086492965" lon="15.386797785211089"><ele>135.0</ele><time>2026-04-05T14:13:58Z</time></trkpt><trkpt lat="38.16773994490947" lon="15.386731829933542"><ele>134.0</ele><time>2026-04-05T14:13:58.999Z</time></trkpt><trkpt lat="38.16782353080544" lon="15.386656649483184"><ele>134.0</ele><time>2026-04-05T14:13:59.999Z</time></trkpt><trkpt lat="38.16790420624357" lon="15.38657125359754"><ele>134.0</ele><time>2026-04-05T14:14:00.999Z</time></trkpt><trkpt lat="38.167970092508554" lon="15.386484562135058"><ele>134.0</ele><time>2026-04-05T14:14:01.999Z</time></trkpt><trkpt lat="38.16802235135118" lon="15.386388128022356"><ele>134.0</ele><time>2026-04-05T14:14:02.999Z</time></trkpt><trkpt lat="38.168041501143655" lon="15.38628159325234"><ele>134.0</ele><time>2026-04-05T14:14:04.999Z</time></trkpt><trkpt lat="38.16803390348322" lon="15.386183180236388"><ele>133.0</ele><time>2026-04-05T14:14:08Z</time></trkpt><trkpt lat="38.167985458635314" lon="15.386088845505455"><ele>132.0</ele><time>2026-04-05T14:15:14Z</time></trkpt><trkpt lat="38.1679359995391" lon="15.38602779098201"><ele>131.0</ele><time>2026-04-05T14:15:26Z</time></trkpt><trkpt lat="38.16788597265655" lon="15.385972259912373"><ele>130.0</ele><time>2026-04-05T14:15:28Z</time></trkpt><trkpt lat="38.16786077714962" lon="15.385877616168194"><ele>129.0</ele><time>2026-04-05T14:15:30Z</time></trkpt><trkpt lat="38.16785826075706" lon="15.385794717595317"><ele>128.0</ele><time>2026-04-05T14:15:31Z</time></trkpt><trkpt lat="38.16785540768805" lon="15.385702964490577"><ele>127.0</ele><time>2026-04-05T14:15:32Z</time></trkpt><trkpt lat="38.16784872192426" lon="15.385613608568196"><ele>127.00000000000001</ele><time>2026-04-05T14:15:33Z</time></trkpt><trkpt lat="38.167831278165366" lon="15.385506944687277"><ele>127.0</ele><time>2026-04-05T14:15:34Z</time></trkpt><trkpt lat="38.167808406063095" lon="15.38539268086065"><ele>127.0</ele><time>2026-04-05T14:15:35Z</time></trkpt><trkpt lat="38.16777800962294" lon="15.385287330980132"><ele>127.0</ele><time>2026-04-05T14:15:36Z</time></trkpt><trkpt lat="38.16775392330376" lon="15.385190788138226"><ele>127.00000000000001</ele><time>2026-04-05T14:15:37Z</time></trkpt><trkpt lat="38.167711390435244" lon="15.385076200045432"><ele>127.0</ele><time>2026-04-05T14:15:38Z</time></trkpt><trkpt lat="38.16766699183578" lon="15.384981540119291"><ele>127.0</ele><time>2026-04-05T14:15:39Z</time></trkpt><trkpt lat="38.16760196715962" lon="15.38485963043335"><ele>127.0</ele><time>2026-04-05T14:15:41Z</time></trkpt><trkpt lat="38.167627204776224" lon="15.384737804874336"><ele>127.0</ele><time>2026-04-05T14:15:43Z</time></trkpt><trkpt lat="38.167710740907715" lon="15.384672055893866"><ele>127.0</ele><time>2026-04-05T14:15:45Z</time></trkpt><trkpt lat="38.16782776031266" lon="15.384582603851342"><ele>125.39999999999999</ele><time>2026-04-05T14:15:47Z</time></trkpt><trkpt lat="38.167897337125304" lon="15.384527315769445"><ele>123.79999999999998</ele><time>2026-04-05T14:15:48Z</time></trkpt><trkpt lat="38.16793670262862" lon="15.38446209462774"><ele>122.2</ele><time>2026-04-05T14:15:49Z</time></trkpt><trkpt lat="38.16797539529726" lon="15.38435293458118"><ele>120.6</ele><time>2026-04-05T14:15:51Z</time></trkpt><trkpt lat="38.1679355257266" lon="15.38419218106674"><ele>119.0</ele><time>2026-04-05T14:15:53Z</time></trkpt><trkpt lat="38.1679151029972" lon="15.3840941790969"><ele>119.0</ele><time>2026-04-05T14:15:54Z</time></trkpt><trkpt lat="38.16790089247426" lon="15.384002350550986"><ele>119.0</ele><time>2026-04-05T14:15:55Z</time></trkpt><trkpt lat="38.167898073162284" lon="15.383868269980493"><ele>119.0</ele><time>2026-04-05T14:15:57Z</time></trkpt><trkpt lat="38.16796683935928" lon="15.383783175546316"><ele>119.0</ele><time>2026-04-05T14:15:58.999Z</time></trkpt><trkpt lat="38.16809381578161" lon="15.38373487132081"><ele>119.0</ele><time>2026-04-05T14:16:00.999Z</time></trkpt><trkpt lat="38.16817563864179" lon="15.383688262458934"><ele>118.85714285714286</ele><time>2026-04-05T14:16:01.999Z</time></trkpt><trkpt lat="38.168261705927875" lon="15.38365871563281"><ele>118.71428571428572</ele><time>2026-04-05T14:16:02.999Z</time></trkpt><trkpt lat="38.168331426335065" lon="15.383621215714056"><ele>118.57142857142857</ele><time>2026-04-05T14:16:03.999Z</time></trkpt><trkpt lat="38.16838286109935" lon="15.383572901891656"><ele>118.42857142857143</ele><time>2026-04-05T14:16:04.999Z</time></trkpt><trkpt lat="38.16842033718099" lon="15.3835075477119"><ele>118.28571428571429</ele><time>2026-04-05T14:16:05.999Z</time></trkpt><trkpt lat="38.16844208454188" lon="15.383424673859315"><ele>118.14285714285714</ele><time>2026-04-05T14:16:06.999Z</time></trkpt><trkpt lat="38.16848095773559" lon="15.383347598643"><ele>118.0</ele><time>2026-04-05T14:16:07.999Z</time></trkpt><trkpt lat="38.16850640338531" lon="15.383272749760417"><ele>118.00000000000001</ele><time>2026-04-05T14:16:08.999Z</time></trkpt><trkpt lat="38.168556662419455" lon="15.38316939118566"><ele>118.0</ele><time>2026-04-05T14:16:10.999Z</time></trkpt><trkpt lat="38.168652841318824" lon="15.383087916715555"><ele>118.0</ele><time>2026-04-05T14:16:13Z</time></trkpt><trkpt lat="38.16871808934174" lon="15.383060486815975"><ele>118.0</ele><time>2026-04-05T14:16:14Z</time></trkpt><trkpt lat="38.16878304077602" lon="15.383028973153493"><ele>118.00000000000001</ele><time>2026-04-05T14:16:15Z</time></trkpt><trkpt lat="38.168848516085816" lon="15.382986350364769"><ele>118.0</ele><time>2026-04-05T14:16:16Z</time></trkpt><trkpt lat="38.16892085533411" lon="15.382945144855022"><ele>117.60000000000001</ele><time>2026-04-05T14:16:17Z</time></trkpt><trkpt lat="38.168995851361544" lon="15.382900945293724"><ele>117.20000000000002</ele><time>2026-04-05T14:16:18Z</time></trkpt><trkpt lat="38.16906910892708" lon="15.382860911931106"><ele>116.8</ele><time>2026-04-05T14:16:19Z</time></trkpt><trkpt lat="38.169155968675035" lon="15.382815931006066"><ele>116.4</ele><time>2026-04-05T14:16:21Z</time></trkpt><trkpt lat="38.169223001297325" lon="15.382796890000298"><ele>116.0</ele><time>2026-04-05T14:16:24Z</time></trkpt><trkpt lat="38.16916174060287" lon="15.382650719909162"><ele>116.0</ele><time>2026-04-05T14:16:27Z</time></trkpt><trkpt lat="38.16906629626299" lon="15.382576073918113"><ele>116.0</ele><time>2026-04-05T14:16:29Z</time></trkpt><trkpt lat="38.16895152998748" lon="15.382588683668544"><ele>116.0</ele><time>2026-04-05T14:16:31Z</time></trkpt><trkpt lat="38.168887809007074" lon="15.382510492996003"><ele>116.0</ele><time>2026-04-05T14:16:34Z</time></trkpt><trkpt lat="38.168849378228295" lon="15.38244406794449"><ele>116.0</ele><time>2026-04-05T14:16:35Z</time></trkpt><trkpt lat="38.168798851888624" lon="15.382379968283972"><ele>115.83333333333333</ele><time>2026-04-05T14:16:36Z</time></trkpt><trkpt lat="38.168739479634596" lon="15.382322297711083"><ele>115.66666666666666</ele><time>2026-04-05T14:16:37Z</time></trkpt><trkpt lat="38.16868323005948" lon="15.382282853078612"><ele>115.5</ele><time>2026-04-05T14:16:38Z</time></trkpt><trkpt lat="38.168614544583534" lon="15.382279341223828"><ele>115.33333333333334</ele><time>2026-04-05T14:16:39Z</time></trkpt><trkpt lat="38.16854207251071" lon="15.382305361091044"><ele>115.16666666666667</ele><time>2026-04-05T14:16:40Z</time></trkpt><trkpt lat="38.168466627909645" lon="15.382307870749655"><ele>115.0</ele><time>2026-04-05T14:16:41Z</time></trkpt><trkpt lat="38.16837378941218" lon="15.382313262563624"><ele>115.00000000000001</ele><time>2026-04-05T14:16:42Z</time></trkpt><trkpt lat="38.16829257576751" lon="15.382304324604238"><ele>115.0</ele><time>2026-04-05T14:16:43Z</time></trkpt><trkpt lat="38.16822239469134" lon="15.382292608061368"><ele>115.0</ele><time>2026-04-05T14:16:44Z</time></trkpt><trkpt lat="38.16812619665277" lon="15.382269740263252"><ele>115.0</ele><time>2026-04-05T14:16:46Z</time></trkpt><trkpt lat="38.16807115915174" lon="15.382220778515617"><ele>115.00000000000001</ele><time>2026-04-05T14:16:48Z</time></trkpt><trkpt lat="38.16802128508398" lon="15.382127471717741"><ele>115.0</ele><time>2026-04-05T14:16:50Z</time></trkpt><trkpt lat="38.16797081787742" lon="15.382056585827792"><ele>115.00000000000001</ele><time>2026-04-05T14:16:52Z</time></trkpt><trkpt lat="38.16792624501335" lon="15.381901795784664"><ele>115.0</ele><time>2026-04-05T14:17:39.999Z</time></trkpt><trkpt lat="38.16786328650513" lon="15.381894953310196"><ele>115.0</ele><time>2026-04-05T14:17:43.999Z</time></trkpt><trkpt lat="38.16780570882326" lon="15.381950871323697"><ele>115.0</ele><time>2026-04-05T14:17:50.999Z</time></trkpt><trkpt lat="38.1677412817418" lon="15.381996358317508"><ele>115.00000000000001</ele><time>2026-04-05T14:17:55.999Z</time></trkpt><trkpt lat="38.167745400139" lon="15.382088451547546"><ele>115.0</ele><time>2026-04-05T14:18:01.999Z</time></trkpt><trkpt lat="38.16775570417131" lon="15.382182306212679"><ele>114.99999999999999</ele><time>2026-04-05T14:18:09.999Z</time></trkpt><trkpt lat="38.16773092882178" lon="15.382262990640125"><ele>115.0</ele><time>2026-04-05T14:18:16.999Z</time></trkpt><trkpt lat="38.1677534753278" lon="15.382178496047032"><ele>114.99999999999999</ele><time>2026-04-05T14:19:05Z</time></trkpt><trkpt lat="38.167749153649346" lon="15.382077547347931"><ele>114.99999999999999</ele><time>2026-04-05T14:19:11Z</time></trkpt><trkpt lat="38.16774171798084" lon="15.381986419080485"><ele>115.0</ele><time>2026-04-05T14:19:17Z</time></trkpt><trkpt lat="38.16774190229559" lon="15.381902672516464"><ele>114.99999999999999</ele><time>2026-04-05T14:19:22Z</time></trkpt><trkpt lat="38.16772700269336" lon="15.381821143662961"><ele>114.99999999999999</ele><time>2026-04-05T14:19:27Z</time></trkpt><trkpt lat="38.1677961153568" lon="15.381877880861431"><ele>114.99999999999999</ele><time>2026-04-05T14:21:40Z</time></trkpt><trkpt lat="38.16785932166983" lon="15.3818990190778"><ele>115.0</ele><time>2026-04-05T14:22:36Z</time></trkpt><trkpt lat="38.16793225738715" lon="15.381919817761265"><ele>114.99999999999999</ele><time>2026-04-05T14:22:44Z</time></trkpt><trkpt lat="38.16794938274233" lon="15.381998141927065"><ele>114.99999999999999</ele><time>2026-04-05T14:22:49Z</time></trkpt><trkpt lat="38.16793772743635" lon="15.381907313935523"><ele>115.0</ele><time>2026-04-05T14:23:18Z</time></trkpt><trkpt lat="38.16791815089319" lon="15.381800916345084"><ele>114.99999999999999</ele><time>2026-04-05T14:23:20Z</time></trkpt><trkpt lat="38.16793938372591" lon="15.381712492975879"><ele>114.99999999999999</ele><time>2026-04-05T14:23:22Z</time></trkpt><trkpt lat="38.16799888873992" lon="15.381601184532505"><ele>115.00000000000001</ele><time>2026-04-05T14:23:24Z</time></trkpt><trkpt lat="38.1680328782272" lon="15.38153132025452"><ele>115.0</ele><time>2026-04-05T14:23:25Z</time></trkpt><trkpt lat="38.16805765788334" lon="15.3814540350332"><ele>115.0</ele><time>2026-04-05T14:23:26Z</time></trkpt><trkpt lat="38.168085234992354" lon="15.38136402132624"><ele>115.0</ele><time>2026-04-05T14:23:27Z</time></trkpt><trkpt lat="38.16810751131534" lon="15.381284535487609"><ele>115.00000000000001</ele><time>2026-04-05T14:23:28Z</time></trkpt><trkpt lat="38.16814673764076" lon="15.381158153003483"><ele>115.0</ele><time>2026-04-05T14:23:30Z</time></trkpt><trkpt lat="38.16820356626313" lon="15.38103328002879"><ele>113.4</ele><time>2026-04-05T14:23:32Z</time></trkpt><trkpt lat="38.168265433630076" lon="15.380914219285577"><ele>111.8</ele><time>2026-04-05T14:23:34Z</time></trkpt><trkpt lat="38.16833568471734" lon="15.380773624058403"><ele>110.19999999999999</ele><time>2026-04-05T14:23:36Z</time></trkpt><trkpt lat="38.16837574215175" lon="15.38070276342"><ele>108.6</ele><time>2026-04-05T14:23:37Z</time></trkpt><trkpt lat="38.16841736422536" lon="15.380627440764492"><ele>107.0</ele><time>2026-04-05T14:23:38Z</time></trkpt><trkpt lat="38.16845684814552" lon="15.380553853661878"><ele>106.71428571428572</ele><time>2026-04-05T14:23:39Z</time></trkpt><trkpt lat="38.1684950742516" lon="15.38048242998695"><ele>106.42857142857143</ele><time>2026-04-05T14:23:40Z</time></trkpt><trkpt lat="38.16853308474829" lon="15.38041186274201"><ele>106.14285714285714</ele><time>2026-04-05T14:23:41Z</time></trkpt><trkpt lat="38.16856870351644" lon="15.38034321023886"><ele>105.85714285714286</ele><time>2026-04-05T14:23:42Z</time></trkpt><trkpt lat="38.168618465432345" lon="15.38025533785203"><ele>105.57142857142857</ele><time>2026-04-05T14:23:44Z</time></trkpt><trkpt lat="38.16859193444572" lon="15.38033057613714"><ele>105.28571428571429</ele><time>2026-04-05T14:24:07Z</time></trkpt><trkpt lat="38.168520600848574" lon="15.380347499539571"><ele>105.0</ele><time>2026-04-05T14:24:12.999Z</time></trkpt><trkpt lat="38.16857887581482" lon="15.380317014931439"><ele>105.0</ele><time>2026-04-05T14:24:47Z</time></trkpt><trkpt lat="38.16863015981759" lon="15.380250177148989"><ele>105.0</ele><time>2026-04-05T14:24:51Z</time></trkpt><trkpt lat="38.16866849507182" lon="15.380181329252004"><ele>105.0</ele><time>2026-04-05T14:25:07Z</time></trkpt><trkpt lat="38.16861475862316" lon="15.380224007995844"><ele>105.0</ele><time>2026-04-05T14:25:20Z</time></trkpt><trkpt lat="38.16857620851684" lon="15.380327662748268"><ele>105.0</ele><time>2026-04-05T14:25:22Z</time></trkpt><trkpt lat="38.16852471190186" lon="15.380378424062204"><ele>105.0</ele><time>2026-04-05T14:25:25Z</time></trkpt><trkpt lat="38.16844887394866" lon="15.380319509395802"><ele>105.0</ele><time>2026-04-05T14:26:01Z</time></trkpt><trkpt lat="38.16838270680058" lon="15.380250267702689"><ele>105.0</ele><time>2026-04-05T14:26:07Z</time></trkpt><trkpt lat="38.168317322161414" lon="15.380206031757025"><ele>105.0</ele><time>2026-04-05T14:26:11Z</time></trkpt><trkpt lat="38.16825196341442" lon="15.380171412132913"><ele>105.0</ele><time>2026-04-05T14:26:22Z</time></trkpt><trkpt lat="38.16818726753378" lon="15.380171802190027"><ele>105.0</ele><time>2026-04-05T14:26:24Z</time></trkpt><trkpt lat="38.16812446736012" lon="15.380232268463493"><ele>105.0</ele><time>2026-04-05T14:26:28Z</time></trkpt><trkpt lat="38.168082102593296" lon="15.380303891616531"><ele>105.0</ele><time>2026-04-05T14:26:30.999Z</time></trkpt><trkpt lat="38.16804378826565" lon="15.380420231982688"><ele>107.85714285714286</ele><time>2026-04-05T14:26:33.999Z</time></trkpt><trkpt lat="38.1680064672807" lon="15.38052715966372"><ele>110.71428571428572</ele><time>2026-04-05T14:26:35.999Z</time></trkpt><trkpt lat="38.167961429844944" lon="15.380610528958886"><ele>113.57142857142857</ele><time>2026-04-05T14:26:37.999Z</time></trkpt><trkpt lat="38.167951951894096" lon="15.380702899181767"><ele>116.42857142857143</ele><time>2026-04-05T14:26:39.999Z</time></trkpt><trkpt lat="38.16791286651722" lon="15.380770867253593"><ele>119.28571428571429</ele><time>2026-04-05T14:26:42Z</time></trkpt><trkpt lat="38.16788064870069" lon="15.380852799872434"><ele>122.14285714285714</ele><time>2026-04-05T14:26:45Z</time></trkpt><trkpt lat="38.167851387457695" lon="15.380927212539632"><ele>125.0</ele><time>2026-04-05T14:26:49Z</time></trkpt><trkpt lat="38.16782221784371" lon="15.38100139218588"><ele>125.0</ele><time>2026-04-05T14:26:51Z</time></trkpt><trkpt lat="38.167792363019885" lon="15.381077314355514"><ele>125.0</ele><time>2026-04-05T14:26:54Z</time></trkpt><trkpt lat="38.167775627824334" lon="15.381171864392952"><ele>125.0</ele><time>2026-04-05T14:28:09Z</time></trkpt><trkpt lat="38.16774754354039" lon="15.381255136710989"><ele>125.0</ele><time>2026-04-05T14:28:15Z</time></trkpt><trkpt lat="38.16773475178974" lon="15.38134136924171"><ele>125.0</ele><time>2026-04-05T14:28:23Z</time></trkpt><trkpt lat="38.16773979053811" lon="15.381255517434926"><ele>125.0</ele><time>2026-04-05T14:28:41Z</time></trkpt><trkpt lat="38.167763010813815" lon="15.381175274308344"><ele>125.0</ele><time>2026-04-05T14:28:47Z</time></trkpt><trkpt lat="38.16781787782268" lon="15.381102744256472"><ele>124.99999999999999</ele><time>2026-04-05T14:29:00Z</time></trkpt><trkpt lat="38.16785089655119" lon="15.381017488299868"><ele>125.0</ele><time>2026-04-05T14:29:39Z</time></trkpt><trkpt lat="38.167885895022984" lon="15.38091146284501"><ele>125.0</ele><time>2026-04-05T14:29:42Z</time></trkpt><trkpt lat="38.167909644675134" lon="15.380819298443978"><ele>125.0</ele><time>2026-04-05T14:29:44Z</time></trkpt><trkpt lat="38.16794989716721" lon="15.380713676875587"><ele>124.99999999999999</ele><time>2026-04-05T14:29:46Z</time></trkpt><trkpt lat="38.167967134286734" lon="15.380623412026873"><ele>125.0</ele><time>2026-04-05T14:29:48Z</time></trkpt><trkpt lat="38.16800317639857" lon="15.380529245586969"><ele>124.16666666666666</ele><time>2026-04-05T14:29:51Z</time></trkpt><trkpt lat="38.16803177337807" lon="15.380449262899164"><ele>123.33333333333333</ele><time>2026-04-05T14:29:53Z</time></trkpt><trkpt lat="38.16807291901792" lon="15.380344446728124"><ele>122.5</ele><time>2026-04-05T14:29:55Z</time></trkpt><trkpt lat="38.16810812472406" lon="15.380241583381725"><ele>121.66666666666666</ele><time>2026-04-05T14:29:57Z</time></trkpt><trkpt lat="38.168120574773035" lon="15.380143559707012"><ele>120.83333333333333</ele><time>2026-04-05T14:29:59Z</time></trkpt><trkpt lat="38.168134548231144" lon="15.380049045621423"><ele>120.0</ele><time>2026-04-05T14:30:02Z</time></trkpt><trkpt lat="38.16817441993869" lon="15.379974444148909"><ele>118.0</ele><time>2026-04-05T14:30:04Z</time></trkpt><trkpt lat="38.168234380416735" lon="15.379871716057682"><ele>116.0</ele><time>2026-04-05T14:30:06Z</time></trkpt><trkpt lat="38.16828244207626" lon="15.379768593005847"><ele>114.0</ele><time>2026-04-05T14:30:08Z</time></trkpt><trkpt lat="38.16832250532307" lon="15.379699135413702"><ele>112.0</ele><time>2026-04-05T14:30:10Z</time></trkpt><trkpt lat="38.16834658911042" lon="15.379623672888941"><ele>110.0</ele><time>2026-04-05T14:30:14Z</time></trkpt><trkpt lat="38.16831885564423" lon="15.37972012081664"><ele>108.0</ele><time>2026-04-05T14:30:23Z</time></trkpt><trkpt lat="38.16828818749206" lon="15.379791309113473"><ele>108.0</ele><time>2026-04-05T14:30:41Z</time></trkpt><trkpt lat="38.16819337235295" lon="15.37970850746208"><ele>108.0</ele><time>2026-04-05T14:30:54Z</time></trkpt><trkpt lat="38.16824804854642" lon="15.379668330188144"><ele>108.0</ele><time>2026-04-05T14:31:04Z</time></trkpt><trkpt lat="38.168304517768874" lon="15.379604268584654"><ele>108.0</ele><time>2026-04-05T14:31:07Z</time></trkpt><trkpt lat="38.168377496299435" lon="15.379536012590654"><ele>108.0</ele><time>2026-04-05T14:31:10Z</time></trkpt><trkpt lat="38.16842263457844" lon="15.379466625026723"><ele>108.0</ele><time>2026-04-05T14:33:30Z</time></trkpt><trkpt lat="38.16845226820471" lon="15.379392561691047"><ele>108.0</ele><time>2026-04-05T14:33:33Z</time></trkpt><trkpt lat="38.168444837831835" lon="15.37931302126259"><ele>108.0</ele><time>2026-04-05T14:33:37Z</time></trkpt><trkpt lat="38.16848479509095" lon="15.379229203155356"><ele>108.0</ele><time>2026-04-05T14:33:40Z</time></trkpt><trkpt lat="38.16852871393686" lon="15.379165811032596"><ele>108.0</ele><time>2026-04-05T14:33:42Z</time></trkpt><trkpt lat="38.168580311743646" lon="15.379110898642166"><ele>108.0</ele><time>2026-04-05T14:33:49Z</time></trkpt><trkpt lat="38.168643614787946" lon="15.379147235885354"><ele>108.0</ele><time>2026-04-05T14:33:55Z</time></trkpt><trkpt lat="38.16871812768762" lon="15.379156572464659"><ele>108.0</ele><time>2026-04-05T14:34:07Z</time></trkpt><trkpt lat="38.16864536104969" lon="15.379147596774885"><ele>108.0</ele><time>2026-04-05T14:34:45.999Z</time></trkpt><trkpt lat="38.16857025640425" lon="15.37912885305383"><ele>108.0</ele><time>2026-04-05T14:34:48.999Z</time></trkpt><trkpt lat="38.1685053563727" lon="15.379200338179722"><ele>108.0</ele><time>2026-04-05T14:34:51.999Z</time></trkpt><trkpt lat="38.168453742886825" lon="15.379297812477828"><ele>108.0</ele><time>2026-04-05T14:34:54.999Z</time></trkpt><trkpt lat="38.16841455017699" lon="15.379371149920663"><ele>108.0</ele><time>2026-04-05T14:34:57.999Z</time></trkpt><trkpt lat="38.16838540450609" lon="15.379448670652689"><ele>108.0</ele><time>2026-04-05T14:35:00.999Z</time></trkpt><trkpt lat="38.16835980732344" lon="15.379540241054174"><ele>108.0</ele><time>2026-04-05T14:35:03.999Z</time></trkpt><trkpt lat="38.1683252293116" lon="15.37960872300997"><ele>108.0</ele><time>2026-04-05T14:35:06Z</time></trkpt><trkpt lat="38.168289408639" lon="15.37970030803916"><ele>108.0</ele><time>2026-04-05T14:35:08Z</time></trkpt><trkpt lat="38.168250893302094" lon="15.379821464167714"><ele>108.0</ele><time>2026-04-05T14:35:10Z</time></trkpt><trkpt lat="38.16818967542165" lon="15.379951116667616"><ele>108.0</ele><time>2026-04-05T14:35:12Z</time></trkpt><trkpt lat="38.168150240637324" lon="15.380041576934993"><ele>108.0</ele><time>2026-04-05T14:35:14Z</time></trkpt><trkpt lat="38.168110924355226" lon="15.380112003903628"><ele>107.25</ele><time>2026-04-05T14:35:17Z</time></trkpt><trkpt lat="38.168357587535496" lon="15.380244536717584"><ele>106.5</ele><time>2026-04-05T14:35:53Z</time></trkpt><trkpt lat="38.16842717180596" lon="15.380292083211428"><ele>105.75</ele><time>2026-04-05T14:35:57Z</time></trkpt><trkpt lat="38.168483174858615" lon="15.380372818704735"><ele>105.0</ele><time>2026-04-05T14:36:01Z</time></trkpt><trkpt lat="38.16856069978731" lon="15.380373169292227"><ele>105.0</ele><time>2026-04-05T14:36:06Z</time></trkpt><trkpt lat="38.16861496525243" lon="15.380274926198272"><ele>105.0</ele><time>2026-04-05T14:36:08Z</time></trkpt><trkpt lat="38.16866028386088" lon="15.380179696656846"><ele>105.0</ele><time>2026-04-05T14:36:10Z</time></trkpt><trkpt lat="38.16870227420842" lon="15.380078557316521"><ele>105.0</ele><time>2026-04-05T14:36:12Z</time></trkpt><trkpt lat="38.16876816242537" lon="15.37996686190607"><ele>105.0</ele><time>2026-04-05T14:36:14Z</time></trkpt><trkpt lat="38.16884326124193" lon="15.37984210806449"><ele>105.0</ele><time>2026-04-05T14:36:16Z</time></trkpt><trkpt lat="38.16890339628811" lon="15.379730699507547"><ele>105.0</ele><time>2026-04-05T14:36:18Z</time></trkpt><trkpt lat="38.16895406317635" lon="15.37958639439454"><ele>105.0</ele><time>2026-04-05T14:36:20Z</time></trkpt><trkpt lat="38.169011445806305" lon="15.37946108276579"><ele>105.0</ele><time>2026-04-05T14:36:22Z</time></trkpt><trkpt lat="38.169069046107985" lon="15.379347755071619"><ele>104.2</ele><time>2026-04-05T14:36:24Z</time></trkpt><trkpt lat="38.169112188826524" lon="15.379245510567765"><ele>103.4</ele><time>2026-04-05T14:36:26Z</time></trkpt><trkpt lat="38.169148773222204" lon="15.379148166772051"><ele>102.6</ele><time>2026-04-05T14:36:28Z</time></trkpt><trkpt lat="38.16919095115873" lon="15.379042164835097"><ele>101.8</ele><time>2026-04-05T14:36:30Z</time></trkpt><trkpt lat="38.16923079977892" lon="15.378941277753192"><ele>101.0</ele><time>2026-04-05T14:36:32Z</time></trkpt><trkpt lat="38.16927523969273" lon="15.378828663773392"><ele>100.66666666666666</ele><time>2026-04-05T14:36:34Z</time></trkpt><trkpt lat="38.169353876734405" lon="15.378731075106998"><ele>100.33333333333333</ele><time>2026-04-05T14:36:36Z</time></trkpt><trkpt lat="38.16938352839439" lon="15.378656627104046"><ele>100.0</ele><time>2026-04-05T14:36:37Z</time></trkpt><trkpt lat="38.169427365460834" lon="15.378593238453503"><ele>99.66666666666666</ele><time>2026-04-05T14:36:38Z</time></trkpt><trkpt lat="38.169507289577865" lon="15.378470194212579"><ele>99.33333333333333</ele><time>2026-04-05T14:36:40Z</time></trkpt><trkpt lat="38.169550401102796" lon="15.378406019316722"><ele>99.0</ele><time>2026-04-05T14:36:41Z</time></trkpt><trkpt lat="38.16964350787037" lon="15.378287607605834"><ele>99.0</ele><time>2026-04-05T14:36:43Z</time></trkpt><trkpt lat="38.1696916439582" lon="15.378227875214876"><ele>99.0</ele><time>2026-04-05T14:36:44Z</time></trkpt><trkpt lat="38.169735848863894" lon="15.378170185007612"><ele>99.0</ele><time>2026-04-05T14:36:45Z</time></trkpt><trkpt lat="38.16977820474674" lon="15.378106984345294"><ele>99.0</ele><time>2026-04-05T14:36:46Z</time></trkpt><trkpt lat="38.16984892748125" lon="15.377974470593696"><ele>99.0</ele><time>2026-04-05T14:36:48Z</time></trkpt><trkpt lat="38.16990472607433" lon="15.377836609383857"><ele>99.0</ele><time>2026-04-05T14:36:50Z</time></trkpt><trkpt lat="38.16993279626403" lon="15.377762270482576"><ele>99.0</ele><time>2026-04-05T14:36:51Z</time></trkpt><trkpt lat="38.1699560055948" lon="15.377682689673133"><ele>99.0</ele><time>2026-04-05T14:36:52Z</time></trkpt><trkpt lat="38.16999579203706" lon="15.377544349311297"><ele>99.0</ele><time>2026-04-05T14:36:54Z</time></trkpt><trkpt lat="38.17004199478583" lon="15.377429253478653"><ele>99.0</ele><time>2026-04-05T14:36:56Z</time></trkpt><trkpt lat="38.17008808096175" lon="15.377300252288405"><ele>99.0</ele><time>2026-04-05T14:36:58Z</time></trkpt><trkpt lat="38.170146729628264" lon="15.377176307776232"><ele>98.4</ele><time>2026-04-05T14:37:00Z</time></trkpt><trkpt lat="38.17021141410506" lon="15.37704051861729"><ele>97.80000000000001</ele><time>2026-04-05T14:37:02Z</time></trkpt><trkpt lat="38.17024420300506" lon="15.376970675560711"><ele>97.19999999999999</ele><time>2026-04-05T14:37:03Z</time></trkpt><trkpt lat="38.170302067448894" lon="15.3768381005996"><ele>96.6</ele><time>2026-04-05T14:37:05Z</time></trkpt><trkpt lat="38.17035668146952" lon="15.376704604316147"><ele>96.0</ele><time>2026-04-05T14:37:07Z</time></trkpt><trkpt lat="38.17039579031286" lon="15.37655367074036"><ele>96.0</ele><time>2026-04-05T14:37:09Z</time></trkpt><trkpt lat="38.17041819521441" lon="15.376474916014702"><ele>96.0</ele><time>2026-04-05T14:37:10Z</time></trkpt><trkpt lat="38.170459411286956" lon="15.376334828293238"><ele>96.0</ele><time>2026-04-05T14:37:12Z</time></trkpt><trkpt lat="38.170478539558" lon="15.376207641729529"><ele>96.0</ele><time>2026-04-05T14:37:14Z</time></trkpt><trkpt lat="38.1704858226945" lon="15.37606689924481"><ele>96.0</ele><time>2026-04-05T14:37:16Z</time></trkpt><trkpt lat="38.170488356106794" lon="15.37598222440021"><ele>95.99999999999999</ele><time>2026-04-05T14:37:17Z</time></trkpt><trkpt lat="38.17049094037198" lon="15.375900285632344"><ele>96.0</ele><time>2026-04-05T14:37:18Z</time></trkpt><trkpt lat="38.17048864546326" lon="15.37581565707122"><ele>96.0</ele><time>2026-04-05T14:37:19Z</time></trkpt><trkpt lat="38.17049118516865" lon="15.375733110652718"><ele>96.0</ele><time>2026-04-05T14:37:20Z</time></trkpt><trkpt lat="38.170502992454324" lon="15.375651338699251"><ele>96.0</ele><time>2026-04-05T14:37:21Z</time></trkpt><trkpt lat="38.17051575979676" lon="15.375567241304337"><ele>95.99999999999999</ele><time>2026-04-05T14:37:22Z</time></trkpt><trkpt lat="38.17053195534963" lon="15.375484715261619"><ele>96.0</ele><time>2026-04-05T14:37:23Z</time></trkpt><trkpt lat="38.170551781088996" lon="15.375399628549665"><ele>95.99999999999999</ele><time>2026-04-05T14:37:24Z</time></trkpt><trkpt lat="38.170575219768665" lon="15.37531852634951"><ele>96.0</ele><time>2026-04-05T14:37:25Z</time></trkpt><trkpt lat="38.17059948610157" lon="15.375238065052903"><ele>96.0</ele><time>2026-04-05T14:37:26Z</time></trkpt><trkpt lat="38.170624937506346" lon="15.375157119475967"><ele>96.0</ele><time>2026-04-05T14:37:27Z</time></trkpt><trkpt lat="38.17065538442371" lon="15.375076401572905"><ele>96.0</ele><time>2026-04-05T14:37:28Z</time></trkpt><trkpt lat="38.17068877788538" lon="15.374988580519283"><ele>95.99999999999999</ele><time>2026-04-05T14:37:29Z</time></trkpt><trkpt lat="38.17072312079214" lon="15.374902752732988"><ele>96.0</ele><time>2026-04-05T14:37:30Z</time></trkpt><trkpt lat="38.170756192016846" lon="15.37482391827009"><ele>96.0</ele><time>2026-04-05T14:37:31Z</time></trkpt><trkpt lat="38.17076928491104" lon="15.374737211960383"><ele>96.0</ele><time>2026-04-05T14:37:32Z</time></trkpt><trkpt lat="38.17079667824106" lon="15.374659619993173"><ele>96.0</ele><time>2026-04-05T14:37:33Z</time></trkpt><trkpt lat="38.170824583998886" lon="15.374580576581346"><ele>96.0</ele><time>2026-04-05T14:37:34Z</time></trkpt><trkpt lat="38.17085156055143" lon="15.374504288800651"><ele>96.0</ele><time>2026-04-05T14:37:35Z</time></trkpt><trkpt lat="38.170908923474876" lon="15.37436869920267"><ele>96.0</ele><time>2026-04-05T14:37:37Z</time></trkpt><trkpt lat="38.17093565944349" lon="15.374292756817342"><ele>95.57142857142857</ele><time>2026-04-05T14:37:38Z</time></trkpt><trkpt lat="38.1709654785095" lon="15.374210614678368"><ele>95.14285714285714</ele><time>2026-04-05T14:37:39Z</time></trkpt><trkpt lat="38.170997087138964" lon="15.374123711200241"><ele>94.71428571428572</ele><time>2026-04-05T14:37:40Z</time></trkpt><trkpt lat="38.17102700606702" lon="15.374039957476938"><ele>94.28571428571428</ele><time>2026-04-05T14:37:41Z</time></trkpt><trkpt lat="38.171056092285575" lon="15.373952160150834"><ele>93.85714285714286</ele><time>2026-04-05T14:37:42Z</time></trkpt><trkpt lat="38.171076806615496" lon="15.373858387296556"><ele>93.42857142857143</ele><time>2026-04-05T14:37:43Z</time></trkpt><trkpt lat="38.17109558450381" lon="15.373767028547372"><ele>93.0</ele><time>2026-04-05T14:37:44Z</time></trkpt><trkpt lat="38.17111489175292" lon="15.373674923141595"><ele>92.83333333333333</ele><time>2026-04-05T14:37:45Z</time></trkpt><trkpt lat="38.171133497824016" lon="15.373588070448513"><ele>92.66666666666667</ele><time>2026-04-05T14:37:46Z</time></trkpt><trkpt lat="38.17115904081658" lon="15.373495668460428"><ele>92.5</ele><time>2026-04-05T14:37:47Z</time></trkpt><trkpt lat="38.171188041608154" lon="15.373405333721486"><ele>92.33333333333334</ele><time>2026-04-05T14:37:48Z</time></trkpt><trkpt lat="38.17122414558307" lon="15.373313272458452"><ele>92.16666666666667</ele><time>2026-04-05T14:37:49Z</time></trkpt><trkpt lat="38.171265804063616" lon="15.373221288077097"><ele>92.0</ele><time>2026-04-05T14:37:50Z</time></trkpt><trkpt lat="38.17130857450312" lon="15.373127864379084"><ele>92.0</ele><time>2026-04-05T14:37:51Z</time></trkpt><trkpt lat="38.17134883314334" lon="15.373034893305467"><ele>92.0</ele><time>2026-04-05T14:37:52Z</time></trkpt><trkpt lat="38.17138509823475" lon="15.37293700694192"><ele>92.0</ele><time>2026-04-05T14:37:53Z</time></trkpt><trkpt lat="38.17141778614393" lon="15.372835816298977"><ele>92.0</ele><time>2026-04-05T14:37:54Z</time></trkpt><trkpt lat="38.17144658819979" lon="15.37273399760669"><ele>92.0</ele><time>2026-04-05T14:37:55Z</time></trkpt><trkpt lat="38.17147213136235" lon="15.372643143175704"><ele>92.0</ele><time>2026-04-05T14:37:56Z</time></trkpt><trkpt lat="38.171502543261894" lon="15.372559129649586"><ele>91.5</ele><time>2026-04-05T14:37:57Z</time></trkpt><trkpt lat="38.17153611354692" lon="15.372476108564241"><ele>91.0</ele><time>2026-04-05T14:37:58Z</time></trkpt><trkpt lat="38.17157208664989" lon="15.372385676711067"><ele>90.5</ele><time>2026-04-05T14:37:59Z</time></trkpt><trkpt lat="38.17160501887374" lon="15.372296812314206"><ele>90.0</ele><time>2026-04-05T14:38:00Z</time></trkpt><trkpt lat="38.17163428953424" lon="15.372200306455039"><ele>89.5</ele><time>2026-04-05T14:38:01Z</time></trkpt><trkpt lat="38.17166538315831" lon="15.372099492412993"><ele>89.0</ele><time>2026-04-05T14:38:02Z</time></trkpt><trkpt lat="38.171690070800246" lon="15.37201119948785"><ele>88.0</ele><time>2026-04-05T14:38:03Z</time></trkpt><trkpt lat="38.17172372747288" lon="15.371874866431755"><ele>87.0</ele><time>2026-04-05T14:38:05Z</time></trkpt><trkpt lat="38.17174176908501" lon="15.37173727914537"><ele>86.0</ele><time>2026-04-05T14:38:07Z</time></trkpt><trkpt lat="38.17179118854435" lon="15.37158511787573"><ele>85.0</ele><time>2026-04-05T14:38:09Z</time></trkpt><trkpt lat="38.171845518942916" lon="15.371437840159615"><ele>85.0</ele><time>2026-04-05T14:38:11Z</time></trkpt><trkpt lat="38.171881721132486" lon="15.371359973693535"><ele>85.0</ele><time>2026-04-05T14:38:12Z</time></trkpt><trkpt lat="38.17191903581931" lon="15.371281590180486"><ele>85.0</ele><time>2026-04-05T14:38:13Z</time></trkpt><trkpt lat="38.17195795765293" lon="15.371197528693196"><ele>85.0</ele><time>2026-04-05T14:38:14Z</time></trkpt><trkpt lat="38.17199661658418" lon="15.371118418624157"><ele>85.0</ele><time>2026-04-05T14:38:15Z</time></trkpt><trkpt lat="38.17203449223069" lon="15.371031678711926"><ele>85.0</ele><time>2026-04-05T14:38:16Z</time></trkpt><trkpt lat="38.17206735465888" lon="15.370946781589208"><ele>85.0</ele><time>2026-04-05T14:38:17Z</time></trkpt><trkpt lat="38.172102063394355" lon="15.370855206517778"><ele>85.0</ele><time>2026-04-05T14:38:18Z</time></trkpt><trkpt lat="38.172137203562805" lon="15.370760541901047"><ele>85.0</ele><time>2026-04-05T14:38:19Z</time></trkpt><trkpt lat="38.172170068386514" lon="15.37066243422264"><ele>85.0</ele><time>2026-04-05T14:38:20Z</time></trkpt><trkpt lat="38.17219976844145" lon="15.370560255327028"><ele>85.0</ele><time>2026-04-05T14:38:21Z</time></trkpt><trkpt lat="38.17222953140324" lon="15.370456496997788"><ele>85.0</ele><time>2026-04-05T14:38:22Z</time></trkpt><trkpt lat="38.17225768448362" lon="15.370352998467542"><ele>85.0</ele><time>2026-04-05T14:38:23Z</time></trkpt><trkpt lat="38.17229155835997" lon="15.37025058202501"><ele>85.0</ele><time>2026-04-05T14:38:24Z</time></trkpt><trkpt lat="38.17232575430248" lon="15.37015478939363"><ele>85.0</ele><time>2026-04-05T14:38:25Z</time></trkpt><trkpt lat="38.17236547602222" lon="15.370064959867378"><ele>85.0</ele><time>2026-04-05T14:38:26Z</time></trkpt><trkpt lat="38.172405575413265" lon="15.369974250512195"><ele>85.0</ele><time>2026-04-05T14:38:27Z</time></trkpt><trkpt lat="38.17244668701539" lon="15.369883832821614"><ele>85.0</ele><time>2026-04-05T14:38:28Z</time></trkpt><trkpt lat="38.172480340045624" lon="15.369799178489693"><ele>85.0</ele><time>2026-04-05T14:38:29Z</time></trkpt><trkpt lat="38.17251586992094" lon="15.369714772419824"><ele>85.0</ele><time>2026-04-05T14:38:30Z</time></trkpt><trkpt lat="38.17254458301717" lon="15.36962912122939"><ele>85.0</ele><time>2026-04-05T14:38:31Z</time></trkpt><trkpt lat="38.172567235546936" lon="15.369541389015795"><ele>85.0</ele><time>2026-04-05T14:38:32Z</time></trkpt><trkpt lat="38.17258805792215" lon="15.369450619524972"><ele>85.0</ele><time>2026-04-05T14:38:33Z</time></trkpt><trkpt lat="38.17259205735614" lon="15.36935556929986"><ele>85.0</ele><time>2026-04-05T14:38:34Z</time></trkpt><trkpt lat="38.17263641005415" lon="15.3692786105956"><ele>85.0</ele><time>2026-04-05T14:38:35Z</time></trkpt><trkpt lat="38.1726628640518" lon="15.369189350657669"><ele>85.0</ele><time>2026-04-05T14:38:36Z</time></trkpt><trkpt lat="38.172696022271715" lon="15.369098055694089"><ele>85.0</ele><time>2026-04-05T14:38:37Z</time></trkpt><trkpt lat="38.17272107866197" lon="15.369008454229283"><ele>85.0</ele><time>2026-04-05T14:38:38Z</time></trkpt><trkpt lat="38.1727463593771" lon="15.368933842344157"><ele>85.0</ele><time>2026-04-05T14:38:39Z</time></trkpt><trkpt lat="38.17275501281631" lon="15.368806405710393"><ele>85.0</ele><time>2026-04-05T14:38:41Z</time></trkpt><trkpt lat="38.172786303614885" lon="15.368676452732991"><ele>85.0</ele><time>2026-04-05T14:38:43Z</time></trkpt><trkpt lat="38.17282207273852" lon="15.368542371917881"><ele>84.6</ele><time>2026-04-05T14:38:45Z</time></trkpt><trkpt lat="38.17288195384945" lon="15.368427249898756"><ele>84.2</ele><time>2026-04-05T14:38:47Z</time></trkpt><trkpt lat="38.1729267309435" lon="15.36835980097566"><ele>83.80000000000001</ele><time>2026-04-05T14:38:48Z</time></trkpt><trkpt lat="38.172966118367455" lon="15.368290967543453"><ele>83.4</ele><time>2026-04-05T14:38:49Z</time></trkpt><trkpt lat="38.172994324533924" lon="15.368146766619246"><ele>83.0</ele><time>2026-04-05T14:38:51Z</time></trkpt><trkpt lat="38.17300940641609" lon="15.367988613851926"><ele>82.83333333333334</ele><time>2026-04-05T14:38:53Z</time></trkpt><trkpt lat="38.173009187186956" lon="15.367903305715172"><ele>82.66666666666667</ele><time>2026-04-05T14:38:54Z</time></trkpt><trkpt lat="38.17300750653763" lon="15.367805882039539"><ele>82.5</ele><time>2026-04-05T14:38:55Z</time></trkpt><trkpt lat="38.17300795421132" lon="15.367704565373128"><ele>82.33333333333333</ele><time>2026-04-05T14:38:56Z</time></trkpt><trkpt lat="38.17301441961021" lon="15.367617888589832"><ele>82.16666666666666</ele><time>2026-04-05T14:38:57Z</time></trkpt><trkpt lat="38.173044296338794" lon="15.367478148421043"><ele>82.0</ele><time>2026-04-05T14:38:59Z</time></trkpt><trkpt lat="38.17304972580853" lon="15.367381550649586"><ele>82.0</ele><time>2026-04-05T14:39:01Z</time></trkpt><trkpt lat="38.17305434017278" lon="15.367265530437482"><ele>82.0</ele><time>2026-04-05T14:40:57Z</time></trkpt><trkpt lat="38.17306661768778" lon="15.367176237753691"><ele>82.0</ele><time>2026-04-05T14:40:59Z</time></trkpt><trkpt lat="38.17307551652058" lon="15.367070603797274"><ele>82.0</ele><time>2026-04-05T14:41:01Z</time></trkpt><trkpt lat="38.1730861534961" lon="15.366975566869662"><ele>82.0</ele><time>2026-04-05T14:41:03Z</time></trkpt><trkpt lat="38.173103706856125" lon="15.366867210679683"><ele>82.0</ele><time>2026-04-05T14:41:05Z</time></trkpt><trkpt lat="38.17312453183166" lon="15.366750655237047"><ele>82.0</ele><time>2026-04-05T14:41:07Z</time></trkpt><trkpt lat="38.17319209233973" lon="15.366655398171812"><ele>82.0</ele><time>2026-04-05T14:41:09Z</time></trkpt><trkpt lat="38.17325714449852" lon="15.366562478786069"><ele>82.0</ele><time>2026-04-05T14:41:11Z</time></trkpt><trkpt lat="38.17332858326823" lon="15.366429627988772"><ele>82.0</ele><time>2026-04-05T14:41:13Z</time></trkpt><trkpt lat="38.173382162580914" lon="15.36631472676383"><ele>82.0</ele><time>2026-04-05T14:41:15Z</time></trkpt><trkpt lat="38.173431279805065" lon="15.366223053144044"><ele>81.33333333333333</ele><time>2026-04-05T14:41:17Z</time></trkpt><trkpt lat="38.173481062206655" lon="15.36612982711431"><ele>80.66666666666666</ele><time>2026-04-05T14:41:19Z</time></trkpt><trkpt lat="38.1735226161262" lon="15.366011535449063"><ele>80.0</ele><time>2026-04-05T14:41:21Z</time></trkpt><trkpt lat="38.17355630960062" lon="15.365941807793115"><ele>79.33333333333333</ele><time>2026-04-05T14:41:22Z</time></trkpt><trkpt lat="38.173596304825494" lon="15.365866435642312"><ele>78.66666666666667</ele><time>2026-04-05T14:41:23Z</time></trkpt><trkpt lat="38.173632766732155" lon="15.365793408381558"><ele>78.0</ele><time>2026-04-05T14:41:24Z</time></trkpt><trkpt lat="38.17367153271651" lon="15.365707997400271"><ele>78.0</ele><time>2026-04-05T14:41:25Z</time></trkpt><trkpt lat="38.1737090374871" lon="15.365632409380924"><ele>78.0</ele><time>2026-04-05T14:41:26Z</time></trkpt><trkpt lat="38.17375424774092" lon="15.365558901786804"><ele>78.0</ele><time>2026-04-05T14:41:27Z</time></trkpt><trkpt lat="38.173800387572214" lon="15.365491541445769"><ele>78.0</ele><time>2026-04-05T14:41:28Z</time></trkpt><trkpt lat="38.173872842588686" lon="15.365379332214177"><ele>78.0</ele><time>2026-04-05T14:41:30Z</time></trkpt><trkpt lat="38.173924215564554" lon="15.365276624980666"><ele>78.0</ele><time>2026-04-05T14:41:32Z</time></trkpt><trkpt lat="38.17396336195174" lon="15.365154316483462"><ele>78.0</ele><time>2026-04-05T14:41:34Z</time></trkpt><trkpt lat="38.17400519969698" lon="15.365014730991694"><ele>78.0</ele><time>2026-04-05T14:41:36Z</time></trkpt><trkpt lat="38.174067228336156" lon="15.364877922311793"><ele>78.0</ele><time>2026-04-05T14:41:38Z</time></trkpt><trkpt lat="38.17414218541917" lon="15.364756797779375"><ele>78.0</ele><time>2026-04-05T14:41:40Z</time></trkpt><trkpt lat="38.17422292584418" lon="15.364654841362926"><ele>77.83333333333333</ele><time>2026-04-05T14:41:42Z</time></trkpt><trkpt lat="38.174279059929134" lon="15.364533539237554"><ele>77.66666666666667</ele><time>2026-04-05T14:41:44Z</time></trkpt><trkpt lat="38.174340907326936" lon="15.364413499097404"><ele>77.5</ele><time>2026-04-05T14:41:46Z</time></trkpt><trkpt lat="38.174388223087256" lon="15.36436058356767"><ele>77.33333333333334</ele><time>2026-04-05T14:41:47Z</time></trkpt><trkpt lat="38.1744381425882" lon="15.364298730208311"><ele>77.16666666666667</ele><time>2026-04-05T14:41:48Z</time></trkpt><trkpt lat="38.174488258762175" lon="15.364228985378109"><ele>77.0</ele><time>2026-04-05T14:41:49Z</time></trkpt><trkpt lat="38.17453476771332" lon="15.364160348805173"><ele>77.0</ele><time>2026-04-05T14:41:50Z</time></trkpt><trkpt lat="38.17458425503547" lon="15.364095063271055"><ele>77.0</ele><time>2026-04-05T14:41:51Z</time></trkpt><trkpt lat="38.17463562251168" lon="15.364036954659168"><ele>77.0</ele><time>2026-04-05T14:41:52Z</time></trkpt><trkpt lat="38.174699451980715" lon="15.363945484076002"><ele>77.0</ele><time>2026-04-05T14:41:54Z</time></trkpt><trkpt lat="38.17474505102712" lon="15.363872483215147"><ele>77.0</ele><time>2026-04-05T14:41:57Z</time></trkpt><trkpt lat="38.17476484640565" lon="15.363788610195888"><ele>77.0</ele><time>2026-04-05T14:42:00Z</time></trkpt><trkpt lat="38.17481960112029" lon="15.363712644462522"><ele>77.0</ele><time>2026-04-05T14:42:04Z</time></trkpt><trkpt lat="38.174864907132886" lon="15.363636987284305"><ele>77.0</ele><time>2026-04-05T14:42:07Z</time></trkpt><trkpt lat="38.17490363205597" lon="15.36357231989592"><ele>77.0</ele><time>2026-04-05T14:42:09Z</time></trkpt><trkpt lat="38.17494866611407" lon="15.363472175191223"><ele>77.0</ele><time>2026-04-05T14:42:11Z</time></trkpt><trkpt lat="38.1750195675333" lon="15.363392091945315"><ele>77.0</ele><time>2026-04-05T14:42:13Z</time></trkpt><trkpt lat="38.17507750706009" lon="15.36331754166533"><ele>77.0</ele><time>2026-04-05T14:42:15Z</time></trkpt><trkpt lat="38.175135615567264" lon="15.363236469713591"><ele>77.0</ele><time>2026-04-05T14:42:17Z</time></trkpt><trkpt lat="38.175200213380826" lon="15.36316123244492"><ele>77.0</ele><time>2026-04-05T14:42:19Z</time></trkpt><trkpt lat="38.17528124461958" lon="15.363068567896546"><ele>77.0</ele><time>2026-04-05T14:42:21Z</time></trkpt><trkpt lat="38.17536488805684" lon="15.362958208023313"><ele>77.0</ele><time>2026-04-05T14:42:23Z</time></trkpt><trkpt lat="38.17541133611979" lon="15.362892580575032"><ele>77.0</ele><time>2026-04-05T14:42:24Z</time></trkpt><trkpt lat="38.17545267280278" lon="15.362827105521081"><ele>77.85714285714286</ele><time>2026-04-05T14:42:25Z</time></trkpt><trkpt lat="38.17549141179369" lon="15.36276305416711"><ele>78.71428571428572</ele><time>2026-04-05T14:42:26Z</time></trkpt><trkpt lat="38.17553777723638" lon="15.362704661894828"><ele>79.57142857142857</ele><time>2026-04-05T14:42:27Z</time></trkpt><trkpt lat="38.17558597272133" lon="15.362651457553717"><ele>80.42857142857143</ele><time>2026-04-05T14:42:28Z</time></trkpt><trkpt lat="38.17563090833108" lon="15.36259535761541"><ele>81.28571428571429</ele><time>2026-04-05T14:42:29Z</time></trkpt><trkpt lat="38.17570204541066" lon="15.36249292414516"><ele>82.14285714285714</ele><time>2026-04-05T14:42:31Z</time></trkpt><trkpt lat="38.175747585144705" lon="15.362424701912602"><ele>83.0</ele><time>2026-04-05T14:42:32Z</time></trkpt><trkpt lat="38.17578932768962" lon="15.362361902863137"><ele>82.33333333333334</ele><time>2026-04-05T14:42:33Z</time></trkpt><trkpt lat="38.17586487175027" lon="15.362241883343351"><ele>81.66666666666667</ele><time>2026-04-05T14:42:35Z</time></trkpt><trkpt lat="38.1759432653125" lon="15.362124738606598"><ele>81.0</ele><time>2026-04-05T14:42:37Z</time></trkpt><trkpt lat="38.17599488227013" lon="15.362074338128432"><ele>80.33333333333333</ele><time>2026-04-05T14:42:38Z</time></trkpt><trkpt lat="38.176052998349455" lon="15.362031163246433"><ele>79.66666666666666</ele><time>2026-04-05T14:42:39Z</time></trkpt><trkpt lat="38.176114660456015" lon="15.361984046985377"><ele>79.0</ele><time>2026-04-05T14:42:40Z</time></trkpt><trkpt lat="38.176169991604155" lon="15.36193071941993"><ele>79.00000000000001</ele><time>2026-04-05T14:42:41Z</time></trkpt><trkpt lat="38.176224337849284" lon="15.361881289940628"><ele>79.0</ele><time>2026-04-05T14:42:42Z</time></trkpt><trkpt lat="38.17627791462705" lon="15.361837720758713"><ele>79.0</ele><time>2026-04-05T14:42:43Z</time></trkpt><trkpt lat="38.17633746765437" lon="15.361798380220856"><ele>79.0</ele><time>2026-04-05T14:42:44Z</time></trkpt><trkpt lat="38.17640138779437" lon="15.361761246543852"><ele>79.0</ele><time>2026-04-05T14:42:45Z</time></trkpt><trkpt lat="38.17646963520963" lon="15.361717432110773"><ele>79.00000000000001</ele><time>2026-04-05T14:42:46Z</time></trkpt><trkpt lat="38.176531291676504" lon="15.36167520955419"><ele>79.0</ele><time>2026-04-05T14:42:47Z</time></trkpt><trkpt lat="38.176598238955" lon="15.361628021094992"><ele>77.66666666666666</ele><time>2026-04-05T14:42:48Z</time></trkpt><trkpt lat="38.17665459922167" lon="15.361576067423606"><ele>76.33333333333333</ele><time>2026-04-05T14:42:49Z</time></trkpt><trkpt lat="38.17670898900109" lon="15.361519087251752"><ele>75.0</ele><time>2026-04-05T14:42:50Z</time></trkpt><trkpt lat="38.17678149890261" lon="15.361486236766646"><ele>73.66666666666667</ele><time>2026-04-05T14:42:51Z</time></trkpt><trkpt lat="38.17684473900724" lon="15.361434032780162"><ele>72.33333333333334</ele><time>2026-04-05T14:42:52Z</time></trkpt><trkpt lat="38.17691457492168" lon="15.36137615228131"><ele>71.0</ele><time>2026-04-05T14:42:53Z</time></trkpt><trkpt lat="38.17698024657998" lon="15.361316840256423"><ele>71.0</ele><time>2026-04-05T14:42:54Z</time></trkpt><trkpt lat="38.177044112114565" lon="15.361256549095375"><ele>71.0</ele><time>2026-04-05T14:42:55Z</time></trkpt><trkpt lat="38.1771020111531" lon="15.361184449743464"><ele>71.0</ele><time>2026-04-05T14:42:56Z</time></trkpt><trkpt lat="38.177171163846275" lon="15.361135914750708"><ele>71.0</ele><time>2026-04-05T14:42:57Z</time></trkpt><trkpt lat="38.17723814883099" lon="15.361087561197987"><ele>71.0</ele><time>2026-04-05T14:42:58Z</time></trkpt><trkpt lat="38.17729248649736" lon="15.36104182549189"><ele>71.0</ele><time>2026-04-05T14:42:59Z</time></trkpt><trkpt lat="38.17734772610791" lon="15.360981819927977"><ele>70.71428571428571</ele><time>2026-04-05T14:43:00Z</time></trkpt><trkpt lat="38.17739865409159" lon="15.360918474428695"><ele>70.42857142857142</ele><time>2026-04-05T14:43:01Z</time></trkpt><trkpt lat="38.17744732422028" lon="15.360854526193096"><ele>70.14285714285714</ele><time>2026-04-05T14:43:02Z</time></trkpt><trkpt lat="38.177499128926605" lon="15.360802130745281"><ele>69.85714285714286</ele><time>2026-04-05T14:43:03Z</time></trkpt><trkpt lat="38.17755877698086" lon="15.360742236738494"><ele>69.57142857142858</ele><time>2026-04-05T14:43:04Z</time></trkpt><trkpt lat="38.17761908464604" lon="15.360680303368243"><ele>69.28571428571429</ele><time>2026-04-05T14:43:05Z</time></trkpt><trkpt lat="38.17768051938829" lon="15.360616356714608"><ele>69.0</ele><time>2026-04-05T14:43:06Z</time></trkpt><trkpt lat="38.177749406056414" lon="15.360546757795163"><ele>68.8</ele><time>2026-04-05T14:43:07Z</time></trkpt><trkpt lat="38.17782715768203" lon="15.36047397721078"><ele>68.60000000000001</ele><time>2026-04-05T14:43:08Z</time></trkpt><trkpt lat="38.17790641906481" lon="15.36039411943092"><ele>68.4</ele><time>2026-04-05T14:43:09Z</time></trkpt><trkpt lat="38.1779754279249" lon="15.360325001191615"><ele>68.2</ele><time>2026-04-05T14:43:10Z</time></trkpt><trkpt lat="38.17804477407715" lon="15.360260481191846"><ele>68.0</ele><time>2026-04-05T14:43:11Z</time></trkpt><trkpt lat="38.178119261081804" lon="15.360192008488863"><ele>67.8</ele><time>2026-04-05T14:43:12Z</time></trkpt><trkpt lat="38.17819473476802" lon="15.360120402814507"><ele>67.6</ele><time>2026-04-05T14:43:13Z</time></trkpt><trkpt lat="38.17824207504736" lon="15.360058982422204"><ele>67.4</ele><time>2026-04-05T14:43:14Z</time></trkpt><trkpt lat="38.178328448870474" lon="15.359998593200503"><ele>67.2</ele><time>2026-04-05T14:43:15Z</time></trkpt><trkpt lat="38.1783820444249" lon="15.359917889419863"><ele>67.0</ele><time>2026-04-05T14:43:16Z</time></trkpt><trkpt lat="38.17846917270765" lon="15.359822388898808"><ele>67.0</ele><time>2026-04-05T14:43:17Z</time></trkpt><trkpt lat="38.17853706024148" lon="15.359745295046867"><ele>67.0</ele><time>2026-04-05T14:43:18Z</time></trkpt><trkpt lat="38.178608561272995" lon="15.359664887604469"><ele>67.0</ele><time>2026-04-05T14:43:19Z</time></trkpt><trkpt lat="38.178683039822005" lon="15.359587628035767"><ele>67.0</ele><time>2026-04-05T14:43:20Z</time></trkpt><trkpt lat="38.17875260512469" lon="15.359514982184866"><ele>67.0</ele><time>2026-04-05T14:43:21Z</time></trkpt><trkpt lat="38.17881520994568" lon="15.359448752290035"><ele>66.8</ele><time>2026-04-05T14:43:22Z</time></trkpt><trkpt lat="38.17888060665548" lon="15.359372319529925"><ele>66.6</ele><time>2026-04-05T14:43:23Z</time></trkpt><trkpt lat="38.17894963706717" lon="15.359291619412577"><ele>66.39999999999999</ele><time>2026-04-05T14:43:24Z</time></trkpt><trkpt lat="38.179019722659" lon="15.359211430822686"><ele>66.2</ele><time>2026-04-05T14:43:25Z</time></trkpt><trkpt lat="38.1790973286691" lon="15.359124496234676"><ele>66.0</ele><time>2026-04-05T14:43:26Z</time></trkpt><trkpt lat="38.17916885821081" lon="15.359044975278586"><ele>66.0</ele><time>2026-04-05T14:43:27Z</time></trkpt><trkpt lat="38.17923382295846" lon="15.358970833435018"><ele>66.0</ele><time>2026-04-05T14:43:28Z</time></trkpt><trkpt lat="38.179297617671665" lon="15.358894702660143"><ele>66.0</ele><time>2026-04-05T14:43:29Z</time></trkpt><trkpt lat="38.179353644343834" lon="15.358816506124938"><ele>66.0</ele><time>2026-04-05T14:43:30Z</time></trkpt><trkpt lat="38.179415924349556" lon="15.358732988502958"><ele>66.0</ele><time>2026-04-05T14:43:31Z</time></trkpt><trkpt lat="38.17948098881091" lon="15.358643516490076"><ele>66.0</ele><time>2026-04-05T14:43:32Z</time></trkpt><trkpt lat="38.179548669019454" lon="15.358551031109334"><ele>65.39999999999999</ele><time>2026-04-05T14:43:33Z</time></trkpt><trkpt lat="38.17961526138486" lon="15.358463348290645"><ele>64.8</ele><time>2026-04-05T14:43:34Z</time></trkpt><trkpt lat="38.17967993677228" lon="15.358375339774883"><ele>64.19999999999999</ele><time>2026-04-05T14:43:35Z</time></trkpt><trkpt lat="38.179750549370134" lon="15.35827591124094"><ele>63.599999999999994</ele><time>2026-04-05T14:43:36Z</time></trkpt><trkpt lat="38.17982260663546" lon="15.358179688041394"><ele>63.0</ele><time>2026-04-05T14:43:37Z</time></trkpt><trkpt lat="38.179893728799456" lon="15.35809142565922"><ele>62.599999999999994</ele><time>2026-04-05T14:43:38Z</time></trkpt><trkpt lat="38.17996182190027" lon="15.358007508153214"><ele>62.199999999999996</ele><time>2026-04-05T14:43:39Z</time></trkpt><trkpt lat="38.180031328723665" lon="15.357920637288078"><ele>61.8</ele><time>2026-04-05T14:43:40Z</time></trkpt><trkpt lat="38.18010072147935" lon="15.357836564241667"><ele>61.4</ele><time>2026-04-05T14:43:41Z</time></trkpt><trkpt lat="38.18016963602768" lon="15.357755274103617"><ele>61.0</ele><time>2026-04-05T14:43:42Z</time></trkpt><trkpt lat="38.1802379922624" lon="15.35766844496365"><ele>61.0</ele><time>2026-04-05T14:43:43Z</time></trkpt><trkpt lat="38.18030985514146" lon="15.357586847089324"><ele>60.99999999999999</ele><time>2026-04-05T14:43:44Z</time></trkpt><trkpt lat="38.18038360545705" lon="15.357506922888147"><ele>60.99999999999999</ele><time>2026-04-05T14:43:45Z</time></trkpt><trkpt lat="38.18045993730711" lon="15.357432744787516"><ele>61.0</ele><time>2026-04-05T14:43:46Z</time></trkpt><trkpt lat="38.18054128638758" lon="15.357357072093608"><ele>61.0</ele><time>2026-04-05T14:43:47Z</time></trkpt><trkpt lat="38.180626573399685" lon="15.357282158611735"><ele>61.0</ele><time>2026-04-05T14:43:48Z</time></trkpt><trkpt lat="38.18070779968546" lon="15.357208048983015"><ele>60.99999999999999</ele><time>2026-04-05T14:43:49Z</time></trkpt><trkpt lat="38.18079517064423" lon="15.357130061031173"><ele>60.99999999999999</ele><time>2026-04-05T14:43:50Z</time></trkpt><trkpt lat="38.18088261430593" lon="15.357058778659566"><ele>61.0</ele><time>2026-04-05T14:43:51Z</time></trkpt><trkpt lat="38.180970650768536" lon="15.356984525015879"><ele>61.0</ele><time>2026-04-05T14:43:52Z</time></trkpt><trkpt lat="38.18106420137647" lon="15.356910571583134"><ele>60.8</ele><time>2026-04-05T14:43:53Z</time></trkpt><trkpt lat="38.18115558854103" lon="15.356832684497698"><ele>60.599999999999994</ele><time>2026-04-05T14:43:54Z</time></trkpt><trkpt lat="38.181244776660805" lon="15.356759636572653"><ele>60.4</ele><time>2026-04-05T14:43:55Z</time></trkpt><trkpt lat="38.181329432672364" lon="15.356693194851328"><ele>60.2</ele><time>2026-04-05T14:43:56Z</time></trkpt><trkpt lat="38.181410350093586" lon="15.356634276281477"><ele>60.0</ele><time>2026-04-05T14:43:57Z</time></trkpt><trkpt lat="38.181487321307166" lon="15.356572687308274"><ele>59.6</ele><time>2026-04-05T14:43:58Z</time></trkpt><trkpt lat="38.181568341539894" lon="15.356510447473664"><ele>59.2</ele><time>2026-04-05T14:43:59Z</time></trkpt><trkpt lat="38.18164996214987" lon="15.356440445356666"><ele>58.8</ele><time>2026-04-05T14:44:00Z</time></trkpt><trkpt lat="38.18173150277861" lon="15.356359915457347"><ele>58.4</ele><time>2026-04-05T14:44:01Z</time></trkpt><trkpt lat="38.18181488623777" lon="15.356286165069443"><ele>58.0</ele><time>2026-04-05T14:44:02Z</time></trkpt><trkpt lat="38.181893967257636" lon="15.35621630364553"><ele>57.599999999999994</ele><time>2026-04-05T14:44:03Z</time></trkpt><trkpt lat="38.181964497118955" lon="15.356138355302495"><ele>57.199999999999996</ele><time>2026-04-05T14:44:04Z</time></trkpt><trkpt lat="38.18204790802805" lon="15.356078322359785"><ele>56.8</ele><time>2026-04-05T14:44:05Z</time></trkpt><trkpt lat="38.18213272965199" lon="15.356015027583311"><ele>56.4</ele><time>2026-04-05T14:44:06Z</time></trkpt><trkpt lat="38.182218890479994" lon="15.355956534988595"><ele>56.0</ele><time>2026-04-05T14:44:07Z</time></trkpt><trkpt lat="38.182305519649354" lon="15.35589360572066"><ele>56.0</ele><time>2026-04-05T14:44:08Z</time></trkpt><trkpt lat="38.182395635000276" lon="15.355833745824222"><ele>55.99999999999999</ele><time>2026-04-05T14:44:09Z</time></trkpt><trkpt lat="38.18248010948436" lon="15.355784600964988"><ele>55.99999999999999</ele><time>2026-04-05T14:44:10Z</time></trkpt><trkpt lat="38.18256717569195" lon="15.355724966955949"><ele>56.0</ele><time>2026-04-05T14:44:11Z</time></trkpt><trkpt lat="38.182653468264824" lon="15.35566863803682"><ele>56.0</ele><time>2026-04-05T14:44:12Z</time></trkpt><trkpt lat="38.18273306435473" lon="15.35562018121328"><ele>56.00000000000001</ele><time>2026-04-05T14:44:13Z</time></trkpt><trkpt lat="38.182800113598" lon="15.35557333587153"><ele>56.0</ele><time>2026-04-05T14:44:14Z</time></trkpt><trkpt lat="38.182912248093565" lon="15.355502964229023"><ele>56.0</ele><time>2026-04-05T14:44:16Z</time></trkpt><trkpt lat="38.182970144929385" lon="15.35546131267695"><ele>56.0</ele><time>2026-04-05T14:44:17Z</time></trkpt><trkpt lat="38.18302332023317" lon="15.355415621717475"><ele>56.00000000000001</ele><time>2026-04-05T14:44:18Z</time></trkpt><trkpt lat="38.183112139023855" lon="15.355321470452346"><ele>56.0</ele><time>2026-04-05T14:44:20Z</time></trkpt><trkpt lat="38.18316437042969" lon="15.355260784051644"><ele>56.00000000000001</ele><time>2026-04-05T14:44:21Z</time></trkpt><trkpt lat="38.183240765825545" lon="15.355221542025578"><ele>56.0</ele><time>2026-04-05T14:44:23Z</time></trkpt><trkpt lat="38.18335581158809" lon="15.355204613172019"><ele>56.0</ele><time>2026-04-05T14:44:25Z</time></trkpt><trkpt lat="38.183418656558146" lon="15.355190833880641"><ele>56.0</ele><time>2026-04-05T14:44:26Z</time></trkpt><trkpt lat="38.183482695719675" lon="15.355183693660464"><ele>56.00000000000001</ele><time>2026-04-05T14:44:27Z</time></trkpt><trkpt lat="38.183556701059466" lon="15.355173412069218"><ele>56.0</ele><time>2026-04-05T14:44:28Z</time></trkpt><trkpt lat="38.18363430214287" lon="15.35516304606452"><ele>56.00000000000001</ele><time>2026-04-05T14:44:29Z</time></trkpt><trkpt lat="38.183710080019104" lon="15.355152923602956"><ele>56.0</ele><time>2026-04-05T14:44:30Z</time></trkpt><trkpt lat="38.18379821699127" lon="15.355141150206363"><ele>56.0</ele><time>2026-04-05T14:44:31Z</time></trkpt><trkpt lat="38.18386323642624" lon="15.355132464866527"><ele>56.0</ele><time>2026-04-05T14:44:32Z</time></trkpt><trkpt lat="38.183967181594646" lon="15.355117541352465"><ele>56.00000000000001</ele><time>2026-04-05T14:44:34Z</time></trkpt><trkpt lat="38.18402725724991" lon="15.355093179115991"><ele>56.0</ele><time>2026-04-05T14:44:36Z</time></trkpt><trkpt lat="38.18409614459976" lon="15.355095912755454"><ele>56.00000000000001</ele><time>2026-04-05T14:44:38Z</time></trkpt><trkpt lat="38.18417833346316" lon="15.355059878657208"><ele>56.0</ele><time>2026-04-05T14:44:41Z</time></trkpt><trkpt lat="38.18425972102363" lon="15.355044787822862"><ele>56.0</ele><time>2026-04-05T14:44:43Z</time></trkpt><trkpt lat="38.18435153391851" lon="15.355020184268698"><ele>56.0</ele><time>2026-04-05T14:44:45Z</time></trkpt><trkpt lat="38.18442523477075" lon="15.354967499637832"><ele>56.00000000000001</ele><time>2026-04-05T14:44:47Z</time></trkpt><trkpt lat="38.184493828301726" lon="15.35492379698575"><ele>56.0</ele><time>2026-04-05T14:44:49Z</time></trkpt><trkpt lat="38.18458119514622" lon="15.354885763044415"><ele>56.0</ele><time>2026-04-05T14:44:51Z</time></trkpt><trkpt lat="38.18465362782216" lon="15.354832730771438"><ele>55.99999999999999</ele><time>2026-04-05T14:44:52Z</time></trkpt><trkpt lat="38.18476057088342" lon="15.354780916606853"><ele>55.99999999999999</ele><time>2026-04-05T14:44:54Z</time></trkpt><trkpt lat="38.18482402925855" lon="15.354730656673095"><ele>56.0</ele><time>2026-04-05T14:44:56Z</time></trkpt><trkpt lat="38.18487069356084" lon="15.354624160446072"><ele>56.0</ele><time>2026-04-05T14:45:06Z</time></trkpt><trkpt lat="38.18496031524892" lon="15.35461777498968"><ele>54.75</ele><time>2026-04-05T14:45:07Z</time></trkpt><trkpt lat="38.18488322803765" lon="15.354530966208985"><ele>53.5</ele><time>2026-04-05T14:45:09Z</time></trkpt><trkpt lat="38.18493155940105" lon="15.354478312841131"><ele>52.25</ele><time>2026-04-05T14:45:10Z</time></trkpt><trkpt lat="38.184921678277995" lon="15.35438952503131"><ele>51.0</ele><time>2026-04-05T14:45:12Z</time></trkpt><trkpt lat="38.18491039395432" lon="15.353907359167094"><ele>51.0</ele><time>2026-04-05T14:45:15Z</time></trkpt><trkpt lat="38.1849591891221" lon="15.353847551874479"><ele>51.0</ele><time>2026-04-05T14:45:16Z</time></trkpt><trkpt lat="38.185031178182086" lon="15.353773778191368"><ele>51.0</ele><time>2026-04-05T14:45:17Z</time></trkpt><trkpt lat="38.185093705715595" lon="15.353716993356691"><ele>51.0</ele><time>2026-04-05T14:45:21Z</time></trkpt><trkpt lat="38.18517245727281" lon="15.353734744520098"><ele>51.0</ele><time>2026-04-05T14:45:28Z</time></trkpt><trkpt lat="38.18535862122024" lon="15.35408207791068"><ele>51.0</ele><time>2026-04-05T14:45:31Z</time></trkpt><trkpt lat="38.18529108516098" lon="15.354116400432282"><ele>51.0</ele><time>2026-04-05T14:46:43Z</time></trkpt><trkpt lat="38.18534480858515" lon="15.35407144943359"><ele>51.0</ele><time>2026-04-05T14:46:56Z</time></trkpt><trkpt lat="38.18532548212741" lon="15.353993130336182"><ele>51.0</ele><time>2026-04-05T14:47:46.001Z</time></trkpt><trkpt lat="38.185270755138674" lon="15.35394425456684"><ele>51.0</ele><time>2026-04-05T14:47:56Z</time></trkpt><trkpt lat="38.185202837616444" lon="15.353896099325187"><ele>51.0</ele><time>2026-04-05T14:47:59Z</time></trkpt><trkpt lat="38.18515059431067" lon="15.353831030169333"><ele>51.0</ele><time>2026-04-05T14:48:01Z</time></trkpt><trkpt lat="38.18510890746816" lon="15.353753691601582"><ele>51.0</ele><time>2026-04-05T14:48:05Z</time></trkpt><trkpt lat="38.185029616375644" lon="15.353740825862872"><ele>51.0</ele><time>2026-04-05T14:48:30Z</time></trkpt><trkpt lat="38.18496164990073" lon="15.353760949949345"><ele>51.0</ele><time>2026-04-05T14:48:32Z</time></trkpt><trkpt lat="38.184883922790256" lon="15.35385142108029"><ele>51.0</ele><time>2026-04-05T14:48:34Z</time></trkpt><trkpt lat="38.18482179068312" lon="15.353929365154835"><ele>51.0</ele><time>2026-04-05T14:48:36Z</time></trkpt><trkpt lat="38.184772089397335" lon="15.35399170000891"><ele>51.0</ele><time>2026-04-05T14:48:38Z</time></trkpt><trkpt lat="38.18471210773809" lon="15.354064594475199"><ele>52.166666666666664</ele><time>2026-04-05T14:48:41Z</time></trkpt><trkpt lat="38.184627769957764" lon="15.35408432074304"><ele>53.33333333333333</ele><time>2026-04-05T14:48:43Z</time></trkpt><trkpt lat="38.18455823369613" lon="15.354084086799233"><ele>54.5</ele><time>2026-04-05T14:48:45Z</time></trkpt><trkpt lat="38.18447920467849" lon="15.354103399753358"><ele>55.666666666666664</ele><time>2026-04-05T14:48:47Z</time></trkpt><trkpt lat="38.18439816371177" lon="15.354147683998242"><ele>56.83333333333333</ele><time>2026-04-05T14:48:49Z</time></trkpt><trkpt lat="38.18431761185907" lon="15.354194278443385"><ele>58.0</ele><time>2026-04-05T14:48:51Z</time></trkpt><trkpt lat="38.1842337038425" lon="15.354215306792804"><ele>57.99999999999999</ele><time>2026-04-05T14:48:53Z</time></trkpt><trkpt lat="38.184160793621004" lon="15.354235132709558"><ele>58.0</ele><time>2026-04-05T14:48:55Z</time></trkpt><trkpt lat="38.18406953090947" lon="15.354260400501115"><ele>58.0</ele><time>2026-04-05T14:48:57Z</time></trkpt><trkpt lat="38.18395727634314" lon="15.354243314596262"><ele>58.0</ele><time>2026-04-05T14:48:59Z</time></trkpt><trkpt lat="38.18386694820544" lon="15.35424223878871"><ele>57.99999999999999</ele><time>2026-04-05T14:49:01Z</time></trkpt><trkpt lat="38.183803388010276" lon="15.354241481785994"><ele>58.0</ele><time>2026-04-05T14:49:03Z</time></trkpt><trkpt lat="38.18370784397093" lon="15.354240317266958"><ele>59.4</ele><time>2026-04-05T14:49:06Z</time></trkpt><trkpt lat="38.18361309830806" lon="15.354258655966307"><ele>60.8</ele><time>2026-04-05T14:49:08Z</time></trkpt><trkpt lat="38.18349820666722" lon="15.354245679502771"><ele>62.2</ele><time>2026-04-05T14:49:10Z</time></trkpt><trkpt lat="38.18337802656764" lon="15.35424531776619"><ele>63.6</ele><time>2026-04-05T14:49:12Z</time></trkpt><trkpt lat="38.183314461918215" lon="15.354241868934057"><ele>65.0</ele><time>2026-04-05T14:49:13Z</time></trkpt><trkpt lat="38.18318828551666" lon="15.354223539695203"><ele>66.0</ele><time>2026-04-05T14:49:15Z</time></trkpt><trkpt lat="38.183123804403564" lon="15.354200580499622"><ele>67.0</ele><time>2026-04-05T14:49:16Z</time></trkpt><trkpt lat="38.18301905191346" lon="15.354194699233005"><ele>68.0</ele><time>2026-04-05T14:49:18Z</time></trkpt><trkpt lat="38.182914311058354" lon="15.354179827344652"><ele>69.0</ele><time>2026-04-05T14:49:20Z</time></trkpt><trkpt lat="38.18280274622787" lon="15.354200834385043"><ele>70.0</ele><time>2026-04-05T14:49:22Z</time></trkpt><trkpt lat="38.182738445192065" lon="15.354216546169711"><ele>70.0</ele><time>2026-04-05T14:49:24Z</time></trkpt><trkpt lat="38.182671354486494" lon="15.35427956374891"><ele>70.0</ele><time>2026-04-05T14:49:27Z</time></trkpt><trkpt lat="38.18267934494455" lon="15.354366322042466"><ele>70.0</ele><time>2026-04-05T14:49:39Z</time></trkpt><trkpt lat="38.182713634101844" lon="15.35429133114521"><ele>70.0</ele><time>2026-04-05T14:49:48.001Z</time></trkpt><trkpt lat="38.1827730227772" lon="15.354251978889916"><ele>70.0</ele><time>2026-04-05T14:49:50.001Z</time></trkpt><trkpt lat="38.182859962104565" lon="15.354186853928372"><ele>70.0</ele><time>2026-04-05T14:49:52.001Z</time></trkpt><trkpt lat="38.18296814113173" lon="15.354171958330047"><ele>70.0</ele><time>2026-04-05T14:49:54Z</time></trkpt><trkpt lat="38.18308109422724" lon="15.354184882583814"><ele>70.0</ele><time>2026-04-05T14:49:56Z</time></trkpt><trkpt lat="38.183200365309744" lon="15.354221864501366"><ele>70.0</ele><time>2026-04-05T14:49:58Z</time></trkpt><trkpt lat="38.18327745897137" lon="15.354220718884045"><ele>70.0</ele><time>2026-04-05T14:49:59Z</time></trkpt><trkpt lat="38.1833475009627" lon="15.354219658389175"><ele>70.0</ele><time>2026-04-05T14:50:00Z</time></trkpt><trkpt lat="38.18342023784637" lon="15.354214392410949"><ele>69.16666666666666</ele><time>2026-04-05T14:50:01Z</time></trkpt><trkpt lat="38.18349404865213" lon="15.354207617938563"><ele>68.33333333333333</ele><time>2026-04-05T14:50:02Z</time></trkpt><trkpt lat="38.183558889548216" lon="15.354210149780547"><ele>67.5</ele><time>2026-04-05T14:50:03Z</time></trkpt><trkpt lat="38.183644622492004" lon="15.354214901282178"><ele>66.66666666666667</ele><time>2026-04-05T14:50:04Z</time></trkpt><trkpt lat="38.18374824101255" lon="15.354222550018886"><ele>65.83333333333334</ele><time>2026-04-05T14:50:05Z</time></trkpt><trkpt lat="38.18383852258648" lon="15.35423223163066"><ele>65.0</ele><time>2026-04-05T14:50:06Z</time></trkpt><trkpt lat="38.18391730119894" lon="15.35422603024175"><ele>65.0</ele><time>2026-04-05T14:50:07Z</time></trkpt><trkpt lat="38.18399738396202" lon="15.354228381047836"><ele>65.0</ele><time>2026-04-05T14:50:08Z</time></trkpt><trkpt lat="38.18406998529142" lon="15.354231621234089"><ele>65.0</ele><time>2026-04-05T14:50:09Z</time></trkpt><trkpt lat="38.18414247127478" lon="15.35423036315224"><ele>65.0</ele><time>2026-04-05T14:50:10Z</time></trkpt><trkpt lat="38.184242727500354" lon="15.354220187903259"><ele>65.0</ele><time>2026-04-05T14:50:12Z</time></trkpt><trkpt lat="38.184328287773184" lon="15.354185395967027"><ele>65.0</ele><time>2026-04-05T14:50:14Z</time></trkpt><trkpt lat="38.184386685773994" lon="15.35414811828773"><ele>63.6</ele><time>2026-04-05T14:50:15Z</time></trkpt><trkpt lat="38.18449912119684" lon="15.354091467322238"><ele>62.2</ele><time>2026-04-05T14:50:17Z</time></trkpt><trkpt lat="38.184605864768066" lon="15.35405810322785"><ele>60.8</ele><time>2026-04-05T14:50:19Z</time></trkpt><trkpt lat="38.18470964960884" lon="15.354059018076077"><ele>59.4</ele><time>2026-04-05T14:50:21Z</time></trkpt><trkpt lat="38.18478908258992" lon="15.354005060713044"><ele>58.0</ele><time>2026-04-05T14:50:23Z</time></trkpt><trkpt lat="38.18485580696658" lon="15.353904960046322"><ele>56.83333333333333</ele><time>2026-04-05T14:50:25Z</time></trkpt><trkpt lat="38.18495912331825" lon="15.35380432301006"><ele>55.666666666666664</ele><time>2026-04-05T14:50:27Z</time></trkpt><trkpt lat="38.185019072087634" lon="15.35376963649872"><ele>54.5</ele><time>2026-04-05T14:50:28Z</time></trkpt><trkpt lat="38.18509817403211" lon="15.353685166719407"><ele>53.33333333333333</ele><time>2026-04-05T14:50:30Z</time></trkpt><trkpt lat="38.18515140132248" lon="15.35363756719679"><ele>52.166666666666664</ele><time>2026-04-05T14:50:31Z</time></trkpt><trkpt lat="38.185206521286986" lon="15.353584244431136"><ele>51.0</ele><time>2026-04-05T14:50:32Z</time></trkpt><trkpt lat="38.185307910030346" lon="15.353489304643379"><ele>51.0</ele><time>2026-04-05T14:50:34Z</time></trkpt><trkpt lat="38.185389771111105" lon="15.353386439118538"><ele>51.0</ele><time>2026-04-05T14:50:36Z</time></trkpt><trkpt lat="38.18543686921399" lon="15.353324614746397"><ele>51.0</ele><time>2026-04-05T14:50:37Z</time></trkpt><trkpt lat="38.18547670874765" lon="15.353244521196753"><ele>51.0</ele><time>2026-04-05T14:50:38Z</time></trkpt><trkpt lat="38.18551738185166" lon="15.353173939429729"><ele>51.0</ele><time>2026-04-05T14:50:39Z</time></trkpt><trkpt lat="38.18561067743669" lon="15.353066175403454"><ele>50.5</ele><time>2026-04-05T14:50:41Z</time></trkpt><trkpt lat="38.18568222186907" lon="15.35296987915173"><ele>50.0</ele><time>2026-04-05T14:50:43Z</time></trkpt><trkpt lat="38.18575396162986" lon="15.352853472618783"><ele>49.5</ele><time>2026-04-05T14:50:45Z</time></trkpt><trkpt lat="38.18580035174099" lon="15.352783156992302"><ele>49.0</ele><time>2026-04-05T14:50:46Z</time></trkpt><trkpt lat="38.185844938679516" lon="15.352710737418398"><ele>48.5</ele><time>2026-04-05T14:50:47Z</time></trkpt><trkpt lat="38.18588292487557" lon="15.352643233646564"><ele>48.0</ele><time>2026-04-05T14:50:48Z</time></trkpt><trkpt lat="38.18591943238903" lon="15.35257191989495"><ele>48.0</ele><time>2026-04-05T14:50:49Z</time></trkpt><trkpt lat="38.185975035738736" lon="15.352475811327588"><ele>48.0</ele><time>2026-04-05T14:50:51Z</time></trkpt><trkpt lat="38.18604018622878" lon="15.352387156277805"><ele>48.0</ele><time>2026-04-05T14:50:53Z</time></trkpt><trkpt lat="38.18610821588222" lon="15.352284588160382"><ele>48.0</ele><time>2026-04-05T14:50:55Z</time></trkpt><trkpt lat="38.186145835378895" lon="15.35221722090176"><ele>48.0</ele><time>2026-04-05T14:50:56Z</time></trkpt><trkpt lat="38.18618130548863" lon="15.352148317778713"><ele>48.0</ele><time>2026-04-05T14:50:57Z</time></trkpt><trkpt lat="38.18621807065201" lon="15.352079808140118"><ele>48.0</ele><time>2026-04-05T14:50:58Z</time></trkpt><trkpt lat="38.186289753219356" lon="15.351960672753517"><ele>48.0</ele><time>2026-04-05T14:51:00Z</time></trkpt><trkpt lat="38.186363543606085" lon="15.351856352825843"><ele>48.0</ele><time>2026-04-05T14:51:02Z</time></trkpt><trkpt lat="38.18641679831358" lon="15.351713129987585"><ele>48.0</ele><time>2026-04-05T14:51:04Z</time></trkpt><trkpt lat="38.18644237783281" lon="15.35162829774353"><ele>48.0</ele><time>2026-04-05T14:51:05Z</time></trkpt><trkpt lat="38.18647284510019" lon="15.351544633060563"><ele>47.99999999999999</ele><time>2026-04-05T14:51:06Z</time></trkpt><trkpt lat="38.18650546481232" lon="15.351461684056968"><ele>48.0</ele><time>2026-04-05T14:51:07Z</time></trkpt><trkpt lat="38.18654201784676" lon="15.351379530401875"><ele>48.0</ele><time>2026-04-05T14:51:08Z</time></trkpt><trkpt lat="38.186577546742065" lon="15.351292453123486"><ele>48.0</ele><time>2026-04-05T14:51:09Z</time></trkpt><trkpt lat="38.18660500855558" lon="15.35120242667068"><ele>48.0</ele><time>2026-04-05T14:51:10Z</time></trkpt><trkpt lat="38.18662951902578" lon="15.351117141098975"><ele>47.99999999999999</ele><time>2026-04-05T14:51:11Z</time></trkpt><trkpt lat="38.18665482033399" lon="15.351031346936596"><ele>48.0</ele><time>2026-04-05T14:51:12Z</time></trkpt><trkpt lat="38.18665896692876" lon="15.35093332523058"><ele>47.599999999999994</ele><time>2026-04-05T14:51:13Z</time></trkpt><trkpt lat="38.18669577358194" lon="15.350859676791773"><ele>47.199999999999996</ele><time>2026-04-05T14:51:14Z</time></trkpt><trkpt lat="38.186727522474456" lon="15.350756015569075"><ele>46.8</ele><time>2026-04-05T14:51:16Z</time></trkpt><trkpt lat="38.18675883314914" lon="15.3506644406109"><ele>46.4</ele><time>2026-04-05T14:51:18Z</time></trkpt><trkpt lat="38.18680772982162" lon="15.350553568655823"><ele>46.0</ele><time>2026-04-05T14:51:20Z</time></trkpt><trkpt lat="38.186868234105596" lon="15.35041637668113"><ele>45.66666666666667</ele><time>2026-04-05T14:51:22Z</time></trkpt><trkpt lat="38.186912170154685" lon="15.35033790670797"><ele>45.333333333333336</ele><time>2026-04-05T14:51:23Z</time></trkpt><trkpt lat="38.18694080475499" lon="15.350250789855469"><ele>45.0</ele><time>2026-04-05T14:51:24Z</time></trkpt><trkpt lat="38.186973905758656" lon="15.350161928449749"><ele>44.666666666666664</ele><time>2026-04-05T14:51:25Z</time></trkpt><trkpt lat="38.18700972195934" lon="15.350067276383243"><ele>44.33333333333333</ele><time>2026-04-05T14:51:26Z</time></trkpt><trkpt lat="38.18704760264392" lon="15.349968950736546"><ele>44.0</ele><time>2026-04-05T14:51:27Z</time></trkpt><trkpt lat="38.18708033562073" lon="15.34987248935798"><ele>44.0</ele><time>2026-04-05T14:51:28Z</time></trkpt><trkpt lat="38.187106708118435" lon="15.349771284720973"><ele>44.0</ele><time>2026-04-05T14:51:29Z</time></trkpt><trkpt lat="38.18713719292888" lon="15.349667137848465"><ele>44.0</ele><time>2026-04-05T14:51:30Z</time></trkpt><trkpt lat="38.18717395735197" lon="15.349567592960524"><ele>44.0</ele><time>2026-04-05T14:51:31Z</time></trkpt><trkpt lat="38.18720452511019" lon="15.349477951065788"><ele>44.0</ele><time>2026-04-05T14:51:32Z</time></trkpt><trkpt lat="38.18722770260607" lon="15.349397200795268"><ele>44.0</ele><time>2026-04-05T14:51:33Z</time></trkpt><trkpt lat="38.18724913699326" lon="15.349320444482037"><ele>44.142857142857146</ele><time>2026-04-05T14:51:34Z</time></trkpt><trkpt lat="38.18727813050697" lon="15.349244353080605"><ele>44.285714285714285</ele><time>2026-04-05T14:51:35Z</time></trkpt><trkpt lat="38.18730427653556" lon="15.349169486516113"><ele>44.42857142857143</ele><time>2026-04-05T14:51:36Z</time></trkpt><trkpt lat="38.18733215797521" lon="15.349092855598853"><ele>44.57142857142857</ele><time>2026-04-05T14:51:37Z</time></trkpt><trkpt lat="38.187366514644296" lon="15.3490156486024"><ele>44.714285714285715</ele><time>2026-04-05T14:51:38Z</time></trkpt><trkpt lat="38.1874013582545" lon="15.348940665307888"><ele>44.857142857142854</ele><time>2026-04-05T14:51:39Z</time></trkpt><trkpt lat="38.187445095748096" lon="15.348866058344711"><ele>45.0</ele><time>2026-04-05T14:51:40Z</time></trkpt><trkpt lat="38.18748916013597" lon="15.348789452974332"><ele>44.5</ele><time>2026-04-05T14:51:41Z</time></trkpt><trkpt lat="38.187531001416225" lon="15.348728920871899"><ele>44.0</ele><time>2026-04-05T14:51:42Z</time></trkpt><trkpt lat="38.18757479244423" lon="15.34857683992835"><ele>43.5</ele><time>2026-04-05T14:51:44Z</time></trkpt><trkpt lat="38.18759457008008" lon="15.34849097226588"><ele>43.0</ele><time>2026-04-05T14:51:45Z</time></trkpt><trkpt lat="38.187614052752565" lon="15.348394966388053"><ele>42.5</ele><time>2026-04-05T14:51:46Z</time></trkpt><trkpt lat="38.18763247305442" lon="15.348308506694657"><ele>42.0</ele><time>2026-04-05T14:51:47Z</time></trkpt><trkpt lat="38.18765793361503" lon="15.348222331375947"><ele>42.0</ele><time>2026-04-05T14:51:48Z</time></trkpt><trkpt lat="38.18769601985983" lon="15.348134669937169"><ele>42.0</ele><time>2026-04-05T14:51:49Z</time></trkpt><trkpt lat="38.18773798646295" lon="15.348051932121166"><ele>42.0</ele><time>2026-04-05T14:51:50Z</time></trkpt><trkpt lat="38.18778068848225" lon="15.347961943875323"><ele>42.0</ele><time>2026-04-05T14:51:50.999Z</time></trkpt><trkpt lat="38.187826049592104" lon="15.34786933424102"><ele>42.0</ele><time>2026-04-05T14:51:51.999Z</time></trkpt><trkpt lat="38.1878617079522" lon="15.34778452618367"><ele>42.0</ele><time>2026-04-05T14:51:53Z</time></trkpt><trkpt lat="38.18789046301823" lon="15.347689869310608"><ele>41.6</ele><time>2026-04-05T14:51:54Z</time></trkpt><trkpt lat="38.187924944208824" lon="15.347586084008197"><ele>41.2</ele><time>2026-04-05T14:51:55Z</time></trkpt><trkpt lat="38.1879616380113" lon="15.347468349147105"><ele>40.8</ele><time>2026-04-05T14:51:56Z</time></trkpt><trkpt lat="38.18799182393092" lon="15.34735534239173"><ele>40.4</ele><time>2026-04-05T14:51:57Z</time></trkpt><trkpt lat="38.18801886281992" lon="15.347241070334688"><ele>40.0</ele><time>2026-04-05T14:51:58Z</time></trkpt><trkpt lat="38.18804783880539" lon="15.347121290559505"><ele>39.833333333333336</ele><time>2026-04-05T14:51:59Z</time></trkpt><trkpt lat="38.188075658912474" lon="15.347004894369386"><ele>39.66666666666667</ele><time>2026-04-05T14:52:00Z</time></trkpt><trkpt lat="38.18809679593553" lon="15.346902406536907"><ele>39.5</ele><time>2026-04-05T14:52:01Z</time></trkpt><trkpt lat="38.188114694634486" lon="15.346812604965093"><ele>39.333333333333336</ele><time>2026-04-05T14:52:02Z</time></trkpt><trkpt lat="38.1881413183391" lon="15.3467358028205"><ele>39.166666666666664</ele><time>2026-04-05T14:52:03Z</time></trkpt><trkpt lat="38.18815347503491" lon="15.346651767858894"><ele>39.0</ele><time>2026-04-05T14:52:04Z</time></trkpt><trkpt lat="38.18817095170837" lon="15.346543576897389"><ele>39.0</ele><time>2026-04-05T14:52:06Z</time></trkpt><trkpt lat="38.18812300153846" lon="15.346435779005075"><ele>39.0</ele><time>2026-04-05T14:52:09Z</time></trkpt><trkpt lat="38.18807805774886" lon="15.346361486989853"><ele>39.0</ele><time>2026-04-05T14:52:11Z</time></trkpt><trkpt lat="38.1880142418343" lon="15.346366143553785"><ele>39.0</ele><time>2026-04-05T14:52:13Z</time></trkpt><trkpt lat="38.1879226771298" lon="15.346361343457067"><ele>39.0</ele><time>2026-04-05T14:52:15Z</time></trkpt><trkpt lat="38.18783833350376" lon="15.346354781639562"><ele>39.0</ele><time>2026-04-05T14:52:17Z</time></trkpt><trkpt lat="38.18773547436013" lon="15.346389112865689"><ele>39.0</ele><time>2026-04-05T14:52:19Z</time></trkpt><trkpt lat="38.18763351016478" lon="15.346420033073372"><ele>39.0</ele><time>2026-04-05T14:52:21Z</time></trkpt><trkpt lat="38.187517791582195" lon="15.346433791397542"><ele>39.0</ele><time>2026-04-05T14:52:23Z</time></trkpt><trkpt lat="38.18739299424882" lon="15.3464269887599"><ele>39.0</ele><time>2026-04-05T14:52:25Z</time></trkpt><trkpt lat="38.18732898263306" lon="15.34642430077896"><ele>39.0</ele><time>2026-04-05T14:52:26Z</time></trkpt><trkpt lat="38.18726215581328" lon="15.346432476979246"><ele>39.285714285714285</ele><time>2026-04-05T14:52:27Z</time></trkpt><trkpt lat="38.187196473068795" lon="15.346426918237576"><ele>39.57142857142857</ele><time>2026-04-05T14:52:28Z</time></trkpt><trkpt lat="38.18713121482983" lon="15.346446825487687"><ele>39.857142857142854</ele><time>2026-04-05T14:52:29Z</time></trkpt><trkpt lat="38.18706766542145" lon="15.346435387761515"><ele>40.14285714285714</ele><time>2026-04-05T14:52:30Z</time></trkpt><trkpt lat="38.18699182346168" lon="15.346436030778623"><ele>40.42857142857143</ele><time>2026-04-05T14:52:31Z</time></trkpt><trkpt lat="38.18692094186849" lon="15.346419970039959"><ele>40.71428571428571</ele><time>2026-04-05T14:52:32Z</time></trkpt><trkpt lat="38.18684049612448" lon="15.346403949779106"><ele>41.0</ele><time>2026-04-05T14:52:33Z</time></trkpt><trkpt lat="38.186759123071575" lon="15.346400840002769"><ele>41.0</ele><time>2026-04-05T14:52:34Z</time></trkpt><trkpt lat="38.18666517224841" lon="15.34638528635496"><ele>41.0</ele><time>2026-04-05T14:52:35Z</time></trkpt><trkpt lat="38.18657379519269" lon="15.346375826011892"><ele>41.0</ele><time>2026-04-05T14:52:36Z</time></trkpt><trkpt lat="38.18648691095474" lon="15.346363468118206"><ele>41.0</ele><time>2026-04-05T14:52:37Z</time></trkpt><trkpt lat="38.18640386207321" lon="15.346351241904024"><ele>41.0</ele><time>2026-04-05T14:52:38Z</time></trkpt><trkpt lat="38.186319340225246" lon="15.34635001891939"><ele>41.0</ele><time>2026-04-05T14:52:39Z</time></trkpt><trkpt lat="38.186241603206504" lon="15.346324742304764"><ele>41.0</ele><time>2026-04-05T14:52:40Z</time></trkpt><trkpt lat="38.18615391110824" lon="15.346314265204292"><ele>41.0</ele><time>2026-04-05T14:52:41Z</time></trkpt><trkpt lat="38.18606530100004" lon="15.34630367842598"><ele>41.0</ele><time>2026-04-05T14:52:42Z</time></trkpt><trkpt lat="38.18599019687079" lon="15.346294705291141"><ele>41.0</ele><time>2026-04-05T14:52:43Z</time></trkpt><trkpt lat="38.18591130589603" lon="15.346285279710607"><ele>41.0</ele><time>2026-04-05T14:52:44Z</time></trkpt><trkpt lat="38.18582341341691" lon="15.346274778669759"><ele>41.0</ele><time>2026-04-05T14:52:45Z</time></trkpt><trkpt lat="38.185741120312834" lon="15.346264052820827"><ele>41.599999999999994</ele><time>2026-04-05T14:52:46Z</time></trkpt><trkpt lat="38.18566813502686" lon="15.346254460968048"><ele>42.2</ele><time>2026-04-05T14:52:47Z</time></trkpt><trkpt lat="38.185562836108126" lon="15.346240622397515"><ele>42.8</ele><time>2026-04-05T14:52:49Z</time></trkpt><trkpt lat="38.18546048087126" lon="15.34622717068932"><ele>43.400000000000006</ele><time>2026-04-05T14:52:51Z</time></trkpt><trkpt lat="38.18536460143685" lon="15.346216269458349"><ele>44.0</ele><time>2026-04-05T14:52:53Z</time></trkpt><trkpt lat="38.18528371898425" lon="15.34620985877564"><ele>44.0</ele><time>2026-04-05T14:52:55Z</time></trkpt><trkpt lat="38.1851801798813" lon="15.346193978009143"><ele>44.0</ele><time>2026-04-05T14:52:57Z</time></trkpt><trkpt lat="38.18505934021837" lon="15.346152227538717"><ele>44.0</ele><time>2026-04-05T14:52:59Z</time></trkpt><trkpt lat="38.18495767589881" lon="15.346107116786838"><ele>44.0</ele><time>2026-04-05T14:53:01Z</time></trkpt><trkpt lat="38.1848431010162" lon="15.3461056658052"><ele>44.0</ele><time>2026-04-05T14:53:03Z</time></trkpt><trkpt lat="38.1847757559702" lon="15.346092819261798"><ele>44.0</ele><time>2026-04-05T14:53:04Z</time></trkpt><trkpt lat="38.18465656652264" lon="15.346056799524963"><ele>44.0</ele><time>2026-04-05T14:53:06Z</time></trkpt><trkpt lat="38.18455256249561" lon="15.346007538363514"><ele>44.0</ele><time>2026-04-05T14:53:08Z</time></trkpt><trkpt lat="38.18443557548673" lon="15.34596120149434"><ele>44.0</ele><time>2026-04-05T14:53:10Z</time></trkpt><trkpt lat="38.184378200445224" lon="15.345918029616614"><ele>44.0</ele><time>2026-04-05T14:53:11Z</time></trkpt><trkpt lat="38.18430490191376" lon="15.345891325204297"><ele>44.0</ele><time>2026-04-05T14:53:12Z</time></trkpt><trkpt lat="38.18423295382706" lon="15.345890846117562"><ele>44.0</ele><time>2026-04-05T14:53:13Z</time></trkpt><trkpt lat="38.18417054686624" lon="15.345874969107616"><ele>44.0</ele><time>2026-04-05T14:53:14Z</time></trkpt><trkpt lat="38.1841041097868" lon="15.345840045566103"><ele>44.0</ele><time>2026-04-05T14:53:15Z</time></trkpt><trkpt lat="38.184026917120256" lon="15.345822220337707"><ele>44.0</ele><time>2026-04-05T14:53:16Z</time></trkpt><trkpt lat="38.183951051368346" lon="15.345805824703909"><ele>44.0</ele><time>2026-04-05T14:53:17Z</time></trkpt><trkpt lat="38.18387316001363" lon="15.34579077962952"><ele>44.166666666666664</ele><time>2026-04-05T14:53:18Z</time></trkpt><trkpt lat="38.1837967962224" lon="15.345776832261043"><ele>44.33333333333333</ele><time>2026-04-05T14:53:19Z</time></trkpt><trkpt lat="38.183707779733396" lon="15.34576708432445"><ele>44.5</ele><time>2026-04-05T14:53:20Z</time></trkpt><trkpt lat="38.18363502028648" lon="15.345778978958753"><ele>44.666666666666664</ele><time>2026-04-05T14:53:20.999Z</time></trkpt><trkpt lat="38.18356510386574" lon="15.34577764297784"><ele>44.833333333333336</ele><time>2026-04-05T14:53:21.999Z</time></trkpt><trkpt lat="38.18350000305219" lon="15.345776399015179"><ele>45.0</ele><time>2026-04-05T14:53:22.999Z</time></trkpt><trkpt lat="38.183371758384375" lon="15.34580623838818"><ele>45.0</ele><time>2026-04-05T14:53:24.999Z</time></trkpt><trkpt lat="38.18330614935123" lon="15.34580458618588"><ele>45.0</ele><time>2026-04-05T14:53:25.999Z</time></trkpt><trkpt lat="38.18318791472634" lon="15.345796277766942"><ele>45.0</ele><time>2026-04-05T14:53:27.999Z</time></trkpt><trkpt lat="38.18308764239585" lon="15.345782094912272"><ele>45.0</ele><time>2026-04-05T14:53:29.999Z</time></trkpt><trkpt lat="38.1829666358695" lon="15.345783155793352"><ele>45.0</ele><time>2026-04-05T14:53:31.999Z</time></trkpt><trkpt lat="38.182903683632794" lon="15.345733981849612"><ele>45.2</ele><time>2026-04-05T14:53:32.999Z</time></trkpt><trkpt lat="38.18283938681162" lon="15.345736231183247"><ele>45.4</ele><time>2026-04-05T14:53:33.999Z</time></trkpt><trkpt lat="38.18271498358462" lon="15.345736285615947"><ele>45.599999999999994</ele><time>2026-04-05T14:53:35.999Z</time></trkpt><trkpt lat="38.182593064262775" lon="15.34571869591327"><ele>45.8</ele><time>2026-04-05T14:53:37.999Z</time></trkpt><trkpt lat="38.182500798968924" lon="15.345713572135312"><ele>46.0</ele><time>2026-04-05T14:53:39.999Z</time></trkpt><trkpt lat="38.18242537269442" lon="15.345692989152552"><ele>46.0</ele><time>2026-04-05T14:53:41.999Z</time></trkpt><trkpt lat="38.182334395825656" lon="15.345688014017307"><ele>46.0</ele><time>2026-04-05T14:53:44.999Z</time></trkpt><trkpt lat="38.18226658045459" lon="15.345684305482159"><ele>46.0</ele><time>2026-04-05T14:54:10Z</time></trkpt><trkpt lat="38.18241562332022" lon="15.345710337504135"><ele>46.0</ele><time>2026-04-05T14:54:31Z</time></trkpt><trkpt lat="38.18248065582918" lon="15.345716586655715"><ele>46.0</ele><time>2026-04-05T14:54:32Z</time></trkpt><trkpt lat="38.182550720636115" lon="15.34571679708745"><ele>46.0</ele><time>2026-04-05T14:54:33Z</time></trkpt><trkpt lat="38.18261948436162" lon="15.345716863070551"><ele>46.0</ele><time>2026-04-05T14:54:34Z</time></trkpt><trkpt lat="38.18269408641521" lon="15.345735485394693"><ele>46.0</ele><time>2026-04-05T14:54:36Z</time></trkpt><trkpt lat="38.182622346281384" lon="15.345722601814577"><ele>46.0</ele><time>2026-04-05T14:55:49.999Z</time></trkpt><trkpt lat="38.18254508344239" lon="15.345712634089432"><ele>46.0</ele><time>2026-04-05T14:55:54.999Z</time></trkpt><trkpt lat="38.18246964608966" lon="15.345718321075868"><ele>46.0</ele><time>2026-04-05T14:56:00.999Z</time></trkpt><trkpt lat="38.18240060514785" lon="15.34571584924343"><ele>46.0</ele><time>2026-04-05T14:56:07Z</time></trkpt><trkpt lat="38.18233135121685" lon="15.34571838320265"><ele>46.0</ele><time>2026-04-05T14:56:14Z</time></trkpt><trkpt lat="38.182266990503855" lon="15.345709058457524"><ele>46.0</ele><time>2026-04-05T14:56:20Z</time></trkpt><trkpt lat="38.18233216548855" lon="15.345686199070064"><ele>46.0</ele><time>2026-04-05T14:56:27Z</time></trkpt><trkpt lat="38.182399078429235" lon="15.345700900293785"><ele>46.0</ele><time>2026-04-05T14:56:33Z</time></trkpt><trkpt lat="38.18246399853747" lon="15.345715262239782"><ele>46.0</ele><time>2026-04-05T14:56:38Z</time></trkpt><trkpt lat="38.18252744047415" lon="15.345702699857396"><ele>46.0</ele><time>2026-04-05T14:56:43Z</time></trkpt><trkpt lat="38.18259289805064" lon="15.345716483263052"><ele>46.0</ele><time>2026-04-05T14:56:49Z</time></trkpt><trkpt lat="38.18266042541678" lon="15.34572428754439"><ele>46.0</ele><time>2026-04-05T14:56:54Z</time></trkpt><trkpt lat="38.182598050224925" lon="15.34573582146543"><ele>46.0</ele><time>2026-04-05T14:57:11Z</time></trkpt><trkpt lat="38.18253058493775" lon="15.345720428157646"><ele>46.0</ele><time>2026-04-05T14:57:16.999Z</time></trkpt><trkpt lat="38.18246124211003" lon="15.345716203569364"><ele>46.0</ele><time>2026-04-05T14:57:22.999Z</time></trkpt><trkpt lat="38.18239798231983" lon="15.345717048888641"><ele>46.0</ele><time>2026-04-05T14:57:28.999Z</time></trkpt><trkpt lat="38.18232845833118" lon="15.345709731219095"><ele>46.0</ele><time>2026-04-05T14:57:33.999Z</time></trkpt><trkpt lat="38.18226037095543" lon="15.345710580889092"><ele>46.0</ele><time>2026-04-05T14:57:39.999Z</time></trkpt><trkpt lat="38.18219201152442" lon="15.345698470916084"><ele>46.0</ele><time>2026-04-05T14:57:45.999Z</time></trkpt><trkpt lat="38.182128248843114" lon="15.345648707677379"><ele>46.285714285714285</ele><time>2026-04-05T14:57:50.999Z</time></trkpt><trkpt lat="38.182063664440406" lon="15.345661671056883"><ele>46.57142857142857</ele><time>2026-04-05T14:57:57.999Z</time></trkpt><trkpt lat="38.18199539285395" lon="15.34565188291861"><ele>46.857142857142854</ele><time>2026-04-05T14:58:04.999Z</time></trkpt><trkpt lat="38.181945635413854" lon="15.345600771875402"><ele>47.14285714285714</ele><time>2026-04-05T14:58:11Z</time></trkpt><trkpt lat="38.181889995099496" lon="15.345641194338741"><ele>47.42857142857143</ele><time>2026-04-05T14:58:16Z</time></trkpt><trkpt lat="38.181828355804505" lon="15.345669854842646"><ele>47.71428571428571</ele><time>2026-04-05T14:58:22Z</time></trkpt><trkpt lat="38.18176393304849" lon="15.345673182798256"><ele>48.0</ele><time>2026-04-05T14:58:28Z</time></trkpt><trkpt lat="38.18170967755567" lon="15.34562889327963"><ele>47.99999999999999</ele><time>2026-04-05T14:58:42Z</time></trkpt><trkpt lat="38.181646827885054" lon="15.345645471824383"><ele>48.0</ele><time>2026-04-05T14:58:50Z</time></trkpt><trkpt lat="38.18158386024948" lon="15.345671425708145"><ele>48.0</ele><time>2026-04-05T14:59:44.999Z</time></trkpt><trkpt lat="38.18153433759327" lon="15.345733534371277"><ele>48.0</ele><time>2026-04-05T14:59:56.999Z</time></trkpt><trkpt lat="38.18148804599066" lon="15.345801035667185"><ele>48.0</ele><time>2026-04-05T15:00:03.999Z</time></trkpt><trkpt lat="38.18154694535653" lon="15.345767263172327"><ele>47.99999999999999</ele><time>2026-04-05T15:00:38Z</time></trkpt><trkpt lat="38.181609021379934" lon="15.3457377877595"><ele>48.0</ele><time>2026-04-05T15:00:48Z</time></trkpt><trkpt lat="38.18167829712127" lon="15.345720921270841"><ele>47.99999999999999</ele><time>2026-04-05T15:00:56Z</time></trkpt><trkpt lat="38.18173246494366" lon="15.345679197168002"><ele>48.0</ele><time>2026-04-05T15:01:02.999Z</time></trkpt><trkpt lat="38.18179822793236" lon="15.34566768127328"><ele>48.0</ele><time>2026-04-05T15:01:08.999Z</time></trkpt><trkpt lat="38.18186417510014" lon="15.345656425259357"><ele>48.0</ele><time>2026-04-05T15:01:18.999Z</time></trkpt><trkpt lat="38.18192741355967" lon="15.345632005737222"><ele>48.0</ele><time>2026-04-05T15:01:25.999Z</time></trkpt><trkpt lat="38.181996312060996" lon="15.345657005982256"><ele>47.99999999999999</ele><time>2026-04-05T15:01:33.999Z</time></trkpt><trkpt lat="38.182060740228756" lon="15.345670045859212"><ele>48.0</ele><time>2026-04-05T15:01:40.999Z</time></trkpt><trkpt lat="38.18212820139604" lon="15.345664099569886"><ele>47.99999999999999</ele><time>2026-04-05T15:01:47.999Z</time></trkpt><trkpt lat="38.18219848039806" lon="15.345700920485072"><ele>48.0</ele><time>2026-04-05T15:01:54.999Z</time></trkpt><trkpt lat="38.18226498246729" lon="15.345691299972275"><ele>48.0</ele><time>2026-04-05T15:02:02.999Z</time></trkpt><trkpt lat="38.182336904133656" lon="15.345700582930876"><ele>48.0</ele><time>2026-04-05T15:02:08.999Z</time></trkpt><trkpt lat="38.18240245867959" lon="15.34570644582715"><ele>48.0</ele><time>2026-04-05T15:02:14.999Z</time></trkpt><trkpt lat="38.18246952213032" lon="15.345713481242717"><ele>47.99999999999999</ele><time>2026-04-05T15:02:20.999Z</time></trkpt><trkpt lat="38.18254666527995" lon="15.345712028770114"><ele>48.0</ele><time>2026-04-05T15:02:27.999Z</time></trkpt><trkpt lat="38.182612684207804" lon="15.345720305493028"><ele>47.666666666666664</ele><time>2026-04-05T15:02:34.999Z</time></trkpt><trkpt lat="38.18267653186816" lon="15.345718399881626"><ele>47.333333333333336</ele><time>2026-04-05T15:02:40.999Z</time></trkpt><trkpt lat="38.18275702311861" lon="15.345739367072618"><ele>47.0</ele><time>2026-04-05T15:06:01.999Z</time></trkpt><trkpt lat="38.18283403643701" lon="15.345738796080315"><ele>46.66666666666667</ele><time>2026-04-05T15:06:03.999Z</time></trkpt><trkpt lat="38.182923608829604" lon="15.34574344034301"><ele>46.333333333333336</ele><time>2026-04-05T15:06:05.999Z</time></trkpt><trkpt lat="38.18302259711438" lon="15.3457597457988"><ele>46.0</ele><time>2026-04-05T15:06:07.999Z</time></trkpt><trkpt lat="38.183129793886856" lon="15.345778167627566"><ele>45.833333333333336</ele><time>2026-04-05T15:06:09.999Z</time></trkpt><trkpt lat="38.18324833337791" lon="15.345792953097922"><ele>45.66666666666667</ele><time>2026-04-05T15:06:11.999Z</time></trkpt><trkpt lat="38.18330873181018" lon="15.345832846912137"><ele>45.5</ele><time>2026-04-05T15:06:12.999Z</time></trkpt><trkpt lat="38.18337257872853" lon="15.34583090573658"><ele>45.333333333333336</ele><time>2026-04-05T15:06:13.999Z</time></trkpt><trkpt lat="38.18347578454727" lon="15.345801838086896"><ele>45.166666666666664</ele><time>2026-04-05T15:06:15.999Z</time></trkpt><trkpt lat="38.18356198763769" lon="15.345800279560459"><ele>45.0</ele><time>2026-04-05T15:06:17.999Z</time></trkpt><trkpt lat="38.18363229039672" lon="15.345821163185233"><ele>45.0</ele><time>2026-04-05T15:06:18.999Z</time></trkpt><trkpt lat="38.183704194941235" lon="15.345799174434166"><ele>45.0</ele><time>2026-04-05T15:06:19.999Z</time></trkpt><trkpt lat="38.18377165834615" lon="15.345808735032957"><ele>45.0</ele><time>2026-04-05T15:06:20.999Z</time></trkpt><trkpt lat="38.18383798061245" lon="15.345816499128054"><ele>45.0</ele><time>2026-04-05T15:06:21.999Z</time></trkpt><trkpt lat="38.18390342824883" lon="15.345830572260034"><ele>45.0</ele><time>2026-04-05T15:06:22.999Z</time></trkpt><trkpt lat="38.18397639391932" lon="15.34585124221039"><ele>45.0</ele><time>2026-04-05T15:06:23.999Z</time></trkpt><trkpt lat="38.184049904425535" lon="15.345868236602735"><ele>45.0</ele><time>2026-04-05T15:06:24.999Z</time></trkpt><trkpt lat="38.18416185472272" lon="15.345907965696624"><ele>44.833333333333336</ele><time>2026-04-05T15:06:26.999Z</time></trkpt><trkpt lat="38.18422387191942" lon="15.345930907627658"><ele>44.666666666666664</ele><time>2026-04-05T15:06:27.999Z</time></trkpt><trkpt lat="38.18432280696161" lon="15.345969713160843"><ele>44.5</ele><time>2026-04-05T15:06:29.999Z</time></trkpt><trkpt lat="38.184403931225084" lon="15.345978030689714"><ele>44.33333333333333</ele><time>2026-04-05T15:06:31.999Z</time></trkpt><trkpt lat="38.184465783815895" lon="15.346003273822223"><ele>44.166666666666664</ele><time>2026-04-05T15:06:33.999Z</time></trkpt><trkpt lat="38.18454160164211" lon="15.346027459798782"><ele>44.0</ele><time>2026-04-05T15:06:35.999Z</time></trkpt><trkpt lat="38.184636658352694" lon="15.346076397565657"><ele>44.0</ele><time>2026-04-05T15:06:37.999Z</time></trkpt><trkpt lat="38.18473862958503" lon="15.34611913552966"><ele>44.0</ele><time>2026-04-05T15:06:39.999Z</time></trkpt><trkpt lat="38.18482637511928" lon="15.346144610038117"><ele>44.0</ele><time>2026-04-05T15:06:41.999Z</time></trkpt><trkpt lat="38.18491315111984" lon="15.346169045987297"><ele>44.0</ele><time>2026-04-05T15:06:43.999Z</time></trkpt><trkpt lat="38.184984661389365" lon="15.346186261421034"><ele>44.0</ele><time>2026-04-05T15:06:45.999Z</time></trkpt><trkpt lat="38.18508801817534" lon="15.346193816875541"><ele>44.0</ele><time>2026-04-05T15:06:47.999Z</time></trkpt><trkpt lat="38.18515075449313" lon="15.346226441867891"><ele>44.0</ele><time>2026-04-05T15:06:48.999Z</time></trkpt><trkpt lat="38.18526547776971" lon="15.34626482175866"><ele>44.0</ele><time>2026-04-05T15:06:50.999Z</time></trkpt><trkpt lat="38.18535185793618" lon="15.346258396358895"><ele>44.0</ele><time>2026-04-05T15:06:52.999Z</time></trkpt><trkpt lat="38.18544734507353" lon="15.346280671533643"><ele>44.0</ele><time>2026-04-05T15:06:54.999Z</time></trkpt><trkpt lat="38.18557619786324" lon="15.346292739313517"><ele>44.0</ele><time>2026-04-05T15:06:56.999Z</time></trkpt><trkpt lat="38.1856516695713" lon="15.346295783545525"><ele>44.0</ele><time>2026-04-05T15:06:57.999Z</time></trkpt><trkpt lat="38.1857321075275" lon="15.346300024999687"><ele>44.0</ele><time>2026-04-05T15:06:58.999Z</time></trkpt><trkpt lat="38.18581503597288" lon="15.34631080286449"><ele>44.0</ele><time>2026-04-05T15:06:59.999Z</time></trkpt><trkpt lat="38.18590501426025" lon="15.346324286593996"><ele>44.0</ele><time>2026-04-05T15:07:00.999Z</time></trkpt><trkpt lat="38.18599733886849" lon="15.346335788687794"><ele>44.0</ele><time>2026-04-05T15:07:01.999Z</time></trkpt><trkpt lat="38.186083977516624" lon="15.346346388536595"><ele>43.666666666666664</ele><time>2026-04-05T15:07:02.999Z</time></trkpt><trkpt lat="38.186164981445536" lon="15.34635403012881"><ele>43.33333333333333</ele><time>2026-04-05T15:07:03.999Z</time></trkpt><trkpt lat="38.18624295600949" lon="15.346358603837947"><ele>43.0</ele><time>2026-04-05T15:07:04.999Z</time></trkpt><trkpt lat="38.18633345971935" lon="15.346360778442907"><ele>42.666666666666664</ele><time>2026-04-05T15:07:05.999Z</time></trkpt><trkpt lat="38.186426579212124" lon="15.346388322061669"><ele>42.333333333333336</ele><time>2026-04-05T15:07:06.999Z</time></trkpt><trkpt lat="38.18652212541643" lon="15.346397558768524"><ele>42.0</ele><time>2026-04-05T15:07:07.999Z</time></trkpt><trkpt lat="38.18660840960866" lon="15.346389760441816"><ele>41.833333333333336</ele><time>2026-04-05T15:07:08.999Z</time></trkpt><trkpt lat="38.186692367388815" lon="15.346410612414848"><ele>41.666666666666664</ele><time>2026-04-05T15:07:09.999Z</time></trkpt><trkpt lat="38.18677679201788" lon="15.346431125177151"><ele>41.5</ele><time>2026-04-05T15:07:10.999Z</time></trkpt><trkpt lat="38.1868622806382" lon="15.34644241906002"><ele>41.33333333333333</ele><time>2026-04-05T15:07:11.999Z</time></trkpt><trkpt lat="38.186940291941006" lon="15.346476292207235"><ele>41.166666666666664</ele><time>2026-04-05T15:07:12.999Z</time></trkpt><trkpt lat="38.18702197043539" lon="15.346482316453999"><ele>41.0</ele><time>2026-04-05T15:07:13.999Z</time></trkpt><trkpt lat="38.18709885607978" lon="15.346477315946569"><ele>41.0</ele><time>2026-04-05T15:07:14.999Z</time></trkpt><trkpt lat="38.18716036354564" lon="15.346456344074776"><ele>41.0</ele><time>2026-04-05T15:07:15.999Z</time></trkpt><trkpt lat="38.18726607147747" lon="15.346444441927963"><ele>41.0</ele><time>2026-04-05T15:07:17.999Z</time></trkpt><trkpt lat="38.18736594885088" lon="15.34646644005406"><ele>41.0</ele><time>2026-04-05T15:07:19.999Z</time></trkpt><trkpt lat="38.18749167492761" lon="15.346470166159072"><ele>41.0</ele><time>2026-04-05T15:07:21.999Z</time></trkpt><trkpt lat="38.1875575018826" lon="15.346483103485884"><ele>40.666666666666664</ele><time>2026-04-05T15:07:22.999Z</time></trkpt><trkpt lat="38.187679510281285" lon="15.346464588974973"><ele>40.33333333333333</ele><time>2026-04-05T15:07:24.999Z</time></trkpt><trkpt lat="38.18774749034862" lon="15.346440844352058"><ele>40.0</ele><time>2026-04-05T15:07:25.999Z</time></trkpt><trkpt lat="38.187810330581414" lon="15.346412305965458"><ele>39.666666666666664</ele><time>2026-04-05T15:07:26.999Z</time></trkpt><trkpt lat="38.18788908268055" lon="15.346388247686233"><ele>39.333333333333336</ele><time>2026-04-05T15:07:28.999Z</time></trkpt><trkpt lat="38.187982311023475" lon="15.346373248019997"><ele>39.0</ele><time>2026-04-05T15:07:31.999Z</time></trkpt><trkpt lat="38.18804513043182" lon="15.346412293271172"><ele>39.0</ele><time>2026-04-05T15:07:33.999Z</time></trkpt><trkpt lat="38.1880821047422" lon="15.346506603636271"><ele>39.0</ele><time>2026-04-05T15:07:36.999Z</time></trkpt><trkpt lat="38.18808943463055" lon="15.346599890980475"><ele>39.0</ele><time>2026-04-05T15:07:38.999Z</time></trkpt><trkpt lat="38.18808530915904" lon="15.34670784997516"><ele>39.0</ele><time>2026-04-05T15:07:40.999Z</time></trkpt><trkpt lat="38.188068075963976" lon="15.346800672139718"><ele>39.0</ele><time>2026-04-05T15:07:42.999Z</time></trkpt><trkpt lat="38.188047828292774" lon="15.346908067944188"><ele>39.0</ele><time>2026-04-05T15:07:44.999Z</time></trkpt><trkpt lat="38.1880246363604" lon="15.346986960640047"><ele>39.0</ele><time>2026-04-05T15:07:46.999Z</time></trkpt><trkpt lat="38.188042329390434" lon="15.346875176493118"><ele>39.0</ele><time>2026-04-05T15:07:56.999Z</time></trkpt><trkpt lat="38.18806785937932" lon="15.34675921110097"><ele>39.0</ele><time>2026-04-05T15:07:58.999Z</time></trkpt><trkpt lat="38.18833750585446" lon="15.346665477704205"><ele>39.0</ele><time>2026-04-05T15:08:01.999Z</time></trkpt><trkpt lat="38.18836189754525" lon="15.346576583518834"><ele>39.0</ele><time>2026-04-05T15:08:03.999Z</time></trkpt><trkpt lat="38.188383978406605" lon="15.346464292234822"><ele>39.0</ele><time>2026-04-05T15:08:05.999Z</time></trkpt><trkpt lat="38.18841386589437" lon="15.34636344394489"><ele>39.0</ele><time>2026-04-05T15:08:07.999Z</time></trkpt><trkpt lat="38.18846161464766" lon="15.346258056780387"><ele>39.0</ele><time>2026-04-05T15:08:09.999Z</time></trkpt><trkpt lat="38.188507527953604" lon="15.34614227889386"><ele>39.0</ele><time>2026-04-05T15:08:11.999Z</time></trkpt><trkpt lat="38.188546977849" lon="15.346026877425174"><ele>39.0</ele><time>2026-04-05T15:08:13.999Z</time></trkpt><trkpt lat="38.18858962745812" lon="15.345923132060769"><ele>39.0</ele><time>2026-04-05T15:08:15.999Z</time></trkpt><trkpt lat="38.18863122646953" lon="15.345829536313026"><ele>39.0</ele><time>2026-04-05T15:08:17.999Z</time></trkpt><trkpt lat="38.18865000160801" lon="15.345742580366474"><ele>39.0</ele><time>2026-04-05T15:08:19.999Z</time></trkpt><trkpt lat="38.1886370148831" lon="15.345651307580882"><ele>39.0</ele><time>2026-04-05T15:08:23.999Z</time></trkpt><trkpt lat="38.18857146702073" lon="15.34561866057322"><ele>39.0</ele><time>2026-04-05T15:08:27.999Z</time></trkpt><trkpt lat="38.18856183078307" lon="15.345714457405103"><ele>39.0</ele><time>2026-04-05T15:08:33.999Z</time></trkpt><trkpt lat="38.18857901447081" lon="15.345802328061716"><ele>39.0</ele><time>2026-04-05T15:08:35.999Z</time></trkpt><trkpt lat="38.188561727054996" lon="15.34595532871381"><ele>39.0</ele><time>2026-04-05T15:08:38.999Z</time></trkpt><trkpt lat="38.188513335307675" lon="15.346064436121015"><ele>39.0</ele><time>2026-04-05T15:08:41Z</time></trkpt><trkpt lat="38.18847391061294" lon="15.346204509951944"><ele>39.0</ele><time>2026-04-05T15:08:43Z</time></trkpt><trkpt lat="38.18841736718963" lon="15.346329716414758"><ele>39.0</ele><time>2026-04-05T15:08:45Z</time></trkpt><trkpt lat="38.18839004471771" lon="15.346404618977996"><ele>39.0</ele><time>2026-04-05T15:08:46Z</time></trkpt><trkpt lat="38.1883593317271" lon="15.346541498922537"><ele>39.0</ele><time>2026-04-05T15:08:48Z</time></trkpt><trkpt lat="38.18833425408471" lon="15.346688949889781"><ele>39.0</ele><time>2026-04-05T15:08:50Z</time></trkpt><trkpt lat="38.18808043825954" lon="15.346715413999853"><ele>39.0</ele><time>2026-04-05T15:08:52Z</time></trkpt><trkpt lat="38.1880432240126" lon="15.34686858200606"><ele>39.0</ele><time>2026-04-05T15:08:54Z</time></trkpt><trkpt lat="38.18801962193086" lon="15.346997023234694"><ele>39.0</ele><time>2026-04-05T15:08:56Z</time></trkpt><trkpt lat="38.188007301113615" lon="15.34711100341549"><ele>39.0</ele><time>2026-04-05T15:08:58Z</time></trkpt><trkpt lat="38.18797163152769" lon="15.347187449941085"><ele>39.0</ele><time>2026-04-05T15:09:00Z</time></trkpt><trkpt lat="38.18795500518704" lon="15.347307980923317"><ele>39.166666666666664</ele><time>2026-04-05T15:09:02Z</time></trkpt><trkpt lat="38.18791052542096" lon="15.347461702623981"><ele>39.333333333333336</ele><time>2026-04-05T15:09:04Z</time></trkpt><trkpt lat="38.18788368553952" lon="15.3475481241146"><ele>39.5</ele><time>2026-04-05T15:09:05Z</time></trkpt><trkpt lat="38.187851628304294" lon="15.347632889463858"><ele>39.66666666666667</ele><time>2026-04-05T15:09:06Z</time></trkpt><trkpt lat="38.187823404828166" lon="15.34771540759099"><ele>39.833333333333336</ele><time>2026-04-05T15:09:07Z</time></trkpt><trkpt lat="38.1878002101981" lon="15.347792466049087"><ele>40.0</ele><time>2026-04-05T15:09:08Z</time></trkpt><trkpt lat="38.187746897500595" lon="15.347918643386295"><ele>40.333333333333336</ele><time>2026-04-05T15:09:10Z</time></trkpt><trkpt lat="38.18767641268677" lon="15.348062776894915"><ele>40.66666666666667</ele><time>2026-04-05T15:09:12Z</time></trkpt><trkpt lat="38.18763695609357" lon="15.348144083519525"><ele>41.0</ele><time>2026-04-05T15:09:13Z</time></trkpt><trkpt lat="38.187603511679235" lon="15.348224569385081"><ele>41.333333333333336</ele><time>2026-04-05T15:09:14Z</time></trkpt><trkpt lat="38.18757522939971" lon="15.34830455362906"><ele>41.666666666666664</ele><time>2026-04-05T15:09:15Z</time></trkpt><trkpt lat="38.18754951961655" lon="15.348383794677074"><ele>42.0</ele><time>2026-04-05T15:09:16Z</time></trkpt><trkpt lat="38.18752208591037" lon="15.348530927842889"><ele>42.0</ele><time>2026-04-05T15:09:18Z</time></trkpt><trkpt lat="38.18749697052837" lon="15.348658207930482"><ele>42.0</ele><time>2026-04-05T15:09:20Z</time></trkpt><trkpt lat="38.18745095458507" lon="15.348770506140813"><ele>42.0</ele><time>2026-04-05T15:09:22Z</time></trkpt><trkpt lat="38.18738212113675" lon="15.34887072881555"><ele>42.0</ele><time>2026-04-05T15:09:24Z</time></trkpt><trkpt lat="38.18733158327369" lon="15.34893515674102"><ele>42.0</ele><time>2026-04-05T15:09:26Z</time></trkpt><trkpt lat="38.18729616050331" lon="15.349012114110046"><ele>42.0</ele><time>2026-04-05T15:09:29Z</time></trkpt><trkpt lat="38.18725894445983" lon="15.349108685120282"><ele>42.5</ele><time>2026-04-05T15:09:33Z</time></trkpt><trkpt lat="38.18723449949841" lon="15.349189268132138"><ele>43.0</ele><time>2026-04-05T15:09:35Z</time></trkpt><trkpt lat="38.18719079715932" lon="15.349318461183056"><ele>43.5</ele><time>2026-04-05T15:09:37Z</time></trkpt><trkpt lat="38.187171980583294" lon="15.349398405763974"><ele>44.0</ele><time>2026-04-05T15:09:38Z</time></trkpt><trkpt lat="38.18714689284352" lon="15.349489098497795"><ele>44.5</ele><time>2026-04-05T15:09:39Z</time></trkpt><trkpt lat="38.18711893006625" lon="15.349587164380587"><ele>45.0</ele><time>2026-04-05T15:09:40Z</time></trkpt><trkpt lat="38.18708692263477" lon="15.349684526915064"><ele>44.833333333333336</ele><time>2026-04-05T15:09:41Z</time></trkpt><trkpt lat="38.18705674994521" lon="15.34977362978811"><ele>44.666666666666664</ele><time>2026-04-05T15:09:42Z</time></trkpt><trkpt lat="38.18702301786775" lon="15.349867286911214"><ele>44.5</ele><time>2026-04-05T15:09:43Z</time></trkpt><trkpt lat="38.186990070782024" lon="15.349965620499226"><ele>44.33333333333333</ele><time>2026-04-05T15:09:44Z</time></trkpt><trkpt lat="38.18695662419076" lon="15.350066699877807"><ele>44.166666666666664</ele><time>2026-04-05T15:09:45Z</time></trkpt><trkpt lat="38.18692246134689" lon="15.3501628367113"><ele>44.0</ele><time>2026-04-05T15:09:46Z</time></trkpt><trkpt lat="38.18688718986077" lon="15.35025868572446"><ele>44.0</ele><time>2026-04-05T15:09:47Z</time></trkpt><trkpt lat="38.18685975550508" lon="15.350347326867535"><ele>44.0</ele><time>2026-04-05T15:09:48Z</time></trkpt><trkpt lat="38.186811935843316" lon="15.350414161596785"><ele>44.0</ele><time>2026-04-05T15:09:49Z</time></trkpt><trkpt lat="38.186780657401144" lon="15.35048508466078"><ele>44.0</ele><time>2026-04-05T15:09:50Z</time></trkpt><trkpt lat="38.18672327376311" lon="15.35061520062343"><ele>44.0</ele><time>2026-04-05T15:09:52Z</time></trkpt><trkpt lat="38.186671848402725" lon="15.350736886839147"><ele>44.0</ele><time>2026-04-05T15:09:54Z</time></trkpt><trkpt lat="38.18663348243893" lon="15.350857014482266"><ele>44.33333333333333</ele><time>2026-04-05T15:09:56Z</time></trkpt><trkpt lat="38.18660237472292" lon="15.350993103420018"><ele>44.666666666666664</ele><time>2026-04-05T15:09:58Z</time></trkpt><trkpt lat="38.18659597332008" lon="15.351074232629344"><ele>45.0</ele><time>2026-04-05T15:09:59Z</time></trkpt><trkpt lat="38.186559115108494" lon="15.351149517156065"><ele>45.333333333333336</ele><time>2026-04-05T15:10:00Z</time></trkpt><trkpt lat="38.18654436145797" lon="15.351243613072866"><ele>45.66666666666667</ele><time>2026-04-05T15:10:01Z</time></trkpt><trkpt lat="38.186507426200954" lon="15.35133013694937"><ele>46.0</ele><time>2026-04-05T15:10:02Z</time></trkpt><trkpt lat="38.186474757566344" lon="15.351417341970018"><ele>46.333333333333336</ele><time>2026-04-05T15:10:03Z</time></trkpt><trkpt lat="38.18643764684927" lon="15.351500375949758"><ele>46.66666666666667</ele><time>2026-04-05T15:10:04Z</time></trkpt><trkpt lat="38.18640558122895" lon="15.351585560478352"><ele>47.0</ele><time>2026-04-05T15:10:05Z</time></trkpt><trkpt lat="38.186375917598745" lon="15.351674517950308"><ele>47.333333333333336</ele><time>2026-04-05T15:10:06Z</time></trkpt><trkpt lat="38.18633274645998" lon="15.351750948765517"><ele>47.666666666666664</ele><time>2026-04-05T15:10:07Z</time></trkpt><trkpt lat="38.18629967631128" lon="15.351835758295271"><ele>48.0</ele><time>2026-04-05T15:10:08Z</time></trkpt><trkpt lat="38.18623604615638" lon="15.351971083429172"><ele>47.99999999999999</ele><time>2026-04-05T15:10:10Z</time></trkpt><trkpt lat="38.186198091273475" lon="15.35203837982848"><ele>48.0</ele><time>2026-04-05T15:10:11Z</time></trkpt><trkpt lat="38.186156807362565" lon="15.352103472431512"><ele>48.0</ele><time>2026-04-05T15:10:12Z</time></trkpt><trkpt lat="38.186125273486084" lon="15.352181189762609"><ele>48.0</ele><time>2026-04-05T15:10:12.999Z</time></trkpt><trkpt lat="38.18607619633896" lon="15.35224915264442"><ele>48.0</ele><time>2026-04-05T15:10:13.999Z</time></trkpt><trkpt lat="38.18602621763382" lon="15.352318689889026"><ele>47.99999999999999</ele><time>2026-04-05T15:10:14.999Z</time></trkpt><trkpt lat="38.18597199403249" lon="15.352392311488595"><ele>48.0</ele><time>2026-04-05T15:10:15.999Z</time></trkpt><trkpt lat="38.18591859024655" lon="15.352469533226367"><ele>48.0</ele><time>2026-04-05T15:10:16.999Z</time></trkpt><trkpt lat="38.185876659419485" lon="15.35254152995716"><ele>48.0</ele><time>2026-04-05T15:10:17.999Z</time></trkpt><trkpt lat="38.185829997159956" lon="15.352616291814808"><ele>48.0</ele><time>2026-04-05T15:10:18.999Z</time></trkpt><trkpt lat="38.1857794887732" lon="15.352697721727488"><ele>48.0</ele><time>2026-04-05T15:10:19.999Z</time></trkpt><trkpt lat="38.18572737744029" lon="15.35278874075222"><ele>48.0</ele><time>2026-04-05T15:10:20.999Z</time></trkpt><trkpt lat="38.185673884011976" lon="15.352883346636743"><ele>48.0</ele><time>2026-04-05T15:10:21.999Z</time></trkpt><trkpt lat="38.185611948427244" lon="15.352978485759794"><ele>48.5</ele><time>2026-04-05T15:10:22.999Z</time></trkpt><trkpt lat="38.185550852259624" lon="15.353069398806431"><ele>49.0</ele><time>2026-04-05T15:10:23.999Z</time></trkpt><trkpt lat="38.18549173981485" lon="15.353155014363741"><ele>49.5</ele><time>2026-04-05T15:10:24.999Z</time></trkpt><trkpt lat="38.18543808734102" lon="15.353239384476886"><ele>50.0</ele><time>2026-04-05T15:10:25.999Z</time></trkpt><trkpt lat="38.18538856225083" lon="15.353322437070382"><ele>50.5</ele><time>2026-04-05T15:10:26.999Z</time></trkpt><trkpt lat="38.18534129457821" lon="15.353398965146797"><ele>51.0</ele><time>2026-04-05T15:10:27.999Z</time></trkpt><trkpt lat="38.18529220972862" lon="15.35346557659414"><ele>51.0</ele><time>2026-04-05T15:10:28.999Z</time></trkpt><trkpt lat="38.185242145356" lon="15.353525014617276"><ele>51.0</ele><time>2026-04-05T15:10:29.999Z</time></trkpt><trkpt lat="38.185184155080286" lon="15.35358228963806"><ele>51.0</ele><time>2026-04-05T15:10:30.999Z</time></trkpt><trkpt lat="38.18511646846895" lon="15.353640892894202"><ele>51.0</ele><time>2026-04-05T15:10:31.999Z</time></trkpt><trkpt lat="38.185043863700315" lon="15.353690542088177"><ele>51.0</ele><time>2026-04-05T15:10:32.999Z</time></trkpt><trkpt lat="38.18497302194366" lon="15.353747056212102"><ele>51.0</ele><time>2026-04-05T15:10:33.999Z</time></trkpt><trkpt lat="38.184903841685866" lon="15.353815657256948"><ele>52.166666666666664</ele><time>2026-04-05T15:10:34.999Z</time></trkpt><trkpt lat="38.18483926323529" lon="15.353894223522646"><ele>53.33333333333333</ele><time>2026-04-05T15:10:35.999Z</time></trkpt><trkpt lat="38.18478364508455" lon="15.353953962371106"><ele>54.5</ele><time>2026-04-05T15:10:36.999Z</time></trkpt><trkpt lat="38.18473487353606" lon="15.354012541518774"><ele>55.666666666666664</ele><time>2026-04-05T15:10:37.999Z</time></trkpt><trkpt lat="38.18467314401473" lon="15.354069804425297"><ele>56.83333333333333</ele><time>2026-04-05T15:10:39.999Z</time></trkpt><trkpt lat="38.18458208883292" lon="15.354084983134985"><ele>58.0</ele><time>2026-04-05T15:10:42.999Z</time></trkpt><trkpt lat="38.18448242746754" lon="15.354084273816316"><ele>58.0</ele><time>2026-04-05T15:10:45.999Z</time></trkpt><trkpt lat="38.18440042091229" lon="15.35412006366097"><ele>58.0</ele><time>2026-04-05T15:10:48Z</time></trkpt><trkpt lat="38.18429415264629" lon="15.354179732428817"><ele>58.0</ele><time>2026-04-05T15:10:50Z</time></trkpt><trkpt lat="38.184200452305305" lon="15.354229978878886"><ele>58.0</ele><time>2026-04-05T15:10:52Z</time></trkpt><trkpt lat="38.18410252972574" lon="15.354246361554761"><ele>58.0</ele><time>2026-04-05T15:10:54Z</time></trkpt><trkpt lat="38.18398461266072" lon="15.354238780636846"><ele>59.166666666666664</ele><time>2026-04-05T15:10:56Z</time></trkpt><trkpt lat="38.183856774579425" lon="15.35423435294104"><ele>60.33333333333333</ele><time>2026-04-05T15:10:58Z</time></trkpt><trkpt lat="38.18379153122987" lon="15.354233013258053"><ele>61.5</ele><time>2026-04-05T15:10:59Z</time></trkpt><trkpt lat="38.18372094158172" lon="15.354234287593261"><ele>62.66666666666667</ele><time>2026-04-05T15:11:00Z</time></trkpt><trkpt lat="38.18364548181766" lon="15.354229843609199"><ele>63.833333333333336</ele><time>2026-04-05T15:11:01Z</time></trkpt><trkpt lat="38.18356616810145" lon="15.35422162497562"><ele>65.0</ele><time>2026-04-05T15:11:02Z</time></trkpt><trkpt lat="38.183486551521774" lon="15.354213017123929"><ele>65.0</ele><time>2026-04-05T15:11:03Z</time></trkpt><trkpt lat="38.183410344811705" lon="15.354210447955875"><ele>65.0</ele><time>2026-04-05T15:11:04Z</time></trkpt><trkpt lat="38.183331392784424" lon="15.354207117733607"><ele>65.0</ele><time>2026-04-05T15:11:05Z</time></trkpt><trkpt lat="38.18325225265211" lon="15.354203427531525"><ele>65.0</ele><time>2026-04-05T15:11:06Z</time></trkpt><trkpt lat="38.183174981238466" lon="15.3541947571813"><ele>65.0</ele><time>2026-04-05T15:11:07Z</time></trkpt><trkpt lat="38.18309418361018" lon="15.35418293759879"><ele>65.0</ele><time>2026-04-05T15:11:08Z</time></trkpt><trkpt lat="38.18302120458769" lon="15.354172298097033"><ele>65.71428571428572</ele><time>2026-04-05T15:11:09Z</time></trkpt><trkpt lat="38.182956655679675" lon="15.354165981534193"><ele>66.42857142857143</ele><time>2026-04-05T15:11:10Z</time></trkpt><trkpt lat="38.182887186566454" lon="15.354163585730715"><ele>67.14285714285714</ele><time>2026-04-05T15:11:11Z</time></trkpt><trkpt lat="38.18281468283239" lon="15.354184846940996"><ele>67.85714285714286</ele><time>2026-04-05T15:11:12Z</time></trkpt><trkpt lat="38.18275311673534" lon="15.35420528107784"><ele>68.57142857142857</ele><time>2026-04-05T15:11:13Z</time></trkpt><trkpt lat="38.182691835709385" lon="15.354246434226804"><ele>69.28571428571429</ele><time>2026-04-05T15:11:15Z</time></trkpt><trkpt lat="38.182622588237344" lon="15.354244854925872"><ele>70.0</ele><time>2026-04-05T15:11:18Z</time></trkpt><trkpt lat="38.18260910033008" lon="15.354324480389483"><ele>70.0</ele><time>2026-04-05T15:11:19Z</time></trkpt></trkseg></trk></gpx>